<?xml version="1.0" encoding="UTF-8" standalone="no" ?>
<gpx xmlns="http://www.topografix.com/GPX/1/1" xmlns:xsi="http://www.w3.org/2001/XMLSchema-instance" xsi:schemaLocation="http://www.topografix.com/GPX/1/1 http://www.topografix.com/GPX/1/1/gpx.xsd" version="1.1" creator="VisuGPX - https://www.visugpx.com">
  <metadata>
    <name>2021-07-01 Dambach et château du Bernstein</name>
  </metadata>
  <trk>
    <name><![CDATA[2021-07-01 Dambach et château du Bernstein]]></name>
    <extensions>
      <line xmlns="http://www.topografix.com/GPX/gpx_style/0/2">
        <color>0000FF</color>
        <opacity>0.59</opacity>
        <width>6</width>
      </line>
    </extensions>
    <trkseg>
      <trkpt lat="48.34081" lon="7.39158">
        <ele>414</ele>
        <time>2021-07-01T07:47:12.000Z</time>
      </trkpt>
      <trkpt lat="48.34081" lon="7.39158">
        <ele>414</ele>
        <time>2021-07-01T07:47:12.000Z</time>
      </trkpt>
      <trkpt lat="48.34074" lon="7.39167">
        <ele>414.8</ele>
        <time>2021-07-01T07:48:14.000Z</time>
      </trkpt>
      <trkpt lat="48.34071" lon="7.39181">
        <ele>415.1</ele>
        <time>2021-07-01T07:48:54.000Z</time>
      </trkpt>
      <trkpt lat="48.34069" lon="7.39195">
        <ele>415.4</ele>
        <time>2021-07-01T07:49:03.000Z</time>
      </trkpt>
      <trkpt lat="48.34069" lon="7.39209">
        <ele>415.4</ele>
        <time>2021-07-01T07:49:13.000Z</time>
      </trkpt>
      <trkpt lat="48.34066" lon="7.39223">
        <ele>415.7</ele>
        <time>2021-07-01T07:49:21.000Z</time>
      </trkpt>
      <trkpt lat="48.34066" lon="7.39239">
        <ele>415.8</ele>
        <time>2021-07-01T07:49:30.000Z</time>
      </trkpt>
      <trkpt lat="48.34064" lon="7.39252">
        <ele>416</ele>
        <time>2021-07-01T07:49:37.000Z</time>
      </trkpt>
      <trkpt lat="48.3406" lon="7.39266">
        <ele>415.9</ele>
        <time>2021-07-01T07:49:44.000Z</time>
      </trkpt>
      <trkpt lat="48.34061" lon="7.39282">
        <ele>415.2</ele>
        <time>2021-07-01T07:49:50.000Z</time>
      </trkpt>
      <trkpt lat="48.34062" lon="7.39295">
        <ele>414.4</ele>
        <time>2021-07-01T07:49:57.000Z</time>
      </trkpt>
      <trkpt lat="48.34061" lon="7.39309">
        <ele>414.1</ele>
        <time>2021-07-01T07:50:04.000Z</time>
      </trkpt>
      <trkpt lat="48.34059" lon="7.39322">
        <ele>413.8</ele>
        <time>2021-07-01T07:50:12.000Z</time>
      </trkpt>
      <trkpt lat="48.3406" lon="7.39337">
        <ele>413.2</ele>
        <time>2021-07-01T07:50:21.000Z</time>
      </trkpt>
      <trkpt lat="48.34059" lon="7.3935">
        <ele>412.9</ele>
        <time>2021-07-01T07:50:26.000Z</time>
      </trkpt>
      <trkpt lat="48.34057" lon="7.39364">
        <ele>413</ele>
        <time>2021-07-01T07:50:32.000Z</time>
      </trkpt>
      <trkpt lat="48.34058" lon="7.39378">
        <ele>412.4</ele>
        <time>2021-07-01T07:50:39.000Z</time>
      </trkpt>
      <trkpt lat="48.34055" lon="7.39393">
        <ele>412.6</ele>
        <time>2021-07-01T07:50:46.000Z</time>
      </trkpt>
      <trkpt lat="48.34051" lon="7.39405">
        <ele>413.1</ele>
        <time>2021-07-01T07:50:52.000Z</time>
      </trkpt>
      <trkpt lat="48.34046" lon="7.39417">
        <ele>413.7</ele>
        <time>2021-07-01T07:51:03.000Z</time>
      </trkpt>
      <trkpt lat="48.34039" lon="7.39426">
        <ele>414.3</ele>
        <time>2021-07-01T07:51:10.000Z</time>
      </trkpt>
      <trkpt lat="48.34032" lon="7.39435">
        <ele>414.9</ele>
        <time>2021-07-01T07:51:18.000Z</time>
      </trkpt>
      <trkpt lat="48.34024" lon="7.39445">
        <ele>415.4</ele>
        <time>2021-07-01T07:51:26.000Z</time>
      </trkpt>
      <trkpt lat="48.34017" lon="7.39455">
        <ele>415.7</ele>
        <time>2021-07-01T07:51:34.000Z</time>
      </trkpt>
      <trkpt lat="48.34008" lon="7.39464">
        <ele>416.3</ele>
        <time>2021-07-01T07:51:41.000Z</time>
      </trkpt>
      <trkpt lat="48.34001" lon="7.39473">
        <ele>416.6</ele>
        <time>2021-07-01T07:51:47.000Z</time>
      </trkpt>
      <trkpt lat="48.33994" lon="7.39482">
        <ele>417.3</ele>
        <time>2021-07-01T07:51:56.000Z</time>
      </trkpt>
      <trkpt lat="48.33987" lon="7.39491">
        <ele>418.5</ele>
        <time>2021-07-01T07:52:09.000Z</time>
      </trkpt>
      <trkpt lat="48.3398" lon="7.39502">
        <ele>419.4</ele>
        <time>2021-07-01T07:52:16.000Z</time>
      </trkpt>
      <trkpt lat="48.33974" lon="7.39515">
        <ele>420.1</ele>
        <time>2021-07-01T07:52:24.000Z</time>
      </trkpt>
      <trkpt lat="48.33967" lon="7.39525">
        <ele>421</ele>
        <time>2021-07-01T07:52:30.000Z</time>
      </trkpt>
      <trkpt lat="48.33961" lon="7.39535">
        <ele>422</ele>
        <time>2021-07-01T07:52:37.000Z</time>
      </trkpt>
      <trkpt lat="48.33956" lon="7.39547">
        <ele>422.1</ele>
        <time>2021-07-01T07:52:44.000Z</time>
      </trkpt>
      <trkpt lat="48.33954" lon="7.39562">
        <ele>421.4</ele>
        <time>2021-07-01T07:52:50.000Z</time>
      </trkpt>
      <trkpt lat="48.33953" lon="7.39576">
        <ele>420.4</ele>
        <time>2021-07-01T07:52:56.000Z</time>
      </trkpt>
      <trkpt lat="48.33952" lon="7.3959">
        <ele>419.7</ele>
        <time>2021-07-01T07:53:03.000Z</time>
      </trkpt>
      <trkpt lat="48.33952" lon="7.39603">
        <ele>418.7</ele>
        <time>2021-07-01T07:53:09.000Z</time>
      </trkpt>
      <trkpt lat="48.33956" lon="7.39616">
        <ele>416.6</ele>
        <time>2021-07-01T07:53:18.000Z</time>
      </trkpt>
      <trkpt lat="48.33954" lon="7.39629">
        <ele>416.1</ele>
        <time>2021-07-01T07:53:25.000Z</time>
      </trkpt>
      <trkpt lat="48.33952" lon="7.39644">
        <ele>415.7</ele>
        <time>2021-07-01T07:53:33.000Z</time>
      </trkpt>
      <trkpt lat="48.3395" lon="7.39657">
        <ele>415.3</ele>
        <time>2021-07-01T07:53:41.000Z</time>
      </trkpt>
      <trkpt lat="48.33947" lon="7.39671">
        <ele>415.4</ele>
        <time>2021-07-01T07:53:51.000Z</time>
      </trkpt>
      <trkpt lat="48.33945" lon="7.39686">
        <ele>415.4</ele>
        <time>2021-07-01T07:53:59.000Z</time>
      </trkpt>
      <trkpt lat="48.33942" lon="7.397">
        <ele>415.5</ele>
        <time>2021-07-01T07:54:05.000Z</time>
      </trkpt>
      <trkpt lat="48.33939" lon="7.39713">
        <ele>416</ele>
        <time>2021-07-01T07:54:13.000Z</time>
      </trkpt>
      <trkpt lat="48.33939" lon="7.39727">
        <ele>415.5</ele>
        <time>2021-07-01T07:54:19.000Z</time>
      </trkpt>
      <trkpt lat="48.33938" lon="7.39742">
        <ele>415.1</ele>
        <time>2021-07-01T07:54:26.000Z</time>
      </trkpt>
      <trkpt lat="48.33935" lon="7.39755">
        <ele>415.4</ele>
        <time>2021-07-01T07:54:33.000Z</time>
      </trkpt>
      <trkpt lat="48.33933" lon="7.3977">
        <ele>415.2</ele>
        <time>2021-07-01T07:54:41.000Z</time>
      </trkpt>
      <trkpt lat="48.3393" lon="7.39785">
        <ele>415.7</ele>
        <time>2021-07-01T07:54:47.000Z</time>
      </trkpt>
      <trkpt lat="48.33924" lon="7.39797">
        <ele>416.7</ele>
        <time>2021-07-01T07:54:53.000Z</time>
      </trkpt>
      <trkpt lat="48.33923" lon="7.39812">
        <ele>416.4</ele>
        <time>2021-07-01T07:55:00.000Z</time>
      </trkpt>
      <trkpt lat="48.33916" lon="7.39823">
        <ele>417.6</ele>
        <time>2021-07-01T07:55:06.000Z</time>
      </trkpt>
      <trkpt lat="48.33911" lon="7.39838">
        <ele>417.8</ele>
        <time>2021-07-01T07:55:11.000Z</time>
      </trkpt>
      <trkpt lat="48.33906" lon="7.39851">
        <ele>417.5</ele>
        <time>2021-07-01T07:55:17.000Z</time>
      </trkpt>
      <trkpt lat="48.33904" lon="7.39866">
        <ele>416.8</ele>
        <time>2021-07-01T07:55:24.000Z</time>
      </trkpt>
      <trkpt lat="48.33902" lon="7.3988">
        <ele>416</ele>
        <time>2021-07-01T07:55:31.000Z</time>
      </trkpt>
      <trkpt lat="48.33901" lon="7.39894">
        <ele>415.1</ele>
        <time>2021-07-01T07:55:37.000Z</time>
      </trkpt>
      <trkpt lat="48.33901" lon="7.39908">
        <ele>414</ele>
        <time>2021-07-01T07:55:45.000Z</time>
      </trkpt>
      <trkpt lat="48.33901" lon="7.39922">
        <ele>413.1</ele>
        <time>2021-07-01T07:55:52.000Z</time>
      </trkpt>
      <trkpt lat="48.33899" lon="7.39937">
        <ele>412.8</ele>
        <time>2021-07-01T07:55:58.000Z</time>
      </trkpt>
      <trkpt lat="48.33897" lon="7.39951">
        <ele>412.4</ele>
        <time>2021-07-01T07:56:04.000Z</time>
      </trkpt>
      <trkpt lat="48.33893" lon="7.39965">
        <ele>412.3</ele>
        <time>2021-07-01T07:56:11.000Z</time>
      </trkpt>
      <trkpt lat="48.33888" lon="7.39979">
        <ele>412.5</ele>
        <time>2021-07-01T07:56:19.000Z</time>
      </trkpt>
      <trkpt lat="48.3388" lon="7.39989">
        <ele>413</ele>
        <time>2021-07-01T07:56:27.000Z</time>
      </trkpt>
      <trkpt lat="48.33876" lon="7.4">
        <ele>412.9</ele>
        <time>2021-07-01T07:56:34.000Z</time>
      </trkpt>
      <trkpt lat="48.3387" lon="7.40012">
        <ele>411.7</ele>
        <time>2021-07-01T07:56:42.000Z</time>
      </trkpt>
      <trkpt lat="48.33865" lon="7.40025">
        <ele>410.4</ele>
        <time>2021-07-01T07:56:50.000Z</time>
      </trkpt>
      <trkpt lat="48.3386" lon="7.40037">
        <ele>409.1</ele>
        <time>2021-07-01T07:56:58.000Z</time>
      </trkpt>
      <trkpt lat="48.33852" lon="7.40044">
        <ele>408.7</ele>
        <time>2021-07-01T07:57:06.000Z</time>
      </trkpt>
      <trkpt lat="48.33844" lon="7.40052">
        <ele>408.3</ele>
        <time>2021-07-01T07:57:13.000Z</time>
      </trkpt>
      <trkpt lat="48.33838" lon="7.40063">
        <ele>407.2</ele>
        <time>2021-07-01T07:57:21.000Z</time>
      </trkpt>
      <trkpt lat="48.3383" lon="7.40071">
        <ele>405.4</ele>
        <time>2021-07-01T07:57:30.000Z</time>
      </trkpt>
      <trkpt lat="48.33824" lon="7.40081">
        <ele>402</ele>
        <time>2021-07-01T07:57:35.000Z</time>
      </trkpt>
      <trkpt lat="48.33815" lon="7.40087">
        <ele>398.6</ele>
        <time>2021-07-01T07:57:44.000Z</time>
      </trkpt>
      <trkpt lat="48.33805" lon="7.40096">
        <ele>394.6</ele>
        <time>2021-07-01T07:57:51.000Z</time>
      </trkpt>
      <trkpt lat="48.33797" lon="7.40091">
        <ele>393.4</ele>
        <time>2021-07-01T07:57:59.000Z</time>
      </trkpt>
      <trkpt lat="48.33789" lon="7.40082">
        <ele>393.1</ele>
        <time>2021-07-01T07:58:06.000Z</time>
      </trkpt>
      <trkpt lat="48.33782" lon="7.40072">
        <ele>393.5</ele>
        <time>2021-07-01T07:58:16.000Z</time>
      </trkpt>
      <trkpt lat="48.33775" lon="7.40063">
        <ele>393.8</ele>
        <time>2021-07-01T07:58:24.000Z</time>
      </trkpt>
      <trkpt lat="48.33768" lon="7.40053">
        <ele>394.4</ele>
        <time>2021-07-01T07:58:33.000Z</time>
      </trkpt>
      <trkpt lat="48.33764" lon="7.4004">
        <ele>396.5</ele>
        <time>2021-07-01T07:58:42.000Z</time>
      </trkpt>
      <trkpt lat="48.33756" lon="7.40033">
        <ele>396.4</ele>
        <time>2021-07-01T07:58:51.000Z</time>
      </trkpt>
      <trkpt lat="48.33748" lon="7.40025">
        <ele>396.2</ele>
        <time>2021-07-01T07:59:00.000Z</time>
      </trkpt>
      <trkpt lat="48.33742" lon="7.40013">
        <ele>396.6</ele>
        <time>2021-07-01T07:59:08.000Z</time>
      </trkpt>
      <trkpt lat="48.33737" lon="7.40001">
        <ele>397.4</ele>
        <time>2021-07-01T07:59:14.000Z</time>
      </trkpt>
      <trkpt lat="48.33726" lon="7.39996">
        <ele>394.5</ele>
        <time>2021-07-01T07:59:22.000Z</time>
      </trkpt>
      <trkpt lat="48.3372" lon="7.39986">
        <ele>394.6</ele>
        <time>2021-07-01T07:59:30.000Z</time>
      </trkpt>
      <trkpt lat="48.33711" lon="7.39979">
        <ele>392.6</ele>
        <time>2021-07-01T07:59:37.000Z</time>
      </trkpt>
      <trkpt lat="48.33704" lon="7.39969">
        <ele>392.1</ele>
        <time>2021-07-01T07:59:45.000Z</time>
      </trkpt>
      <trkpt lat="48.33697" lon="7.39956">
        <ele>392.6</ele>
        <time>2021-07-01T07:59:51.000Z</time>
      </trkpt>
      <trkpt lat="48.3369" lon="7.39943">
        <ele>393.1</ele>
        <time>2021-07-01T07:59:59.000Z</time>
      </trkpt>
      <trkpt lat="48.33686" lon="7.3993">
        <ele>395.1</ele>
        <time>2021-07-01T08:00:06.000Z</time>
      </trkpt>
      <trkpt lat="48.33679" lon="7.39921">
        <ele>394.4</ele>
        <time>2021-07-01T08:00:16.000Z</time>
      </trkpt>
      <trkpt lat="48.3367" lon="7.39919">
        <ele>391.6</ele>
        <time>2021-07-01T08:00:25.000Z</time>
      </trkpt>
      <trkpt lat="48.3366" lon="7.39918">
        <ele>388.5</ele>
        <time>2021-07-01T08:00:38.000Z</time>
      </trkpt>
      <trkpt lat="48.33651" lon="7.39915">
        <ele>386.3</ele>
        <time>2021-07-01T08:00:47.000Z</time>
      </trkpt>
      <trkpt lat="48.33641" lon="7.39911">
        <ele>384.4</ele>
        <time>2021-07-01T08:00:58.000Z</time>
      </trkpt>
      <trkpt lat="48.33631" lon="7.3991">
        <ele>381.6</ele>
        <time>2021-07-01T08:01:05.000Z</time>
      </trkpt>
      <trkpt lat="48.33622" lon="7.39909">
        <ele>379</ele>
        <time>2021-07-01T08:01:11.000Z</time>
      </trkpt>
      <trkpt lat="48.33612" lon="7.39911">
        <ele>375.1</ele>
        <time>2021-07-01T08:01:16.000Z</time>
      </trkpt>
      <trkpt lat="48.33603" lon="7.39907">
        <ele>373.4</ele>
        <time>2021-07-01T08:01:24.000Z</time>
      </trkpt>
      <trkpt lat="48.33595" lon="7.39899">
        <ele>373.7</ele>
        <time>2021-07-01T08:01:33.000Z</time>
      </trkpt>
      <trkpt lat="48.33589" lon="7.39889">
        <ele>375.1</ele>
        <time>2021-07-01T08:01:39.000Z</time>
      </trkpt>
      <trkpt lat="48.33583" lon="7.3988">
        <ele>376.3</ele>
        <time>2021-07-01T08:01:46.000Z</time>
      </trkpt>
      <trkpt lat="48.33574" lon="7.39873">
        <ele>378</ele>
        <time>2021-07-01T08:01:53.000Z</time>
      </trkpt>
      <trkpt lat="48.33569" lon="7.39861">
        <ele>381.1</ele>
        <time>2021-07-01T08:02:00.000Z</time>
      </trkpt>
      <trkpt lat="48.3356" lon="7.39852">
        <ele>382.4</ele>
        <time>2021-07-01T08:02:05.000Z</time>
      </trkpt>
      <trkpt lat="48.33553" lon="7.39842">
        <ele>384.1</ele>
        <time>2021-07-01T08:02:11.000Z</time>
      </trkpt>
      <trkpt lat="48.33545" lon="7.39831">
        <ele>385.4</ele>
        <time>2021-07-01T08:02:17.000Z</time>
      </trkpt>
      <trkpt lat="48.33538" lon="7.39821">
        <ele>386.3</ele>
        <time>2021-07-01T08:02:22.000Z</time>
      </trkpt>
      <trkpt lat="48.33528" lon="7.39815">
        <ele>385.8</ele>
        <time>2021-07-01T08:02:27.000Z</time>
      </trkpt>
      <trkpt lat="48.33519" lon="7.39813">
        <ele>384.3</ele>
        <time>2021-07-01T08:02:33.000Z</time>
      </trkpt>
      <trkpt lat="48.33509" lon="7.3981">
        <ele>382.7</ele>
        <time>2021-07-01T08:02:39.000Z</time>
      </trkpt>
      <trkpt lat="48.335" lon="7.39805">
        <ele>381.8</ele>
        <time>2021-07-01T08:02:46.000Z</time>
      </trkpt>
      <trkpt lat="48.33492" lon="7.398">
        <ele>383.8</ele>
        <time>2021-07-01T08:02:56.000Z</time>
      </trkpt>
      <trkpt lat="48.33482" lon="7.39802">
        <ele>384.3</ele>
        <time>2021-07-01T08:03:06.000Z</time>
      </trkpt>
      <trkpt lat="48.33475" lon="7.39813">
        <ele>383.3</ele>
        <time>2021-07-01T08:03:13.000Z</time>
      </trkpt>
      <trkpt lat="48.33469" lon="7.39824">
        <ele>382.2</ele>
        <time>2021-07-01T08:03:24.000Z</time>
      </trkpt>
      <trkpt lat="48.33462" lon="7.39834">
        <ele>381.4</ele>
        <time>2021-07-01T08:03:32.000Z</time>
      </trkpt>
      <trkpt lat="48.3346" lon="7.39847">
        <ele>381.2</ele>
        <time>2021-07-01T08:03:38.000Z</time>
      </trkpt>
      <trkpt lat="48.33457" lon="7.39862">
        <ele>381.1</ele>
        <time>2021-07-01T08:03:47.000Z</time>
      </trkpt>
      <trkpt lat="48.33462" lon="7.39874">
        <ele>379.6</ele>
        <time>2021-07-01T08:03:59.000Z</time>
      </trkpt>
      <trkpt lat="48.33468" lon="7.39887">
        <ele>377.8</ele>
        <time>2021-07-01T08:04:07.000Z</time>
      </trkpt>
      <trkpt lat="48.33474" lon="7.39898">
        <ele>375.8</ele>
        <time>2021-07-01T08:04:12.000Z</time>
      </trkpt>
      <trkpt lat="48.33482" lon="7.39906">
        <ele>373.4</ele>
        <time>2021-07-01T08:04:18.000Z</time>
      </trkpt>
      <trkpt lat="48.33488" lon="7.39918">
        <ele>371.2</ele>
        <time>2021-07-01T08:04:24.000Z</time>
      </trkpt>
      <trkpt lat="48.33494" lon="7.3993">
        <ele>369.6</ele>
        <time>2021-07-01T08:04:31.000Z</time>
      </trkpt>
      <trkpt lat="48.33498" lon="7.39944">
        <ele>368.2</ele>
        <time>2021-07-01T08:04:38.000Z</time>
      </trkpt>
      <trkpt lat="48.335" lon="7.39958">
        <ele>367.5</ele>
        <time>2021-07-01T08:04:47.000Z</time>
      </trkpt>
      <trkpt lat="48.33501" lon="7.39972">
        <ele>367.3</ele>
        <time>2021-07-01T08:04:56.000Z</time>
      </trkpt>
      <trkpt lat="48.335" lon="7.39986">
        <ele>367.4</ele>
        <time>2021-07-01T08:05:02.000Z</time>
      </trkpt>
      <trkpt lat="48.33499" lon="7.4">
        <ele>367.3</ele>
        <time>2021-07-01T08:05:12.000Z</time>
      </trkpt>
      <trkpt lat="48.33501" lon="7.40014">
        <ele>368.5</ele>
        <time>2021-07-01T08:05:20.000Z</time>
      </trkpt>
      <trkpt lat="48.33505" lon="7.40028">
        <ele>369.2</ele>
        <time>2021-07-01T08:05:27.000Z</time>
      </trkpt>
      <trkpt lat="48.33512" lon="7.40039">
        <ele>368.5</ele>
        <time>2021-07-01T08:05:35.000Z</time>
      </trkpt>
      <trkpt lat="48.33518" lon="7.40051">
        <ele>367.4</ele>
        <time>2021-07-01T08:05:44.000Z</time>
      </trkpt>
      <trkpt lat="48.33521" lon="7.40066">
        <ele>367.8</ele>
        <time>2021-07-01T08:05:50.000Z</time>
      </trkpt>
      <trkpt lat="48.33525" lon="7.40079">
        <ele>367.1</ele>
        <time>2021-07-01T08:05:55.000Z</time>
      </trkpt>
      <trkpt lat="48.3353" lon="7.40093">
        <ele>367.5</ele>
        <time>2021-07-01T08:06:02.000Z</time>
      </trkpt>
      <trkpt lat="48.33536" lon="7.40104">
        <ele>366.8</ele>
        <time>2021-07-01T08:06:08.000Z</time>
      </trkpt>
      <trkpt lat="48.33543" lon="7.40113">
        <ele>365.3</ele>
        <time>2021-07-01T08:06:15.000Z</time>
      </trkpt>
      <trkpt lat="48.33546" lon="7.40126">
        <ele>365.8</ele>
        <time>2021-07-01T08:06:23.000Z</time>
      </trkpt>
      <trkpt lat="48.33551" lon="7.40139">
        <ele>365.6</ele>
        <time>2021-07-01T08:06:30.000Z</time>
      </trkpt>
      <trkpt lat="48.33557" lon="7.40151">
        <ele>364.2</ele>
        <time>2021-07-01T08:06:38.000Z</time>
      </trkpt>
      <trkpt lat="48.33562" lon="7.40162">
        <ele>363</ele>
        <time>2021-07-01T08:06:46.000Z</time>
      </trkpt>
      <trkpt lat="48.33564" lon="7.40176">
        <ele>364</ele>
        <time>2021-07-01T08:06:52.000Z</time>
      </trkpt>
      <trkpt lat="48.33566" lon="7.4019">
        <ele>365.1</ele>
        <time>2021-07-01T08:06:59.000Z</time>
      </trkpt>
      <trkpt lat="48.3357" lon="7.40203">
        <ele>364.7</ele>
        <time>2021-07-01T08:07:07.000Z</time>
      </trkpt>
      <trkpt lat="48.33573" lon="7.40216">
        <ele>364.3</ele>
        <time>2021-07-01T08:07:14.000Z</time>
      </trkpt>
      <trkpt lat="48.33577" lon="7.40229">
        <ele>363.7</ele>
        <time>2021-07-01T08:07:22.000Z</time>
      </trkpt>
      <trkpt lat="48.33582" lon="7.40244">
        <ele>363.2</ele>
        <time>2021-07-01T08:07:30.000Z</time>
      </trkpt>
      <trkpt lat="48.33581" lon="7.40257">
        <ele>365.2</ele>
        <time>2021-07-01T08:07:38.000Z</time>
      </trkpt>
      <trkpt lat="48.33582" lon="7.40272">
        <ele>366.2</ele>
        <time>2021-07-01T08:07:45.000Z</time>
      </trkpt>
      <trkpt lat="48.33584" lon="7.40287">
        <ele>367.3</ele>
        <time>2021-07-01T08:07:52.000Z</time>
      </trkpt>
      <trkpt lat="48.33586" lon="7.40302">
        <ele>368.2</ele>
        <time>2021-07-01T08:08:01.000Z</time>
      </trkpt>
      <trkpt lat="48.33588" lon="7.40316">
        <ele>369.1</ele>
        <time>2021-07-01T08:08:10.000Z</time>
      </trkpt>
      <trkpt lat="48.33588" lon="7.40331">
        <ele>370.9</ele>
        <time>2021-07-01T08:08:18.000Z</time>
      </trkpt>
      <trkpt lat="48.33582" lon="7.40343">
        <ele>374.1</ele>
        <time>2021-07-01T08:08:25.000Z</time>
      </trkpt>
      <trkpt lat="48.33578" lon="7.40357">
        <ele>376.6</ele>
        <time>2021-07-01T08:08:31.000Z</time>
      </trkpt>
      <trkpt lat="48.33572" lon="7.40369">
        <ele>379.2</ele>
        <time>2021-07-01T08:08:37.000Z</time>
      </trkpt>
      <trkpt lat="48.33566" lon="7.40379">
        <ele>382.1</ele>
        <time>2021-07-01T08:08:45.000Z</time>
      </trkpt>
      <trkpt lat="48.33558" lon="7.40389">
        <ele>385</ele>
        <time>2021-07-01T08:08:53.000Z</time>
      </trkpt>
      <trkpt lat="48.33551" lon="7.40398">
        <ele>387.7</ele>
        <time>2021-07-01T08:09:00.000Z</time>
      </trkpt>
      <trkpt lat="48.33546" lon="7.4041">
        <ele>389.1</ele>
        <time>2021-07-01T08:09:10.000Z</time>
      </trkpt>
      <trkpt lat="48.33551" lon="7.40422">
        <ele>387.8</ele>
        <time>2021-07-01T08:09:20.000Z</time>
      </trkpt>
      <trkpt lat="48.33555" lon="7.40434">
        <ele>387.5</ele>
        <time>2021-07-01T08:09:27.000Z</time>
      </trkpt>
      <trkpt lat="48.33562" lon="7.40445">
        <ele>386.2</ele>
        <time>2021-07-01T08:09:35.000Z</time>
      </trkpt>
      <trkpt lat="48.33566" lon="7.40458">
        <ele>386.2</ele>
        <time>2021-07-01T08:09:43.000Z</time>
      </trkpt>
      <trkpt lat="48.33573" lon="7.4047">
        <ele>385.5</ele>
        <time>2021-07-01T08:09:50.000Z</time>
      </trkpt>
      <trkpt lat="48.3358" lon="7.40481">
        <ele>384.7</ele>
        <time>2021-07-01T08:09:56.000Z</time>
      </trkpt>
      <trkpt lat="48.33589" lon="7.40488">
        <ele>383.5</ele>
        <time>2021-07-01T08:10:01.000Z</time>
      </trkpt>
      <trkpt lat="48.33599" lon="7.40493">
        <ele>381.8</ele>
        <time>2021-07-01T08:10:07.000Z</time>
      </trkpt>
      <trkpt lat="48.33608" lon="7.40498">
        <ele>380.7</ele>
        <time>2021-07-01T08:10:14.000Z</time>
      </trkpt>
      <trkpt lat="48.33617" lon="7.405">
        <ele>379.1</ele>
        <time>2021-07-01T08:10:21.000Z</time>
      </trkpt>
      <trkpt lat="48.33625" lon="7.40505">
        <ele>378.2</ele>
        <time>2021-07-01T08:10:27.000Z</time>
      </trkpt>
      <trkpt lat="48.33633" lon="7.40514">
        <ele>377.9</ele>
        <time>2021-07-01T08:10:32.000Z</time>
      </trkpt>
      <trkpt lat="48.33642" lon="7.40519">
        <ele>377</ele>
        <time>2021-07-01T08:10:39.000Z</time>
      </trkpt>
      <trkpt lat="48.33649" lon="7.40527">
        <ele>376.6</ele>
        <time>2021-07-01T08:10:46.000Z</time>
      </trkpt>
      <trkpt lat="48.33657" lon="7.40538">
        <ele>376.8</ele>
        <time>2021-07-01T08:10:53.000Z</time>
      </trkpt>
      <trkpt lat="48.33664" lon="7.40545">
        <ele>376.5</ele>
        <time>2021-07-01T08:11:01.000Z</time>
      </trkpt>
      <trkpt lat="48.33672" lon="7.40553">
        <ele>374.8</ele>
        <time>2021-07-01T08:11:08.000Z</time>
      </trkpt>
      <trkpt lat="48.33681" lon="7.4056">
        <ele>372.3</ele>
        <time>2021-07-01T08:11:16.000Z</time>
      </trkpt>
      <trkpt lat="48.33685" lon="7.40571">
        <ele>372.4</ele>
        <time>2021-07-01T08:11:24.000Z</time>
      </trkpt>
      <trkpt lat="48.33686" lon="7.40585">
        <ele>374.6</ele>
        <time>2021-07-01T08:11:51.000Z</time>
      </trkpt>
      <trkpt lat="48.33673" lon="7.40584">
        <ele>379.4</ele>
        <time>2021-07-01T08:12:05.000Z</time>
      </trkpt>
      <trkpt lat="48.33679" lon="7.40567">
        <ele>374.1</ele>
        <time>2021-07-01T08:12:13.000Z</time>
      </trkpt>
      <trkpt lat="48.33701" lon="7.4055">
        <ele>361.6</ele>
        <time>2021-07-01T08:12:18.000Z</time>
      </trkpt>
      <trkpt lat="48.33683" lon="7.40539">
        <ele>367.7</ele>
        <time>2021-07-01T08:12:23.000Z</time>
      </trkpt>
      <trkpt lat="48.33706" lon="7.40522">
        <ele>353.9</ele>
        <time>2021-07-01T08:12:28.000Z</time>
      </trkpt>
      <trkpt lat="48.33695" lon="7.40514">
        <ele>357.2</ele>
        <time>2021-07-01T08:12:36.000Z</time>
      </trkpt>
      <trkpt lat="48.33689" lon="7.40526">
        <ele>362.7</ele>
        <time>2021-07-01T08:12:43.000Z</time>
      </trkpt>
      <trkpt lat="48.33689" lon="7.40544">
        <ele>365.9</ele>
        <time>2021-07-01T08:12:54.000Z</time>
      </trkpt>
      <trkpt lat="48.33692" lon="7.40563">
        <ele>368.2</ele>
        <time>2021-07-01T08:12:59.000Z</time>
      </trkpt>
      <trkpt lat="48.33694" lon="7.40578">
        <ele>370.4</ele>
        <time>2021-07-01T08:13:04.000Z</time>
      </trkpt>
      <trkpt lat="48.33695" lon="7.40594">
        <ele>371.4</ele>
        <time>2021-07-01T08:13:11.000Z</time>
      </trkpt>
      <trkpt lat="48.33702" lon="7.40605">
        <ele>369.6</ele>
        <time>2021-07-01T08:13:43.000Z</time>
      </trkpt>
      <trkpt lat="48.33711" lon="7.40608">
        <ele>366.6</ele>
        <time>2021-07-01T08:13:54.000Z</time>
      </trkpt>
      <trkpt lat="48.33707" lon="7.4062">
        <ele>369</ele>
        <time>2021-07-01T08:14:15.000Z</time>
      </trkpt>
      <trkpt lat="48.33706" lon="7.40635">
        <ele>370.4</ele>
        <time>2021-07-01T08:14:22.000Z</time>
      </trkpt>
      <trkpt lat="48.33704" lon="7.4065">
        <ele>372</ele>
        <time>2021-07-01T08:14:30.000Z</time>
      </trkpt>
      <trkpt lat="48.337" lon="7.40661">
        <ele>374.2</ele>
        <time>2021-07-01T08:14:36.000Z</time>
      </trkpt>
      <trkpt lat="48.33696" lon="7.40675">
        <ele>375</ele>
        <time>2021-07-01T08:14:43.000Z</time>
      </trkpt>
      <trkpt lat="48.33691" lon="7.40688">
        <ele>375.7</ele>
        <time>2021-07-01T08:14:52.000Z</time>
      </trkpt>
      <trkpt lat="48.33687" lon="7.40701">
        <ele>376.1</ele>
        <time>2021-07-01T08:14:59.000Z</time>
      </trkpt>
      <trkpt lat="48.33678" lon="7.40709">
        <ele>378</ele>
        <time>2021-07-01T08:15:06.000Z</time>
      </trkpt>
      <trkpt lat="48.33672" lon="7.40721">
        <ele>378.7</ele>
        <time>2021-07-01T08:15:11.000Z</time>
      </trkpt>
      <trkpt lat="48.33668" lon="7.40734">
        <ele>378.8</ele>
        <time>2021-07-01T08:15:18.000Z</time>
      </trkpt>
      <trkpt lat="48.33664" lon="7.40747">
        <ele>379</ele>
        <time>2021-07-01T08:15:25.000Z</time>
      </trkpt>
      <trkpt lat="48.33661" lon="7.40761">
        <ele>377.8</ele>
        <time>2021-07-01T08:15:34.000Z</time>
      </trkpt>
      <trkpt lat="48.3366" lon="7.40775">
        <ele>376.1</ele>
        <time>2021-07-01T08:15:46.000Z</time>
      </trkpt>
      <trkpt lat="48.33655" lon="7.40787">
        <ele>375.4</ele>
        <time>2021-07-01T08:15:55.000Z</time>
      </trkpt>
      <trkpt lat="48.33652" lon="7.40801">
        <ele>374.2</ele>
        <time>2021-07-01T08:16:04.000Z</time>
      </trkpt>
      <trkpt lat="48.33648" lon="7.40815">
        <ele>373.4</ele>
        <time>2021-07-01T08:16:09.000Z</time>
      </trkpt>
      <trkpt lat="48.33644" lon="7.4083">
        <ele>372.6</ele>
        <time>2021-07-01T08:16:14.000Z</time>
      </trkpt>
      <trkpt lat="48.3364" lon="7.40842">
        <ele>372.5</ele>
        <time>2021-07-01T08:16:20.000Z</time>
      </trkpt>
      <trkpt lat="48.33637" lon="7.40855">
        <ele>372.1</ele>
        <time>2021-07-01T08:16:25.000Z</time>
      </trkpt>
      <trkpt lat="48.33633" lon="7.4087">
        <ele>371.7</ele>
        <time>2021-07-01T08:16:31.000Z</time>
      </trkpt>
      <trkpt lat="48.33631" lon="7.40886">
        <ele>370.9</ele>
        <time>2021-07-01T08:16:37.000Z</time>
      </trkpt>
      <trkpt lat="48.33631" lon="7.40901">
        <ele>369.5</ele>
        <time>2021-07-01T08:16:43.000Z</time>
      </trkpt>
      <trkpt lat="48.33633" lon="7.40915">
        <ele>368</ele>
        <time>2021-07-01T08:16:50.000Z</time>
      </trkpt>
      <trkpt lat="48.33635" lon="7.40929">
        <ele>366.7</ele>
        <time>2021-07-01T08:16:58.000Z</time>
      </trkpt>
      <trkpt lat="48.33638" lon="7.40944">
        <ele>365.3</ele>
        <time>2021-07-01T08:17:06.000Z</time>
      </trkpt>
      <trkpt lat="48.33638" lon="7.40958">
        <ele>364.3</ele>
        <time>2021-07-01T08:17:15.000Z</time>
      </trkpt>
      <trkpt lat="48.33641" lon="7.40972">
        <ele>363</ele>
        <time>2021-07-01T08:17:24.000Z</time>
      </trkpt>
      <trkpt lat="48.33641" lon="7.40985">
        <ele>362.2</ele>
        <time>2021-07-01T08:17:32.000Z</time>
      </trkpt>
      <trkpt lat="48.33643" lon="7.40999">
        <ele>361.2</ele>
        <time>2021-07-01T08:17:40.000Z</time>
      </trkpt>
      <trkpt lat="48.33643" lon="7.41013">
        <ele>360.2</ele>
        <time>2021-07-01T08:17:47.000Z</time>
      </trkpt>
      <trkpt lat="48.33644" lon="7.41029">
        <ele>358.9</ele>
        <time>2021-07-01T08:17:54.000Z</time>
      </trkpt>
      <trkpt lat="48.33642" lon="7.41044">
        <ele>358</ele>
        <time>2021-07-01T08:18:02.000Z</time>
      </trkpt>
      <trkpt lat="48.33642" lon="7.41058">
        <ele>356.9</ele>
        <time>2021-07-01T08:18:11.000Z</time>
      </trkpt>
      <trkpt lat="48.33642" lon="7.41072">
        <ele>355.9</ele>
        <time>2021-07-01T08:18:19.000Z</time>
      </trkpt>
      <trkpt lat="48.33644" lon="7.41088">
        <ele>354.5</ele>
        <time>2021-07-01T08:18:25.000Z</time>
      </trkpt>
      <trkpt lat="48.33644" lon="7.41102">
        <ele>353.2</ele>
        <time>2021-07-01T08:18:32.000Z</time>
      </trkpt>
      <trkpt lat="48.33642" lon="7.41116">
        <ele>352</ele>
        <time>2021-07-01T08:18:40.000Z</time>
      </trkpt>
      <trkpt lat="48.33642" lon="7.41133">
        <ele>350.5</ele>
        <time>2021-07-01T08:18:48.000Z</time>
      </trkpt>
      <trkpt lat="48.33642" lon="7.41147">
        <ele>349.2</ele>
        <time>2021-07-01T08:18:54.000Z</time>
      </trkpt>
      <trkpt lat="48.33645" lon="7.41162">
        <ele>347.7</ele>
        <time>2021-07-01T08:19:00.000Z</time>
      </trkpt>
      <trkpt lat="48.33645" lon="7.41177">
        <ele>346.6</ele>
        <time>2021-07-01T08:19:06.000Z</time>
      </trkpt>
      <trkpt lat="48.33647" lon="7.41192">
        <ele>345.6</ele>
        <time>2021-07-01T08:19:18.000Z</time>
      </trkpt>
      <trkpt lat="48.33646" lon="7.41205">
        <ele>344.7</ele>
        <time>2021-07-01T08:19:24.000Z</time>
      </trkpt>
      <trkpt lat="48.33643" lon="7.4122">
        <ele>343.7</ele>
        <time>2021-07-01T08:19:31.000Z</time>
      </trkpt>
      <trkpt lat="48.33639" lon="7.41233">
        <ele>342.8</ele>
        <time>2021-07-01T08:19:38.000Z</time>
      </trkpt>
      <trkpt lat="48.33633" lon="7.41247">
        <ele>341.8</ele>
        <time>2021-07-01T08:19:45.000Z</time>
      </trkpt>
      <trkpt lat="48.33628" lon="7.4126">
        <ele>340.9</ele>
        <time>2021-07-01T08:19:52.000Z</time>
      </trkpt>
      <trkpt lat="48.33625" lon="7.41274">
        <ele>340</ele>
        <time>2021-07-01T08:19:59.000Z</time>
      </trkpt>
      <trkpt lat="48.3362" lon="7.41287">
        <ele>339.3</ele>
        <time>2021-07-01T08:20:07.000Z</time>
      </trkpt>
      <trkpt lat="48.33617" lon="7.41301">
        <ele>338.6</ele>
        <time>2021-07-01T08:20:15.000Z</time>
      </trkpt>
      <trkpt lat="48.33612" lon="7.41314">
        <ele>338</ele>
        <time>2021-07-01T08:20:23.000Z</time>
      </trkpt>
      <trkpt lat="48.33611" lon="7.41329">
        <ele>337.3</ele>
        <time>2021-07-01T08:20:38.000Z</time>
      </trkpt>
      <trkpt lat="48.33607" lon="7.41343">
        <ele>337</ele>
        <time>2021-07-01T08:20:48.000Z</time>
      </trkpt>
      <trkpt lat="48.33604" lon="7.41356">
        <ele>337</ele>
        <time>2021-07-01T08:20:57.000Z</time>
      </trkpt>
      <trkpt lat="48.33601" lon="7.4137">
        <ele>337.1</ele>
        <time>2021-07-01T08:21:05.000Z</time>
      </trkpt>
      <trkpt lat="48.33595" lon="7.41381">
        <ele>337.5</ele>
        <time>2021-07-01T08:21:11.000Z</time>
      </trkpt>
      <trkpt lat="48.33593" lon="7.41395">
        <ele>337.8</ele>
        <time>2021-07-01T08:21:17.000Z</time>
      </trkpt>
      <trkpt lat="48.33589" lon="7.41411">
        <ele>338.3</ele>
        <time>2021-07-01T08:21:26.000Z</time>
      </trkpt>
      <trkpt lat="48.33586" lon="7.41425">
        <ele>337.9</ele>
        <time>2021-07-01T08:21:33.000Z</time>
      </trkpt>
      <trkpt lat="48.33587" lon="7.4144">
        <ele>336.5</ele>
        <time>2021-07-01T08:21:43.000Z</time>
      </trkpt>
      <trkpt lat="48.33585" lon="7.41455">
        <ele>335.6</ele>
        <time>2021-07-01T08:21:52.000Z</time>
      </trkpt>
      <trkpt lat="48.33581" lon="7.41468">
        <ele>335</ele>
        <time>2021-07-01T08:21:59.000Z</time>
      </trkpt>
      <trkpt lat="48.33574" lon="7.41482">
        <ele>334.4</ele>
        <time>2021-07-01T08:22:07.000Z</time>
      </trkpt>
      <trkpt lat="48.3357" lon="7.41494">
        <ele>333.7</ele>
        <time>2021-07-01T08:22:13.000Z</time>
      </trkpt>
      <trkpt lat="48.33564" lon="7.41506">
        <ele>332.6</ele>
        <time>2021-07-01T08:22:20.000Z</time>
      </trkpt>
      <trkpt lat="48.33559" lon="7.41517">
        <ele>331.2</ele>
        <time>2021-07-01T08:22:28.000Z</time>
      </trkpt>
      <trkpt lat="48.33551" lon="7.41527">
        <ele>330.1</ele>
        <time>2021-07-01T08:22:39.000Z</time>
      </trkpt>
      <trkpt lat="48.33544" lon="7.41537">
        <ele>329</ele>
        <time>2021-07-01T08:22:49.000Z</time>
      </trkpt>
      <trkpt lat="48.33537" lon="7.41547">
        <ele>327.7</ele>
        <time>2021-07-01T08:22:58.000Z</time>
      </trkpt>
      <trkpt lat="48.33529" lon="7.41556">
        <ele>326.7</ele>
        <time>2021-07-01T08:23:05.000Z</time>
      </trkpt>
      <trkpt lat="48.33521" lon="7.41565">
        <ele>325.7</ele>
        <time>2021-07-01T08:23:11.000Z</time>
      </trkpt>
      <trkpt lat="48.33514" lon="7.41574">
        <ele>324.6</ele>
        <time>2021-07-01T08:23:16.000Z</time>
      </trkpt>
      <trkpt lat="48.33507" lon="7.41587">
        <ele>323.1</ele>
        <time>2021-07-01T08:23:26.000Z</time>
      </trkpt>
      <trkpt lat="48.33503" lon="7.41599">
        <ele>322</ele>
        <time>2021-07-01T08:23:32.000Z</time>
      </trkpt>
      <trkpt lat="48.33501" lon="7.41614">
        <ele>320.6</ele>
        <time>2021-07-01T08:23:37.000Z</time>
      </trkpt>
      <trkpt lat="48.33492" lon="7.4162">
        <ele>318.5</ele>
        <time>2021-07-01T08:23:50.000Z</time>
      </trkpt>
      <trkpt lat="48.33482" lon="7.41621">
        <ele>316.4</ele>
        <time>2021-07-01T08:23:59.000Z</time>
      </trkpt>
      <trkpt lat="48.33473" lon="7.41624">
        <ele>314.3</ele>
        <time>2021-07-01T08:24:05.000Z</time>
      </trkpt>
      <trkpt lat="48.33466" lon="7.41633">
        <ele>311.9</ele>
        <time>2021-07-01T08:24:21.000Z</time>
      </trkpt>
      <trkpt lat="48.33456" lon="7.41636">
        <ele>309.8</ele>
        <time>2021-07-01T08:24:29.000Z</time>
      </trkpt>
      <trkpt lat="48.33452" lon="7.41648">
        <ele>307.7</ele>
        <time>2021-07-01T08:24:39.000Z</time>
      </trkpt>
      <trkpt lat="48.33452" lon="7.41663">
        <ele>306.1</ele>
        <time>2021-07-01T08:24:47.000Z</time>
      </trkpt>
      <trkpt lat="48.3345" lon="7.41676">
        <ele>304.7</ele>
        <time>2021-07-01T08:24:55.000Z</time>
      </trkpt>
      <trkpt lat="48.3345" lon="7.4169">
        <ele>303.6</ele>
        <time>2021-07-01T08:25:02.000Z</time>
      </trkpt>
      <trkpt lat="48.3345" lon="7.41705">
        <ele>302.6</ele>
        <time>2021-07-01T08:25:10.000Z</time>
      </trkpt>
      <trkpt lat="48.33451" lon="7.41719">
        <ele>301.7</ele>
        <time>2021-07-01T08:25:18.000Z</time>
      </trkpt>
      <trkpt lat="48.3345" lon="7.41734">
        <ele>300.4</ele>
        <time>2021-07-01T08:25:26.000Z</time>
      </trkpt>
      <trkpt lat="48.33449" lon="7.41748">
        <ele>299.1</ele>
        <time>2021-07-01T08:25:34.000Z</time>
      </trkpt>
      <trkpt lat="48.33448" lon="7.41763">
        <ele>297.4</ele>
        <time>2021-07-01T08:25:44.000Z</time>
      </trkpt>
      <trkpt lat="48.33455" lon="7.41774">
        <ele>297.6</ele>
        <time>2021-07-01T08:25:52.000Z</time>
      </trkpt>
      <trkpt lat="48.33465" lon="7.41776">
        <ele>299.4</ele>
        <time>2021-07-01T08:25:59.000Z</time>
      </trkpt>
      <trkpt lat="48.33475" lon="7.41776">
        <ele>301.3</ele>
        <time>2021-07-01T08:26:06.000Z</time>
      </trkpt>
      <trkpt lat="48.33484" lon="7.41781">
        <ele>302.5</ele>
        <time>2021-07-01T08:26:15.000Z</time>
      </trkpt>
      <trkpt lat="48.33487" lon="7.41795">
        <ele>301.2</ele>
        <time>2021-07-01T08:26:26.000Z</time>
      </trkpt>
      <trkpt lat="48.33493" lon="7.41806">
        <ele>300.6</ele>
        <time>2021-07-01T08:26:35.000Z</time>
      </trkpt>
      <trkpt lat="48.335" lon="7.41815">
        <ele>300.7</ele>
        <time>2021-07-01T08:26:43.000Z</time>
      </trkpt>
      <trkpt lat="48.33502" lon="7.41828">
        <ele>298.6</ele>
        <time>2021-07-01T08:26:49.000Z</time>
      </trkpt>
      <trkpt lat="48.33497" lon="7.41842">
        <ele>296.6</ele>
        <time>2021-07-01T08:26:55.000Z</time>
      </trkpt>
      <trkpt lat="48.33495" lon="7.41856">
        <ele>294.8</ele>
        <time>2021-07-01T08:27:01.000Z</time>
      </trkpt>
      <trkpt lat="48.33492" lon="7.41869">
        <ele>293</ele>
        <time>2021-07-01T08:27:07.000Z</time>
      </trkpt>
      <trkpt lat="48.33492" lon="7.41884">
        <ele>291.5</ele>
        <time>2021-07-01T08:27:14.000Z</time>
      </trkpt>
      <trkpt lat="48.33491" lon="7.41898">
        <ele>289.8</ele>
        <time>2021-07-01T08:27:21.000Z</time>
      </trkpt>
      <trkpt lat="48.33489" lon="7.41912">
        <ele>288.3</ele>
        <time>2021-07-01T08:27:27.000Z</time>
      </trkpt>
      <trkpt lat="48.33484" lon="7.41923">
        <ele>286.6</ele>
        <time>2021-07-01T08:27:34.000Z</time>
      </trkpt>
      <trkpt lat="48.33475" lon="7.41928">
        <ele>285.2</ele>
        <time>2021-07-01T08:27:44.000Z</time>
      </trkpt>
      <trkpt lat="48.33466" lon="7.41934">
        <ele>283.7</ele>
        <time>2021-07-01T08:27:53.000Z</time>
      </trkpt>
      <trkpt lat="48.33458" lon="7.41939">
        <ele>282.3</ele>
        <time>2021-07-01T08:28:03.000Z</time>
      </trkpt>
      <trkpt lat="48.33449" lon="7.41945">
        <ele>280.9</ele>
        <time>2021-07-01T08:28:09.000Z</time>
      </trkpt>
      <trkpt lat="48.33447" lon="7.4196">
        <ele>279.7</ele>
        <time>2021-07-01T08:28:17.000Z</time>
      </trkpt>
      <trkpt lat="48.33448" lon="7.41974">
        <ele>278.8</ele>
        <time>2021-07-01T08:28:26.000Z</time>
      </trkpt>
      <trkpt lat="48.33453" lon="7.41987">
        <ele>278.4</ele>
        <time>2021-07-01T08:28:34.000Z</time>
      </trkpt>
      <trkpt lat="48.3346" lon="7.41998">
        <ele>278.3</ele>
        <time>2021-07-01T08:28:42.000Z</time>
      </trkpt>
      <trkpt lat="48.33469" lon="7.42002">
        <ele>278.7</ele>
        <time>2021-07-01T08:28:49.000Z</time>
      </trkpt>
      <trkpt lat="48.33479" lon="7.41999">
        <ele>280</ele>
        <time>2021-07-01T08:28:58.000Z</time>
      </trkpt>
      <trkpt lat="48.33489" lon="7.41993">
        <ele>281.5</ele>
        <time>2021-07-01T08:29:08.000Z</time>
      </trkpt>
      <trkpt lat="48.33483" lon="7.42006">
        <ele>279.6</ele>
        <time>2021-07-01T08:29:38.000Z</time>
      </trkpt>
      <trkpt lat="48.33474" lon="7.42011">
        <ele>278.1</ele>
        <time>2021-07-01T08:29:45.000Z</time>
      </trkpt>
      <trkpt lat="48.33468" lon="7.42022">
        <ele>276.2</ele>
        <time>2021-07-01T08:29:52.000Z</time>
      </trkpt>
      <trkpt lat="48.33462" lon="7.42031">
        <ele>274.4</ele>
        <time>2021-07-01T08:29:58.000Z</time>
      </trkpt>
      <trkpt lat="48.33454" lon="7.42039">
        <ele>272.7</ele>
        <time>2021-07-01T08:30:07.000Z</time>
      </trkpt>
      <trkpt lat="48.33446" lon="7.42047">
        <ele>270.9</ele>
        <time>2021-07-01T08:30:18.000Z</time>
      </trkpt>
      <trkpt lat="48.33437" lon="7.42048">
        <ele>270</ele>
        <time>2021-07-01T08:30:31.000Z</time>
      </trkpt>
      <trkpt lat="48.33426" lon="7.42052">
        <ele>268.7</ele>
        <time>2021-07-01T08:30:39.000Z</time>
      </trkpt>
      <trkpt lat="48.33417" lon="7.42054">
        <ele>267.5</ele>
        <time>2021-07-01T08:30:47.000Z</time>
      </trkpt>
      <trkpt lat="48.33408" lon="7.42059">
        <ele>266.2</ele>
        <time>2021-07-01T08:30:55.000Z</time>
      </trkpt>
      <trkpt lat="48.33398" lon="7.42064">
        <ele>264.8</ele>
        <time>2021-07-01T08:31:04.000Z</time>
      </trkpt>
      <trkpt lat="48.33388" lon="7.42069">
        <ele>263.5</ele>
        <time>2021-07-01T08:31:13.000Z</time>
      </trkpt>
      <trkpt lat="48.3338" lon="7.42074">
        <ele>262.3</ele>
        <time>2021-07-01T08:31:19.000Z</time>
      </trkpt>
      <trkpt lat="48.3337" lon="7.42077">
        <ele>261.3</ele>
        <time>2021-07-01T08:31:26.000Z</time>
      </trkpt>
      <trkpt lat="48.33361" lon="7.42084">
        <ele>260</ele>
        <time>2021-07-01T08:31:34.000Z</time>
      </trkpt>
      <trkpt lat="48.33352" lon="7.42087">
        <ele>259.1</ele>
        <time>2021-07-01T08:31:40.000Z</time>
      </trkpt>
      <trkpt lat="48.33341" lon="7.42091">
        <ele>258.2</ele>
        <time>2021-07-01T08:31:47.000Z</time>
      </trkpt>
      <trkpt lat="48.33333" lon="7.42098">
        <ele>257.3</ele>
        <time>2021-07-01T08:31:55.000Z</time>
      </trkpt>
      <trkpt lat="48.33329" lon="7.42111">
        <ele>256.7</ele>
        <time>2021-07-01T08:32:02.000Z</time>
      </trkpt>
      <trkpt lat="48.33325" lon="7.42125">
        <ele>256</ele>
        <time>2021-07-01T08:32:09.000Z</time>
      </trkpt>
      <trkpt lat="48.33322" lon="7.42138">
        <ele>255.3</ele>
        <time>2021-07-01T08:32:16.000Z</time>
      </trkpt>
      <trkpt lat="48.3332" lon="7.42152">
        <ele>254.4</ele>
        <time>2021-07-01T08:32:24.000Z</time>
      </trkpt>
      <trkpt lat="48.33316" lon="7.42166">
        <ele>253.6</ele>
        <time>2021-07-01T08:32:32.000Z</time>
      </trkpt>
      <trkpt lat="48.33314" lon="7.42181">
        <ele>252.6</ele>
        <time>2021-07-01T08:32:40.000Z</time>
      </trkpt>
      <trkpt lat="48.33311" lon="7.42194">
        <ele>251.6</ele>
        <time>2021-07-01T08:32:48.000Z</time>
      </trkpt>
      <trkpt lat="48.33308" lon="7.42208">
        <ele>250.6</ele>
        <time>2021-07-01T08:32:56.000Z</time>
      </trkpt>
      <trkpt lat="48.33304" lon="7.42221">
        <ele>249.6</ele>
        <time>2021-07-01T08:33:04.000Z</time>
      </trkpt>
      <trkpt lat="48.33302" lon="7.42236">
        <ele>248.5</ele>
        <time>2021-07-01T08:33:12.000Z</time>
      </trkpt>
      <trkpt lat="48.33297" lon="7.42247">
        <ele>247.5</ele>
        <time>2021-07-01T08:33:20.000Z</time>
      </trkpt>
      <trkpt lat="48.33288" lon="7.42248">
        <ele>247</ele>
        <time>2021-07-01T08:33:27.000Z</time>
      </trkpt>
      <trkpt lat="48.33278" lon="7.42247">
        <ele>246.6</ele>
        <time>2021-07-01T08:33:35.000Z</time>
      </trkpt>
      <trkpt lat="48.33268" lon="7.42246">
        <ele>246.2</ele>
        <time>2021-07-01T08:33:44.000Z</time>
      </trkpt>
      <trkpt lat="48.33258" lon="7.42244">
        <ele>245.9</ele>
        <time>2021-07-01T08:33:51.000Z</time>
      </trkpt>
      <trkpt lat="48.33248" lon="7.42242">
        <ele>245.7</ele>
        <time>2021-07-01T08:33:59.000Z</time>
      </trkpt>
      <trkpt lat="48.33239" lon="7.42241">
        <ele>245.8</ele>
        <time>2021-07-01T08:34:06.000Z</time>
      </trkpt>
      <trkpt lat="48.33229" lon="7.4224">
        <ele>245.9</ele>
        <time>2021-07-01T08:34:14.000Z</time>
      </trkpt>
      <trkpt lat="48.33219" lon="7.42239">
        <ele>246</ele>
        <time>2021-07-01T08:34:23.000Z</time>
      </trkpt>
      <trkpt lat="48.33208" lon="7.42239">
        <ele>246</ele>
        <time>2021-07-01T08:34:30.000Z</time>
      </trkpt>
      <trkpt lat="48.33199" lon="7.4224">
        <ele>245.9</ele>
        <time>2021-07-01T08:34:36.000Z</time>
      </trkpt>
      <trkpt lat="48.33189" lon="7.42243">
        <ele>245.7</ele>
        <time>2021-07-01T08:34:44.000Z</time>
      </trkpt>
      <trkpt lat="48.33183" lon="7.42253">
        <ele>244.9</ele>
        <time>2021-07-01T08:34:51.000Z</time>
      </trkpt>
      <trkpt lat="48.33174" lon="7.42262">
        <ele>244.4</ele>
        <time>2021-07-01T08:34:58.000Z</time>
      </trkpt>
      <trkpt lat="48.33167" lon="7.4227">
        <ele>244</ele>
        <time>2021-07-01T08:35:04.000Z</time>
      </trkpt>
      <trkpt lat="48.33161" lon="7.4228">
        <ele>243.5</ele>
        <time>2021-07-01T08:35:11.000Z</time>
      </trkpt>
      <trkpt lat="48.33155" lon="7.42292">
        <ele>242.8</ele>
        <time>2021-07-01T08:35:19.000Z</time>
      </trkpt>
      <trkpt lat="48.33149" lon="7.42304">
        <ele>242</ele>
        <time>2021-07-01T08:35:27.000Z</time>
      </trkpt>
      <trkpt lat="48.33142" lon="7.42315">
        <ele>241.2</ele>
        <time>2021-07-01T08:35:35.000Z</time>
      </trkpt>
      <trkpt lat="48.33137" lon="7.42326">
        <ele>240.4</ele>
        <time>2021-07-01T08:35:41.000Z</time>
      </trkpt>
      <trkpt lat="48.3313" lon="7.42339">
        <ele>239.4</ele>
        <time>2021-07-01T08:35:49.000Z</time>
      </trkpt>
      <trkpt lat="48.33124" lon="7.4235">
        <ele>238.5</ele>
        <time>2021-07-01T08:35:57.000Z</time>
      </trkpt>
      <trkpt lat="48.33117" lon="7.4236">
        <ele>237.7</ele>
        <time>2021-07-01T08:36:04.000Z</time>
      </trkpt>
      <trkpt lat="48.33109" lon="7.42367">
        <ele>236.9</ele>
        <time>2021-07-01T08:36:12.000Z</time>
      </trkpt>
      <trkpt lat="48.33099" lon="7.42371">
        <ele>236.3</ele>
        <time>2021-07-01T08:36:18.000Z</time>
      </trkpt>
      <trkpt lat="48.3309" lon="7.42372">
        <ele>235.9</ele>
        <time>2021-07-01T08:36:26.000Z</time>
      </trkpt>
      <trkpt lat="48.3308" lon="7.4237">
        <ele>235.6</ele>
        <time>2021-07-01T08:36:33.000Z</time>
      </trkpt>
      <trkpt lat="48.3307" lon="7.42367">
        <ele>235.3</ele>
        <time>2021-07-01T08:36:42.000Z</time>
      </trkpt>
      <trkpt lat="48.33061" lon="7.42361">
        <ele>235.2</ele>
        <time>2021-07-01T08:36:50.000Z</time>
      </trkpt>
      <trkpt lat="48.33053" lon="7.42355">
        <ele>235</ele>
        <time>2021-07-01T08:36:58.000Z</time>
      </trkpt>
      <trkpt lat="48.33043" lon="7.42351">
        <ele>234.7</ele>
        <time>2021-07-01T08:37:05.000Z</time>
      </trkpt>
      <trkpt lat="48.33033" lon="7.42346">
        <ele>234.4</ele>
        <time>2021-07-01T08:37:12.000Z</time>
      </trkpt>
      <trkpt lat="48.33024" lon="7.42342">
        <ele>234.1</ele>
        <time>2021-07-01T08:37:17.000Z</time>
      </trkpt>
      <trkpt lat="48.33014" lon="7.42336">
        <ele>233.8</ele>
        <time>2021-07-01T08:37:25.000Z</time>
      </trkpt>
      <trkpt lat="48.33006" lon="7.42329">
        <ele>233.8</ele>
        <time>2021-07-01T08:37:33.000Z</time>
      </trkpt>
      <trkpt lat="48.32997" lon="7.42323">
        <ele>234</ele>
        <time>2021-07-01T08:37:41.000Z</time>
      </trkpt>
      <trkpt lat="48.32989" lon="7.42316">
        <ele>234.3</ele>
        <time>2021-07-01T08:37:50.000Z</time>
      </trkpt>
      <trkpt lat="48.32979" lon="7.42313">
        <ele>234.1</ele>
        <time>2021-07-01T08:37:56.000Z</time>
      </trkpt>
      <trkpt lat="48.32971" lon="7.42307">
        <ele>234.2</ele>
        <time>2021-07-01T08:38:03.000Z</time>
      </trkpt>
      <trkpt lat="48.32961" lon="7.42302">
        <ele>234.1</ele>
        <time>2021-07-01T08:38:11.000Z</time>
      </trkpt>
      <trkpt lat="48.32951" lon="7.42297">
        <ele>233.9</ele>
        <time>2021-07-01T08:38:19.000Z</time>
      </trkpt>
      <trkpt lat="48.32942" lon="7.42292">
        <ele>233.6</ele>
        <time>2021-07-01T08:38:27.000Z</time>
      </trkpt>
      <trkpt lat="48.32933" lon="7.42288">
        <ele>233.3</ele>
        <time>2021-07-01T08:38:33.000Z</time>
      </trkpt>
      <trkpt lat="48.32924" lon="7.42284">
        <ele>232.9</ele>
        <time>2021-07-01T08:38:40.000Z</time>
      </trkpt>
      <trkpt lat="48.32914" lon="7.42282">
        <ele>232.4</ele>
        <time>2021-07-01T08:38:47.000Z</time>
      </trkpt>
      <trkpt lat="48.32904" lon="7.42278">
        <ele>232.1</ele>
        <time>2021-07-01T08:38:56.000Z</time>
      </trkpt>
      <trkpt lat="48.32894" lon="7.42278">
        <ele>231.7</ele>
        <time>2021-07-01T08:39:03.000Z</time>
      </trkpt>
      <trkpt lat="48.32885" lon="7.42278">
        <ele>231.3</ele>
        <time>2021-07-01T08:39:10.000Z</time>
      </trkpt>
      <trkpt lat="48.32875" lon="7.42277">
        <ele>230.9</ele>
        <time>2021-07-01T08:39:19.000Z</time>
      </trkpt>
      <trkpt lat="48.32865" lon="7.42275">
        <ele>230.5</ele>
        <time>2021-07-01T08:39:28.000Z</time>
      </trkpt>
      <trkpt lat="48.32856" lon="7.42275">
        <ele>230.1</ele>
        <time>2021-07-01T08:39:35.000Z</time>
      </trkpt>
      <trkpt lat="48.32846" lon="7.42275">
        <ele>229.7</ele>
        <time>2021-07-01T08:39:44.000Z</time>
      </trkpt>
      <trkpt lat="48.32836" lon="7.42277">
        <ele>229.2</ele>
        <time>2021-07-01T08:39:51.000Z</time>
      </trkpt>
      <trkpt lat="48.32826" lon="7.42278">
        <ele>229</ele>
        <time>2021-07-01T08:39:58.000Z</time>
      </trkpt>
      <trkpt lat="48.32817" lon="7.42277">
        <ele>229</ele>
        <time>2021-07-01T08:40:05.000Z</time>
      </trkpt>
      <trkpt lat="48.32808" lon="7.42272">
        <ele>229.3</ele>
        <time>2021-07-01T08:40:12.000Z</time>
      </trkpt>
      <trkpt lat="48.32811" lon="7.42257">
        <ele>229.9</ele>
        <time>2021-07-01T08:40:21.000Z</time>
      </trkpt>
      <trkpt lat="48.3281" lon="7.42243">
        <ele>230.7</ele>
        <time>2021-07-01T08:40:28.000Z</time>
      </trkpt>
      <trkpt lat="48.32812" lon="7.42229">
        <ele>231.5</ele>
        <time>2021-07-01T08:40:33.000Z</time>
      </trkpt>
      <trkpt lat="48.32811" lon="7.42215">
        <ele>232.3</ele>
        <time>2021-07-01T08:40:40.000Z</time>
      </trkpt>
      <trkpt lat="48.3281" lon="7.42201">
        <ele>233.1</ele>
        <time>2021-07-01T08:40:49.000Z</time>
      </trkpt>
      <trkpt lat="48.32807" lon="7.42187">
        <ele>233.9</ele>
        <time>2021-07-01T08:40:58.000Z</time>
      </trkpt>
      <trkpt lat="48.32799" lon="7.42179">
        <ele>234.3</ele>
        <time>2021-07-01T08:41:06.000Z</time>
      </trkpt>
      <trkpt lat="48.3279" lon="7.42175">
        <ele>234.5</ele>
        <time>2021-07-01T08:41:15.000Z</time>
      </trkpt>
      <trkpt lat="48.32783" lon="7.42166">
        <ele>235.1</ele>
        <time>2021-07-01T08:41:25.000Z</time>
      </trkpt>
      <trkpt lat="48.32777" lon="7.42155">
        <ele>236</ele>
        <time>2021-07-01T08:41:34.000Z</time>
      </trkpt>
      <trkpt lat="48.32774" lon="7.42141">
        <ele>237.4</ele>
        <time>2021-07-01T08:41:47.000Z</time>
      </trkpt>
      <trkpt lat="48.32774" lon="7.42126">
        <ele>238.7</ele>
        <time>2021-07-01T08:41:55.000Z</time>
      </trkpt>
      <trkpt lat="48.32775" lon="7.42111">
        <ele>240</ele>
        <time>2021-07-01T08:42:06.000Z</time>
      </trkpt>
      <trkpt lat="48.32774" lon="7.42097">
        <ele>241.3</ele>
        <time>2021-07-01T08:42:14.000Z</time>
      </trkpt>
      <trkpt lat="48.32775" lon="7.42083">
        <ele>242.5</ele>
        <time>2021-07-01T08:42:23.000Z</time>
      </trkpt>
      <trkpt lat="48.32779" lon="7.4207">
        <ele>243.4</ele>
        <time>2021-07-01T08:42:30.000Z</time>
      </trkpt>
      <trkpt lat="48.32782" lon="7.42057">
        <ele>244.3</ele>
        <time>2021-07-01T08:42:39.000Z</time>
      </trkpt>
      <trkpt lat="48.32784" lon="7.42043">
        <ele>245.5</ele>
        <time>2021-07-01T08:42:47.000Z</time>
      </trkpt>
      <trkpt lat="48.32784" lon="7.42028">
        <ele>246.7</ele>
        <time>2021-07-01T08:42:56.000Z</time>
      </trkpt>
      <trkpt lat="48.32784" lon="7.42014">
        <ele>248</ele>
        <time>2021-07-01T08:43:06.000Z</time>
      </trkpt>
      <trkpt lat="48.32779" lon="7.42001">
        <ele>249.7</ele>
        <time>2021-07-01T08:43:16.000Z</time>
      </trkpt>
      <trkpt lat="48.3277" lon="7.41995">
        <ele>251.3</ele>
        <time>2021-07-01T08:43:26.000Z</time>
      </trkpt>
      <trkpt lat="48.3276" lon="7.41995">
        <ele>252.7</ele>
        <time>2021-07-01T08:43:34.000Z</time>
      </trkpt>
      <trkpt lat="48.32751" lon="7.41998">
        <ele>254</ele>
        <time>2021-07-01T08:43:43.000Z</time>
      </trkpt>
      <trkpt lat="48.32742" lon="7.42">
        <ele>254.1</ele>
        <time>2021-07-01T08:43:51.000Z</time>
      </trkpt>
      <trkpt lat="48.32732" lon="7.42004">
        <ele>253.8</ele>
        <time>2021-07-01T08:43:59.000Z</time>
      </trkpt>
      <trkpt lat="48.32723" lon="7.42008">
        <ele>253.3</ele>
        <time>2021-07-01T08:44:08.000Z</time>
      </trkpt>
      <trkpt lat="48.32713" lon="7.42008">
        <ele>253.5</ele>
        <time>2021-07-01T08:44:16.000Z</time>
      </trkpt>
      <trkpt lat="48.32704" lon="7.42009">
        <ele>253.4</ele>
        <time>2021-07-01T08:44:23.000Z</time>
      </trkpt>
      <trkpt lat="48.32696" lon="7.42003">
        <ele>254.2</ele>
        <time>2021-07-01T08:44:33.000Z</time>
      </trkpt>
      <trkpt lat="48.32705" lon="7.41999">
        <ele>254.6</ele>
        <time>2021-07-01T08:47:25.000Z</time>
      </trkpt>
      <trkpt lat="48.32714" lon="7.42001">
        <ele>254.3</ele>
        <time>2021-07-01T08:47:34.000Z</time>
      </trkpt>
      <trkpt lat="48.32723" lon="7.41996">
        <ele>254.5</ele>
        <time>2021-07-01T08:48:21.000Z</time>
      </trkpt>
      <trkpt lat="48.32726" lon="7.41984">
        <ele>255</ele>
        <time>2021-07-01T08:48:29.000Z</time>
      </trkpt>
      <trkpt lat="48.32723" lon="7.41971">
        <ele>255.6</ele>
        <time>2021-07-01T08:48:41.000Z</time>
      </trkpt>
      <trkpt lat="48.32715" lon="7.41961">
        <ele>256.3</ele>
        <time>2021-07-01T08:48:51.000Z</time>
      </trkpt>
      <trkpt lat="48.32706" lon="7.41958">
        <ele>256.9</ele>
        <time>2021-07-01T08:49:03.000Z</time>
      </trkpt>
      <trkpt lat="48.32709" lon="7.41972">
        <ele>256</ele>
        <time>2021-07-01T08:49:33.000Z</time>
      </trkpt>
      <trkpt lat="48.32718" lon="7.41981">
        <ele>255.3</ele>
        <time>2021-07-01T08:49:41.000Z</time>
      </trkpt>
      <trkpt lat="48.32709" lon="7.4199">
        <ele>255</ele>
        <time>2021-07-01T08:50:05.000Z</time>
      </trkpt>
      <trkpt lat="48.32717" lon="7.4198">
        <ele>255.3</ele>
        <time>2021-07-01T08:50:39.000Z</time>
      </trkpt>
      <trkpt lat="48.3272" lon="7.41966">
        <ele>255.9</ele>
        <time>2021-07-01T08:52:16.000Z</time>
      </trkpt>
      <trkpt lat="48.32708" lon="7.41962">
        <ele>256.6</ele>
        <time>2021-07-01T08:52:24.000Z</time>
      </trkpt>
      <trkpt lat="48.32711" lon="7.41949">
        <ele>257.1</ele>
        <time>2021-07-01T08:52:53.000Z</time>
      </trkpt>
      <trkpt lat="48.32713" lon="7.41934">
        <ele>257.8</ele>
        <time>2021-07-01T08:53:03.000Z</time>
      </trkpt>
      <trkpt lat="48.32709" lon="7.41921">
        <ele>258.7</ele>
        <time>2021-07-01T08:53:11.000Z</time>
      </trkpt>
      <trkpt lat="48.32707" lon="7.41907">
        <ele>260.1</ele>
        <time>2021-07-01T08:53:19.000Z</time>
      </trkpt>
      <trkpt lat="48.32703" lon="7.41894">
        <ele>261.8</ele>
        <time>2021-07-01T08:53:28.000Z</time>
      </trkpt>
      <trkpt lat="48.32699" lon="7.41881">
        <ele>263.4</ele>
        <time>2021-07-01T08:53:38.000Z</time>
      </trkpt>
      <trkpt lat="48.32696" lon="7.41868">
        <ele>265.1</ele>
        <time>2021-07-01T08:53:48.000Z</time>
      </trkpt>
      <trkpt lat="48.32695" lon="7.41854">
        <ele>266.7</ele>
        <time>2021-07-01T08:54:00.000Z</time>
      </trkpt>
      <trkpt lat="48.32693" lon="7.4184">
        <ele>268.5</ele>
        <time>2021-07-01T08:54:09.000Z</time>
      </trkpt>
      <trkpt lat="48.32695" lon="7.41825">
        <ele>269.6</ele>
        <time>2021-07-01T08:54:17.000Z</time>
      </trkpt>
      <trkpt lat="48.32699" lon="7.41812">
        <ele>270</ele>
        <time>2021-07-01T08:54:24.000Z</time>
      </trkpt>
      <trkpt lat="48.32702" lon="7.41798">
        <ele>270.7</ele>
        <time>2021-07-01T08:54:32.000Z</time>
      </trkpt>
      <trkpt lat="48.32703" lon="7.41783">
        <ele>271.7</ele>
        <time>2021-07-01T08:54:41.000Z</time>
      </trkpt>
      <trkpt lat="48.32703" lon="7.4177">
        <ele>272.6</ele>
        <time>2021-07-01T08:54:50.000Z</time>
      </trkpt>
      <trkpt lat="48.32701" lon="7.41756">
        <ele>273.8</ele>
        <time>2021-07-01T08:54:58.000Z</time>
      </trkpt>
      <trkpt lat="48.32698" lon="7.41742">
        <ele>275</ele>
        <time>2021-07-01T08:55:07.000Z</time>
      </trkpt>
      <trkpt lat="48.32696" lon="7.41728">
        <ele>276.2</ele>
        <time>2021-07-01T08:55:14.000Z</time>
      </trkpt>
      <trkpt lat="48.32693" lon="7.41714">
        <ele>277.3</ele>
        <time>2021-07-01T08:55:23.000Z</time>
      </trkpt>
      <trkpt lat="48.3269" lon="7.41701">
        <ele>278.6</ele>
        <time>2021-07-01T08:55:33.000Z</time>
      </trkpt>
      <trkpt lat="48.32687" lon="7.41687">
        <ele>279.8</ele>
        <time>2021-07-01T08:55:42.000Z</time>
      </trkpt>
      <trkpt lat="48.32683" lon="7.41675">
        <ele>281.2</ele>
        <time>2021-07-01T08:55:51.000Z</time>
      </trkpt>
      <trkpt lat="48.32681" lon="7.41661">
        <ele>282.7</ele>
        <time>2021-07-01T08:56:01.000Z</time>
      </trkpt>
      <trkpt lat="48.32679" lon="7.41647">
        <ele>284.5</ele>
        <time>2021-07-01T08:56:09.000Z</time>
      </trkpt>
      <trkpt lat="48.32676" lon="7.41632">
        <ele>286.7</ele>
        <time>2021-07-01T08:56:18.000Z</time>
      </trkpt>
      <trkpt lat="48.32672" lon="7.41618">
        <ele>288.9</ele>
        <time>2021-07-01T08:56:28.000Z</time>
      </trkpt>
      <trkpt lat="48.32668" lon="7.41605">
        <ele>291.2</ele>
        <time>2021-07-01T08:56:36.000Z</time>
      </trkpt>
      <trkpt lat="48.32664" lon="7.41591">
        <ele>293.5</ele>
        <time>2021-07-01T08:56:48.000Z</time>
      </trkpt>
      <trkpt lat="48.32662" lon="7.41578">
        <ele>295.1</ele>
        <time>2021-07-01T08:56:56.000Z</time>
      </trkpt>
      <trkpt lat="48.32661" lon="7.41562">
        <ele>296.2</ele>
        <time>2021-07-01T08:57:04.000Z</time>
      </trkpt>
      <trkpt lat="48.32657" lon="7.4155">
        <ele>297.6</ele>
        <time>2021-07-01T08:57:13.000Z</time>
      </trkpt>
      <trkpt lat="48.32655" lon="7.41536">
        <ele>298.9</ele>
        <time>2021-07-01T08:57:21.000Z</time>
      </trkpt>
      <trkpt lat="48.32647" lon="7.41529">
        <ele>300.7</ele>
        <time>2021-07-01T08:57:30.000Z</time>
      </trkpt>
      <trkpt lat="48.32638" lon="7.41525">
        <ele>302.5</ele>
        <time>2021-07-01T08:57:42.000Z</time>
      </trkpt>
      <trkpt lat="48.32629" lon="7.41523">
        <ele>304.1</ele>
        <time>2021-07-01T08:57:53.000Z</time>
      </trkpt>
      <trkpt lat="48.3262" lon="7.41523">
        <ele>305.8</ele>
        <time>2021-07-01T08:58:03.000Z</time>
      </trkpt>
      <trkpt lat="48.32611" lon="7.41514">
        <ele>307.9</ele>
        <time>2021-07-01T08:58:11.000Z</time>
      </trkpt>
      <trkpt lat="48.32603" lon="7.4151">
        <ele>309.8</ele>
        <time>2021-07-01T08:58:17.000Z</time>
      </trkpt>
      <trkpt lat="48.32594" lon="7.41503">
        <ele>311.8</ele>
        <time>2021-07-01T08:58:27.000Z</time>
      </trkpt>
      <trkpt lat="48.32588" lon="7.41493">
        <ele>313</ele>
        <time>2021-07-01T08:58:41.000Z</time>
      </trkpt>
      <trkpt lat="48.32579" lon="7.41489">
        <ele>314.1</ele>
        <time>2021-07-01T08:58:50.000Z</time>
      </trkpt>
      <trkpt lat="48.3257" lon="7.41483">
        <ele>315</ele>
        <time>2021-07-01T08:59:00.000Z</time>
      </trkpt>
      <trkpt lat="48.32562" lon="7.41477">
        <ele>315.8</ele>
        <time>2021-07-01T08:59:12.000Z</time>
      </trkpt>
      <trkpt lat="48.32555" lon="7.41468">
        <ele>316.7</ele>
        <time>2021-07-01T08:59:21.000Z</time>
      </trkpt>
      <trkpt lat="48.32546" lon="7.4146">
        <ele>317.9</ele>
        <time>2021-07-01T08:59:31.000Z</time>
      </trkpt>
      <trkpt lat="48.32537" lon="7.41455">
        <ele>319.2</ele>
        <time>2021-07-01T08:59:42.000Z</time>
      </trkpt>
      <trkpt lat="48.32529" lon="7.41449">
        <ele>320.6</ele>
        <time>2021-07-01T08:59:54.000Z</time>
      </trkpt>
      <trkpt lat="48.32519" lon="7.41446">
        <ele>322.1</ele>
        <time>2021-07-01T09:00:05.000Z</time>
      </trkpt>
      <trkpt lat="48.32511" lon="7.41437">
        <ele>323.9</ele>
        <time>2021-07-01T09:00:15.000Z</time>
      </trkpt>
      <trkpt lat="48.32503" lon="7.41429">
        <ele>325.6</ele>
        <time>2021-07-01T09:00:28.000Z</time>
      </trkpt>
      <trkpt lat="48.32498" lon="7.41418">
        <ele>326.8</ele>
        <time>2021-07-01T09:00:38.000Z</time>
      </trkpt>
      <trkpt lat="48.3249" lon="7.4141">
        <ele>327.3</ele>
        <time>2021-07-01T09:00:49.000Z</time>
      </trkpt>
      <trkpt lat="48.32482" lon="7.41406">
        <ele>327.3</ele>
        <time>2021-07-01T09:00:57.000Z</time>
      </trkpt>
      <trkpt lat="48.32472" lon="7.41404">
        <ele>327.2</ele>
        <time>2021-07-01T09:01:06.000Z</time>
      </trkpt>
      <trkpt lat="48.32467" lon="7.41394">
        <ele>328.5</ele>
        <time>2021-07-01T09:01:42.000Z</time>
      </trkpt>
      <trkpt lat="48.32461" lon="7.41383">
        <ele>330</ele>
        <time>2021-07-01T09:01:54.000Z</time>
      </trkpt>
      <trkpt lat="48.32452" lon="7.41377">
        <ele>331</ele>
        <time>2021-07-01T09:02:02.000Z</time>
      </trkpt>
      <trkpt lat="48.32444" lon="7.41368">
        <ele>332.5</ele>
        <time>2021-07-01T09:02:11.000Z</time>
      </trkpt>
      <trkpt lat="48.32437" lon="7.41359">
        <ele>334.2</ele>
        <time>2021-07-01T09:02:21.000Z</time>
      </trkpt>
      <trkpt lat="48.32431" lon="7.41348">
        <ele>336.4</ele>
        <time>2021-07-01T09:02:33.000Z</time>
      </trkpt>
      <trkpt lat="48.32426" lon="7.41337">
        <ele>338.9</ele>
        <time>2021-07-01T09:02:44.000Z</time>
      </trkpt>
      <trkpt lat="48.32421" lon="7.41325">
        <ele>342</ele>
        <time>2021-07-01T09:02:59.000Z</time>
      </trkpt>
      <trkpt lat="48.32417" lon="7.41312">
        <ele>345.3</ele>
        <time>2021-07-01T09:03:11.000Z</time>
      </trkpt>
      <trkpt lat="48.3241" lon="7.41301">
        <ele>347</ele>
        <time>2021-07-01T09:03:30.000Z</time>
      </trkpt>
      <trkpt lat="48.32407" lon="7.41287">
        <ele>349.9</ele>
        <time>2021-07-01T09:03:41.000Z</time>
      </trkpt>
      <trkpt lat="48.324" lon="7.41277">
        <ele>351.3</ele>
        <time>2021-07-01T09:03:56.000Z</time>
      </trkpt>
      <trkpt lat="48.32396" lon="7.41264">
        <ele>354</ele>
        <time>2021-07-01T09:04:07.000Z</time>
      </trkpt>
      <trkpt lat="48.3239" lon="7.41254">
        <ele>355.8</ele>
        <time>2021-07-01T09:04:16.000Z</time>
      </trkpt>
      <trkpt lat="48.32385" lon="7.41242">
        <ele>357.5</ele>
        <time>2021-07-01T09:04:27.000Z</time>
      </trkpt>
      <trkpt lat="48.32378" lon="7.41231">
        <ele>358.8</ele>
        <time>2021-07-01T09:04:38.000Z</time>
      </trkpt>
      <trkpt lat="48.32374" lon="7.41218">
        <ele>360.8</ele>
        <time>2021-07-01T09:04:48.000Z</time>
      </trkpt>
      <trkpt lat="48.32368" lon="7.41206">
        <ele>362.4</ele>
        <time>2021-07-01T09:05:00.000Z</time>
      </trkpt>
      <trkpt lat="48.32364" lon="7.41192">
        <ele>364.8</ele>
        <time>2021-07-01T09:05:12.000Z</time>
      </trkpt>
      <trkpt lat="48.32364" lon="7.41178">
        <ele>367.6</ele>
        <time>2021-07-01T09:05:21.000Z</time>
      </trkpt>
      <trkpt lat="48.32367" lon="7.41164">
        <ele>370.7</ele>
        <time>2021-07-01T09:05:31.000Z</time>
      </trkpt>
      <trkpt lat="48.3236" lon="7.41155">
        <ele>371.8</ele>
        <time>2021-07-01T09:05:46.000Z</time>
      </trkpt>
      <trkpt lat="48.32367" lon="7.41164">
        <ele>370.7</ele>
        <time>2021-07-01T09:06:16.000Z</time>
      </trkpt>
      <trkpt lat="48.32373" lon="7.41176">
        <ele>368.9</ele>
        <time>2021-07-01T09:06:26.000Z</time>
      </trkpt>
      <trkpt lat="48.32381" lon="7.41185">
        <ele>368.1</ele>
        <time>2021-07-01T09:06:35.000Z</time>
      </trkpt>
      <trkpt lat="48.3239" lon="7.41191">
        <ele>367.9</ele>
        <time>2021-07-01T09:06:44.000Z</time>
      </trkpt>
      <trkpt lat="48.32398" lon="7.41199">
        <ele>367.5</ele>
        <time>2021-07-01T09:06:52.000Z</time>
      </trkpt>
      <trkpt lat="48.32408" lon="7.41199">
        <ele>368.4</ele>
        <time>2021-07-01T09:07:02.000Z</time>
      </trkpt>
      <trkpt lat="48.32412" lon="7.41186">
        <ele>371.2</ele>
        <time>2021-07-01T09:07:09.000Z</time>
      </trkpt>
      <trkpt lat="48.32415" lon="7.41173">
        <ele>373.8</ele>
        <time>2021-07-01T09:07:17.000Z</time>
      </trkpt>
      <trkpt lat="48.32414" lon="7.41159">
        <ele>375.7</ele>
        <time>2021-07-01T09:07:27.000Z</time>
      </trkpt>
      <trkpt lat="48.3241" lon="7.41145">
        <ele>377.1</ele>
        <time>2021-07-01T09:07:36.000Z</time>
      </trkpt>
      <trkpt lat="48.32404" lon="7.41133">
        <ele>378.4</ele>
        <time>2021-07-01T09:07:46.000Z</time>
      </trkpt>
      <trkpt lat="48.32402" lon="7.41118">
        <ele>380.2</ele>
        <time>2021-07-01T09:07:54.000Z</time>
      </trkpt>
      <trkpt lat="48.32399" lon="7.41106">
        <ele>381.9</ele>
        <time>2021-07-01T09:08:03.000Z</time>
      </trkpt>
      <trkpt lat="48.32395" lon="7.41092">
        <ele>383.7</ele>
        <time>2021-07-01T09:08:14.000Z</time>
      </trkpt>
      <trkpt lat="48.32394" lon="7.41079">
        <ele>385.7</ele>
        <time>2021-07-01T09:08:27.000Z</time>
      </trkpt>
      <trkpt lat="48.32394" lon="7.41065">
        <ele>387.8</ele>
        <time>2021-07-01T09:08:36.000Z</time>
      </trkpt>
      <trkpt lat="48.32392" lon="7.4105">
        <ele>389.9</ele>
        <time>2021-07-01T09:08:47.000Z</time>
      </trkpt>
      <trkpt lat="48.3239" lon="7.41036">
        <ele>392.1</ele>
        <time>2021-07-01T09:08:59.000Z</time>
      </trkpt>
      <trkpt lat="48.3239" lon="7.41022">
        <ele>394.1</ele>
        <time>2021-07-01T09:09:11.000Z</time>
      </trkpt>
      <trkpt lat="48.3239" lon="7.41007">
        <ele>396.2</ele>
        <time>2021-07-01T09:09:21.000Z</time>
      </trkpt>
      <trkpt lat="48.32389" lon="7.40994">
        <ele>398</ele>
        <time>2021-07-01T09:09:35.000Z</time>
      </trkpt>
      <trkpt lat="48.32387" lon="7.4098">
        <ele>399.6</ele>
        <time>2021-07-01T09:09:48.000Z</time>
      </trkpt>
      <trkpt lat="48.32388" lon="7.40965">
        <ele>401.3</ele>
        <time>2021-07-01T09:09:58.000Z</time>
      </trkpt>
      <trkpt lat="48.32388" lon="7.40951">
        <ele>402.8</ele>
        <time>2021-07-01T09:10:11.000Z</time>
      </trkpt>
      <trkpt lat="48.32387" lon="7.40937">
        <ele>404.4</ele>
        <time>2021-07-01T09:10:23.000Z</time>
      </trkpt>
      <trkpt lat="48.32386" lon="7.40924">
        <ele>406</ele>
        <time>2021-07-01T09:10:33.000Z</time>
      </trkpt>
      <trkpt lat="48.32384" lon="7.4091">
        <ele>407.8</ele>
        <time>2021-07-01T09:10:44.000Z</time>
      </trkpt>
      <trkpt lat="48.32382" lon="7.40897">
        <ele>410</ele>
        <time>2021-07-01T09:10:53.000Z</time>
      </trkpt>
      <trkpt lat="48.32378" lon="7.40884">
        <ele>412.2</ele>
        <time>2021-07-01T09:11:06.000Z</time>
      </trkpt>
      <trkpt lat="48.32374" lon="7.4087">
        <ele>414.6</ele>
        <time>2021-07-01T09:11:18.000Z</time>
      </trkpt>
      <trkpt lat="48.32373" lon="7.40855">
        <ele>417</ele>
        <time>2021-07-01T09:11:27.000Z</time>
      </trkpt>
      <trkpt lat="48.32371" lon="7.40842">
        <ele>419.3</ele>
        <time>2021-07-01T09:11:36.000Z</time>
      </trkpt>
      <trkpt lat="48.32366" lon="7.4083">
        <ele>421.4</ele>
        <time>2021-07-01T09:11:45.000Z</time>
      </trkpt>
      <trkpt lat="48.32362" lon="7.40817">
        <ele>423.5</ele>
        <time>2021-07-01T09:11:57.000Z</time>
      </trkpt>
      <trkpt lat="48.32361" lon="7.40803">
        <ele>425.7</ele>
        <time>2021-07-01T09:12:13.000Z</time>
      </trkpt>
      <trkpt lat="48.32359" lon="7.4079">
        <ele>428</ele>
        <time>2021-07-01T09:12:29.000Z</time>
      </trkpt>
      <trkpt lat="48.32366" lon="7.40781">
        <ele>428.8</ele>
        <time>2021-07-01T09:12:37.000Z</time>
      </trkpt>
      <trkpt lat="48.3236" lon="7.40771">
        <ele>430.9</ele>
        <time>2021-07-01T09:12:52.000Z</time>
      </trkpt>
      <trkpt lat="48.3235" lon="7.40765">
        <ele>432.7</ele>
        <time>2021-07-01T09:13:07.000Z</time>
      </trkpt>
      <trkpt lat="48.32344" lon="7.40755">
        <ele>435</ele>
        <time>2021-07-01T09:13:16.000Z</time>
      </trkpt>
      <trkpt lat="48.32337" lon="7.40746">
        <ele>437.4</ele>
        <time>2021-07-01T09:13:27.000Z</time>
      </trkpt>
      <trkpt lat="48.32331" lon="7.40735">
        <ele>439.6</ele>
        <time>2021-07-01T09:13:36.000Z</time>
      </trkpt>
      <trkpt lat="48.32326" lon="7.40723">
        <ele>440.9</ele>
        <time>2021-07-01T09:13:46.000Z</time>
      </trkpt>
      <trkpt lat="48.32319" lon="7.40715">
        <ele>441.2</ele>
        <time>2021-07-01T09:13:55.000Z</time>
      </trkpt>
      <trkpt lat="48.32315" lon="7.40702">
        <ele>442.9</ele>
        <time>2021-07-01T09:14:05.000Z</time>
      </trkpt>
      <trkpt lat="48.32312" lon="7.40688">
        <ele>445.1</ele>
        <time>2021-07-01T09:14:18.000Z</time>
      </trkpt>
      <trkpt lat="48.32311" lon="7.40674">
        <ele>447.6</ele>
        <time>2021-07-01T09:14:29.000Z</time>
      </trkpt>
      <trkpt lat="48.3231" lon="7.4066">
        <ele>449.8</ele>
        <time>2021-07-01T09:14:37.000Z</time>
      </trkpt>
      <trkpt lat="48.32308" lon="7.40646">
        <ele>451.6</ele>
        <time>2021-07-01T09:14:50.000Z</time>
      </trkpt>
      <trkpt lat="48.32308" lon="7.40632">
        <ele>453.7</ele>
        <time>2021-07-01T09:15:01.000Z</time>
      </trkpt>
      <trkpt lat="48.32307" lon="7.40618">
        <ele>455.8</ele>
        <time>2021-07-01T09:15:12.000Z</time>
      </trkpt>
      <trkpt lat="48.32305" lon="7.40604">
        <ele>457.7</ele>
        <time>2021-07-01T09:15:23.000Z</time>
      </trkpt>
      <trkpt lat="48.323" lon="7.40591">
        <ele>458.9</ele>
        <time>2021-07-01T09:15:36.000Z</time>
      </trkpt>
      <trkpt lat="48.32297" lon="7.40577">
        <ele>460.9</ele>
        <time>2021-07-01T09:15:44.000Z</time>
      </trkpt>
      <trkpt lat="48.32299" lon="7.40564">
        <ele>463.5</ele>
        <time>2021-07-01T09:15:58.000Z</time>
      </trkpt>
      <trkpt lat="48.323" lon="7.4055">
        <ele>466.1</ele>
        <time>2021-07-01T09:16:26.000Z</time>
      </trkpt>
      <trkpt lat="48.32297" lon="7.40536">
        <ele>468.3</ele>
        <time>2021-07-01T09:16:35.000Z</time>
      </trkpt>
      <trkpt lat="48.32294" lon="7.40523">
        <ele>470.4</ele>
        <time>2021-07-01T09:16:48.000Z</time>
      </trkpt>
      <trkpt lat="48.3229" lon="7.4051">
        <ele>472.5</ele>
        <time>2021-07-01T09:16:54.000Z</time>
      </trkpt>
      <trkpt lat="48.32291" lon="7.40496">
        <ele>475</ele>
        <time>2021-07-01T09:17:01.000Z</time>
      </trkpt>
      <trkpt lat="48.32292" lon="7.40481">
        <ele>477.1</ele>
        <time>2021-07-01T09:17:13.000Z</time>
      </trkpt>
      <trkpt lat="48.32292" lon="7.40468">
        <ele>479</ele>
        <time>2021-07-01T09:17:26.000Z</time>
      </trkpt>
      <trkpt lat="48.32294" lon="7.40454">
        <ele>481</ele>
        <time>2021-07-01T09:17:39.000Z</time>
      </trkpt>
      <trkpt lat="48.32289" lon="7.40442">
        <ele>482.5</ele>
        <time>2021-07-01T09:17:55.000Z</time>
      </trkpt>
      <trkpt lat="48.32289" lon="7.40428">
        <ele>484.4</ele>
        <time>2021-07-01T09:18:04.000Z</time>
      </trkpt>
      <trkpt lat="48.32289" lon="7.40414">
        <ele>486.3</ele>
        <time>2021-07-01T09:18:12.000Z</time>
      </trkpt>
      <trkpt lat="48.32283" lon="7.40403">
        <ele>487.7</ele>
        <time>2021-07-01T09:18:24.000Z</time>
      </trkpt>
      <trkpt lat="48.32279" lon="7.40391">
        <ele>489.5</ele>
        <time>2021-07-01T09:18:36.000Z</time>
      </trkpt>
      <trkpt lat="48.3228" lon="7.40377">
        <ele>491.4</ele>
        <time>2021-07-01T09:18:45.000Z</time>
      </trkpt>
      <trkpt lat="48.32278" lon="7.40363">
        <ele>493.5</ele>
        <time>2021-07-01T09:18:59.000Z</time>
      </trkpt>
      <trkpt lat="48.32276" lon="7.4035">
        <ele>495.7</ele>
        <time>2021-07-01T09:19:10.000Z</time>
      </trkpt>
      <trkpt lat="48.32271" lon="7.40339">
        <ele>497.9</ele>
        <time>2021-07-01T09:19:25.000Z</time>
      </trkpt>
      <trkpt lat="48.3227" lon="7.40325">
        <ele>499.2</ele>
        <time>2021-07-01T09:19:34.000Z</time>
      </trkpt>
      <trkpt lat="48.3227" lon="7.4031">
        <ele>499.8</ele>
        <time>2021-07-01T09:19:42.000Z</time>
      </trkpt>
      <trkpt lat="48.32269" lon="7.40297">
        <ele>500.5</ele>
        <time>2021-07-01T09:19:50.000Z</time>
      </trkpt>
      <trkpt lat="48.32269" lon="7.40283">
        <ele>501.1</ele>
        <time>2021-07-01T09:20:00.000Z</time>
      </trkpt>
      <trkpt lat="48.32265" lon="7.40268">
        <ele>502.3</ele>
        <time>2021-07-01T09:20:08.000Z</time>
      </trkpt>
      <trkpt lat="48.32264" lon="7.40253">
        <ele>503.1</ele>
        <time>2021-07-01T09:20:18.000Z</time>
      </trkpt>
      <trkpt lat="48.32261" lon="7.40238">
        <ele>504.5</ele>
        <time>2021-07-01T09:20:27.000Z</time>
      </trkpt>
      <trkpt lat="48.3226" lon="7.40223">
        <ele>505.5</ele>
        <time>2021-07-01T09:20:35.000Z</time>
      </trkpt>
      <trkpt lat="48.32258" lon="7.4021">
        <ele>506.6</ele>
        <time>2021-07-01T09:20:41.000Z</time>
      </trkpt>
      <trkpt lat="48.32253" lon="7.40197">
        <ele>508.4</ele>
        <time>2021-07-01T09:20:49.000Z</time>
      </trkpt>
      <trkpt lat="48.32247" lon="7.40185">
        <ele>509.6</ele>
        <time>2021-07-01T09:20:58.000Z</time>
      </trkpt>
      <trkpt lat="48.32239" lon="7.4018">
        <ele>509</ele>
        <time>2021-07-01T09:21:07.000Z</time>
      </trkpt>
      <trkpt lat="48.32229" lon="7.40181">
        <ele>507.9</ele>
        <time>2021-07-01T09:21:15.000Z</time>
      </trkpt>
      <trkpt lat="48.3222" lon="7.40181">
        <ele>506.8</ele>
        <time>2021-07-01T09:21:22.000Z</time>
      </trkpt>
      <trkpt lat="48.32212" lon="7.40173">
        <ele>506.7</ele>
        <time>2021-07-01T09:21:33.000Z</time>
      </trkpt>
      <trkpt lat="48.32205" lon="7.40163">
        <ele>507.3</ele>
        <time>2021-07-01T09:21:45.000Z</time>
      </trkpt>
      <trkpt lat="48.32199" lon="7.40151">
        <ele>508.6</ele>
        <time>2021-07-01T09:21:55.000Z</time>
      </trkpt>
      <trkpt lat="48.32192" lon="7.40143">
        <ele>509.6</ele>
        <time>2021-07-01T09:22:03.000Z</time>
      </trkpt>
      <trkpt lat="48.32187" lon="7.40131">
        <ele>511.4</ele>
        <time>2021-07-01T09:22:14.000Z</time>
      </trkpt>
      <trkpt lat="48.32184" lon="7.40118">
        <ele>513.8</ele>
        <time>2021-07-01T09:22:26.000Z</time>
      </trkpt>
      <trkpt lat="48.32181" lon="7.40104">
        <ele>516.4</ele>
        <time>2021-07-01T09:22:35.000Z</time>
      </trkpt>
      <trkpt lat="48.32175" lon="7.40093">
        <ele>518.6</ele>
        <time>2021-07-01T09:22:46.000Z</time>
      </trkpt>
      <trkpt lat="48.32172" lon="7.4008">
        <ele>521.3</ele>
        <time>2021-07-01T09:23:33.000Z</time>
      </trkpt>
      <trkpt lat="48.32168" lon="7.40068">
        <ele>523.6</ele>
        <time>2021-07-01T09:23:51.000Z</time>
      </trkpt>
      <trkpt lat="48.32171" lon="7.40054">
        <ele>525.9</ele>
        <time>2021-07-01T09:24:03.000Z</time>
      </trkpt>
      <trkpt lat="48.32171" lon="7.4004">
        <ele>528.3</ele>
        <time>2021-07-01T09:24:13.000Z</time>
      </trkpt>
      <trkpt lat="48.3217" lon="7.40026">
        <ele>531</ele>
        <time>2021-07-01T09:24:25.000Z</time>
      </trkpt>
      <trkpt lat="48.32164" lon="7.40015">
        <ele>533.3</ele>
        <time>2021-07-01T09:24:37.000Z</time>
      </trkpt>
      <trkpt lat="48.32159" lon="7.40002">
        <ele>535.7</ele>
        <time>2021-07-01T09:24:45.000Z</time>
      </trkpt>
      <trkpt lat="48.32158" lon="7.39988">
        <ele>537.9</ele>
        <time>2021-07-01T09:24:58.000Z</time>
      </trkpt>
      <trkpt lat="48.32157" lon="7.39974">
        <ele>540.1</ele>
        <time>2021-07-01T09:25:10.000Z</time>
      </trkpt>
      <trkpt lat="48.32154" lon="7.3996">
        <ele>542.3</ele>
        <time>2021-07-01T09:25:23.000Z</time>
      </trkpt>
      <trkpt lat="48.32153" lon="7.39947">
        <ele>544.7</ele>
        <time>2021-07-01T09:25:44.000Z</time>
      </trkpt>
      <trkpt lat="48.32152" lon="7.39933">
        <ele>546.9</ele>
        <time>2021-07-01T09:25:58.000Z</time>
      </trkpt>
      <trkpt lat="48.32157" lon="7.39921">
        <ele>548</ele>
        <time>2021-07-01T09:26:08.000Z</time>
      </trkpt>
      <trkpt lat="48.32166" lon="7.39914">
        <ele>547.3</ele>
        <time>2021-07-01T09:26:19.000Z</time>
      </trkpt>
      <trkpt lat="48.32173" lon="7.39924">
        <ele>544.3</ele>
        <time>2021-07-01T09:26:40.000Z</time>
      </trkpt>
      <trkpt lat="48.32176" lon="7.39938">
        <ele>541.8</ele>
        <time>2021-07-01T09:26:48.000Z</time>
      </trkpt>
      <trkpt lat="48.3218" lon="7.39951">
        <ele>539.5</ele>
        <time>2021-07-01T09:27:00.000Z</time>
      </trkpt>
      <trkpt lat="48.32183" lon="7.39964">
        <ele>537.3</ele>
        <time>2021-07-01T09:27:11.000Z</time>
      </trkpt>
      <trkpt lat="48.32194" lon="7.39972">
        <ele>534.4</ele>
        <time>2021-07-01T09:27:55.000Z</time>
      </trkpt>
      <trkpt lat="48.3218" lon="7.39963">
        <ele>538.1</ele>
        <time>2021-07-01T09:28:48.000Z</time>
      </trkpt>
      <trkpt lat="48.32166" lon="7.39967">
        <ele>540.4</ele>
        <time>2021-07-01T09:28:53.000Z</time>
      </trkpt>
      <trkpt lat="48.32164" lon="7.39998">
        <ele>536.4</ele>
        <time>2021-07-01T09:28:58.000Z</time>
      </trkpt>
      <trkpt lat="48.3221" lon="7.40014">
        <ele>527</ele>
        <time>2021-07-01T09:29:03.000Z</time>
      </trkpt>
      <trkpt lat="48.32219" lon="7.3999">
        <ele>527.9</ele>
        <time>2021-07-01T09:29:08.000Z</time>
      </trkpt>
      <trkpt lat="48.32214" lon="7.39978">
        <ele>529.9</ele>
        <time>2021-07-01T09:29:15.000Z</time>
      </trkpt>
      <trkpt lat="48.32208" lon="7.39964">
        <ele>532.1</ele>
        <time>2021-07-01T09:29:28.000Z</time>
      </trkpt>
      <trkpt lat="48.32204" lon="7.39978">
        <ele>531.7</ele>
        <time>2021-07-01T09:29:44.000Z</time>
      </trkpt>
      <trkpt lat="48.32194" lon="7.39923">
        <ele>539.2</ele>
        <time>2021-07-01T09:31:24.000Z</time>
      </trkpt>
      <trkpt lat="48.32189" lon="7.39936">
        <ele>539.1</ele>
        <time>2021-07-01T09:32:11.000Z</time>
      </trkpt>
      <trkpt lat="48.32198" lon="7.39938">
        <ele>536.8</ele>
        <time>2021-07-01T09:35:52.000Z</time>
      </trkpt>
      <trkpt lat="48.32192" lon="7.39927">
        <ele>539.3</ele>
        <time>2021-07-01T09:37:54.000Z</time>
      </trkpt>
      <trkpt lat="48.32182" lon="7.39923">
        <ele>542.4</ele>
        <time>2021-07-01T09:40:20.000Z</time>
      </trkpt>
      <trkpt lat="48.32209" lon="7.39957">
        <ele>532.4</ele>
        <time>2021-07-01T09:41:12.000Z</time>
      </trkpt>
      <trkpt lat="48.32196" lon="7.39964">
        <ele>534.7</ele>
        <time>2021-07-01T09:41:17.000Z</time>
      </trkpt>
      <trkpt lat="48.32191" lon="7.39976">
        <ele>534.4</ele>
        <time>2021-07-01T09:41:48.000Z</time>
      </trkpt>
      <trkpt lat="48.32184" lon="7.39966">
        <ele>537</ele>
        <time>2021-07-01T09:42:16.000Z</time>
      </trkpt>
      <trkpt lat="48.32177" lon="7.39956">
        <ele>539.5</ele>
        <time>2021-07-01T09:42:31.000Z</time>
      </trkpt>
      <trkpt lat="48.32173" lon="7.39943">
        <ele>542</ele>
        <time>2021-07-01T09:42:41.000Z</time>
      </trkpt>
      <trkpt lat="48.32173" lon="7.39929">
        <ele>543.9</ele>
        <time>2021-07-01T09:42:49.000Z</time>
      </trkpt>
      <trkpt lat="48.32173" lon="7.39915">
        <ele>545.4</ele>
        <time>2021-07-01T09:42:59.000Z</time>
      </trkpt>
      <trkpt lat="48.3217" lon="7.39902">
        <ele>547.3</ele>
        <time>2021-07-01T09:43:10.000Z</time>
      </trkpt>
      <trkpt lat="48.32165" lon="7.39891">
        <ele>549.6</ele>
        <time>2021-07-01T09:43:52.000Z</time>
      </trkpt>
      <trkpt lat="48.32158" lon="7.39902">
        <ele>549.8</ele>
        <time>2021-07-01T09:47:16.000Z</time>
      </trkpt>
      <trkpt lat="48.3215" lon="7.39907">
        <ele>550.8</ele>
        <time>2021-07-01T09:47:21.000Z</time>
      </trkpt>
      <trkpt lat="48.32141" lon="7.39915">
        <ele>551.5</ele>
        <time>2021-07-01T09:47:29.000Z</time>
      </trkpt>
      <trkpt lat="48.32133" lon="7.39923">
        <ele>551.4</ele>
        <time>2021-07-01T09:47:39.000Z</time>
      </trkpt>
      <trkpt lat="48.32123" lon="7.39927">
        <ele>552.1</ele>
        <time>2021-07-01T09:47:46.000Z</time>
      </trkpt>
      <trkpt lat="48.32115" lon="7.39934">
        <ele>551.9</ele>
        <time>2021-07-01T09:47:53.000Z</time>
      </trkpt>
      <trkpt lat="48.32107" lon="7.3994">
        <ele>551.3</ele>
        <time>2021-07-01T09:48:00.000Z</time>
      </trkpt>
      <trkpt lat="48.32101" lon="7.39951">
        <ele>549.3</ele>
        <time>2021-07-01T09:48:08.000Z</time>
      </trkpt>
      <trkpt lat="48.32094" lon="7.3996">
        <ele>547.7</ele>
        <time>2021-07-01T09:48:14.000Z</time>
      </trkpt>
      <trkpt lat="48.32086" lon="7.39969">
        <ele>545.6</ele>
        <time>2021-07-01T09:48:21.000Z</time>
      </trkpt>
      <trkpt lat="48.3208" lon="7.3998">
        <ele>543.4</ele>
        <time>2021-07-01T09:48:27.000Z</time>
      </trkpt>
      <trkpt lat="48.3207" lon="7.39988">
        <ele>542.7</ele>
        <time>2021-07-01T09:48:34.000Z</time>
      </trkpt>
      <trkpt lat="48.32061" lon="7.39995">
        <ele>542</ele>
        <time>2021-07-01T09:48:41.000Z</time>
      </trkpt>
      <trkpt lat="48.32053" lon="7.40002">
        <ele>541.3</ele>
        <time>2021-07-01T09:48:49.000Z</time>
      </trkpt>
      <trkpt lat="48.32045" lon="7.40009">
        <ele>540.6</ele>
        <time>2021-07-01T09:48:58.000Z</time>
      </trkpt>
      <trkpt lat="48.32037" lon="7.40017">
        <ele>539.3</ele>
        <time>2021-07-01T09:49:05.000Z</time>
      </trkpt>
      <trkpt lat="48.32032" lon="7.40028">
        <ele>536.4</ele>
        <time>2021-07-01T09:49:11.000Z</time>
      </trkpt>
      <trkpt lat="48.32024" lon="7.40036">
        <ele>535.1</ele>
        <time>2021-07-01T09:49:18.000Z</time>
      </trkpt>
      <trkpt lat="48.32015" lon="7.4004">
        <ele>535</ele>
        <time>2021-07-01T09:49:25.000Z</time>
      </trkpt>
      <trkpt lat="48.32005" lon="7.40042">
        <ele>535.8</ele>
        <time>2021-07-01T09:49:33.000Z</time>
      </trkpt>
      <trkpt lat="48.31995" lon="7.40043">
        <ele>535.4</ele>
        <time>2021-07-01T09:49:41.000Z</time>
      </trkpt>
      <trkpt lat="48.31986" lon="7.40041">
        <ele>534.9</ele>
        <time>2021-07-01T09:49:48.000Z</time>
      </trkpt>
      <trkpt lat="48.31976" lon="7.40037">
        <ele>534.9</ele>
        <time>2021-07-01T09:49:55.000Z</time>
      </trkpt>
      <trkpt lat="48.31967" lon="7.40035">
        <ele>534.4</ele>
        <time>2021-07-01T09:50:05.000Z</time>
      </trkpt>
      <trkpt lat="48.31958" lon="7.40028">
        <ele>535.6</ele>
        <time>2021-07-01T09:50:16.000Z</time>
      </trkpt>
      <trkpt lat="48.31949" lon="7.40023">
        <ele>536</ele>
        <time>2021-07-01T09:50:24.000Z</time>
      </trkpt>
      <trkpt lat="48.31941" lon="7.40015">
        <ele>537.5</ele>
        <time>2021-07-01T09:50:32.000Z</time>
      </trkpt>
      <trkpt lat="48.31933" lon="7.40007">
        <ele>539.2</ele>
        <time>2021-07-01T09:50:44.000Z</time>
      </trkpt>
      <trkpt lat="48.31924" lon="7.40001">
        <ele>539.6</ele>
        <time>2021-07-01T09:50:53.000Z</time>
      </trkpt>
      <trkpt lat="48.31915" lon="7.39999">
        <ele>539</ele>
        <time>2021-07-01T09:51:04.000Z</time>
      </trkpt>
      <trkpt lat="48.31905" lon="7.39996">
        <ele>537.8</ele>
        <time>2021-07-01T09:51:17.000Z</time>
      </trkpt>
      <trkpt lat="48.31896" lon="7.3999">
        <ele>538</ele>
        <time>2021-07-01T09:51:25.000Z</time>
      </trkpt>
      <trkpt lat="48.31887" lon="7.39989">
        <ele>536.4</ele>
        <time>2021-07-01T09:51:30.000Z</time>
      </trkpt>
      <trkpt lat="48.31877" lon="7.39986">
        <ele>535.4</ele>
        <time>2021-07-01T09:51:36.000Z</time>
      </trkpt>
      <trkpt lat="48.31869" lon="7.39979">
        <ele>535.9</ele>
        <time>2021-07-01T09:51:42.000Z</time>
      </trkpt>
      <trkpt lat="48.31861" lon="7.39972">
        <ele>536.1</ele>
        <time>2021-07-01T09:51:47.000Z</time>
      </trkpt>
      <trkpt lat="48.31851" lon="7.39968">
        <ele>535.4</ele>
        <time>2021-07-01T09:51:52.000Z</time>
      </trkpt>
      <trkpt lat="48.31842" lon="7.39962">
        <ele>535.7</ele>
        <time>2021-07-01T09:51:59.000Z</time>
      </trkpt>
      <trkpt lat="48.31834" lon="7.39956">
        <ele>535.8</ele>
        <time>2021-07-01T09:52:05.000Z</time>
      </trkpt>
      <trkpt lat="48.31826" lon="7.39949">
        <ele>538.9</ele>
        <time>2021-07-01T09:52:10.000Z</time>
      </trkpt>
      <trkpt lat="48.31817" lon="7.39938">
        <ele>543.2</ele>
        <time>2021-07-01T09:52:15.000Z</time>
      </trkpt>
      <trkpt lat="48.3181" lon="7.39928">
        <ele>546.7</ele>
        <time>2021-07-01T09:52:20.000Z</time>
      </trkpt>
      <trkpt lat="48.31805" lon="7.39917">
        <ele>550.3</ele>
        <time>2021-07-01T09:52:28.000Z</time>
      </trkpt>
      <trkpt lat="48.31797" lon="7.39909">
        <ele>553.1</ele>
        <time>2021-07-01T09:52:38.000Z</time>
      </trkpt>
      <trkpt lat="48.31788" lon="7.39914">
        <ele>553.1</ele>
        <time>2021-07-01T09:52:46.000Z</time>
      </trkpt>
      <trkpt lat="48.3178" lon="7.3991">
        <ele>555</ele>
        <time>2021-07-01T09:52:53.000Z</time>
      </trkpt>
      <trkpt lat="48.31771" lon="7.39916">
        <ele>554.7</ele>
        <time>2021-07-01T09:53:02.000Z</time>
      </trkpt>
      <trkpt lat="48.31763" lon="7.39923">
        <ele>553.9</ele>
        <time>2021-07-01T09:53:11.000Z</time>
      </trkpt>
      <trkpt lat="48.31757" lon="7.39935">
        <ele>552.1</ele>
        <time>2021-07-01T09:53:18.000Z</time>
      </trkpt>
      <trkpt lat="48.3175" lon="7.39944">
        <ele>551.3</ele>
        <time>2021-07-01T09:53:27.000Z</time>
      </trkpt>
      <trkpt lat="48.31742" lon="7.39951">
        <ele>552.6</ele>
        <time>2021-07-01T09:53:34.000Z</time>
      </trkpt>
      <trkpt lat="48.31734" lon="7.3996">
        <ele>553.2</ele>
        <time>2021-07-01T09:53:42.000Z</time>
      </trkpt>
      <trkpt lat="48.31727" lon="7.39968">
        <ele>554.1</ele>
        <time>2021-07-01T09:53:50.000Z</time>
      </trkpt>
      <trkpt lat="48.31718" lon="7.39973">
        <ele>555.8</ele>
        <time>2021-07-01T09:53:58.000Z</time>
      </trkpt>
      <trkpt lat="48.31709" lon="7.39979">
        <ele>557.5</ele>
        <time>2021-07-01T09:54:07.000Z</time>
      </trkpt>
      <trkpt lat="48.31702" lon="7.39988">
        <ele>557.9</ele>
        <time>2021-07-01T09:54:15.000Z</time>
      </trkpt>
      <trkpt lat="48.31697" lon="7.4">
        <ele>556.9</ele>
        <time>2021-07-01T09:54:25.000Z</time>
      </trkpt>
      <trkpt lat="48.31689" lon="7.40008">
        <ele>558.1</ele>
        <time>2021-07-01T09:54:32.000Z</time>
      </trkpt>
      <trkpt lat="48.31685" lon="7.4002">
        <ele>557.2</ele>
        <time>2021-07-01T09:54:41.000Z</time>
      </trkpt>
      <trkpt lat="48.3168" lon="7.40032">
        <ele>557.2</ele>
        <time>2021-07-01T09:54:49.000Z</time>
      </trkpt>
      <trkpt lat="48.31674" lon="7.40043">
        <ele>557.4</ele>
        <time>2021-07-01T09:54:56.000Z</time>
      </trkpt>
      <trkpt lat="48.31669" lon="7.40055">
        <ele>556.9</ele>
        <time>2021-07-01T09:55:04.000Z</time>
      </trkpt>
      <trkpt lat="48.31668" lon="7.40069">
        <ele>554.9</ele>
        <time>2021-07-01T09:55:10.000Z</time>
      </trkpt>
      <trkpt lat="48.31661" lon="7.40079">
        <ele>555.1</ele>
        <time>2021-07-01T09:55:17.000Z</time>
      </trkpt>
      <trkpt lat="48.31653" lon="7.40086">
        <ele>555.7</ele>
        <time>2021-07-01T09:55:26.000Z</time>
      </trkpt>
      <trkpt lat="48.31647" lon="7.40095">
        <ele>555.4</ele>
        <time>2021-07-01T09:55:32.000Z</time>
      </trkpt>
      <trkpt lat="48.31637" lon="7.40102">
        <ele>556.3</ele>
        <time>2021-07-01T09:55:40.000Z</time>
      </trkpt>
      <trkpt lat="48.31629" lon="7.4011">
        <ele>556.3</ele>
        <time>2021-07-01T09:55:48.000Z</time>
      </trkpt>
      <trkpt lat="48.3162" lon="7.40117">
        <ele>556.8</ele>
        <time>2021-07-01T09:55:57.000Z</time>
      </trkpt>
      <trkpt lat="48.31611" lon="7.40124">
        <ele>557.2</ele>
        <time>2021-07-01T09:56:05.000Z</time>
      </trkpt>
      <trkpt lat="48.31603" lon="7.40131">
        <ele>557.5</ele>
        <time>2021-07-01T09:56:12.000Z</time>
      </trkpt>
      <trkpt lat="48.31594" lon="7.40136">
        <ele>558.2</ele>
        <time>2021-07-01T09:56:20.000Z</time>
      </trkpt>
      <trkpt lat="48.31586" lon="7.40144">
        <ele>557.9</ele>
        <time>2021-07-01T09:56:27.000Z</time>
      </trkpt>
      <trkpt lat="48.31577" lon="7.4015">
        <ele>556.4</ele>
        <time>2021-07-01T09:56:34.000Z</time>
      </trkpt>
      <trkpt lat="48.3157" lon="7.40159">
        <ele>553.5</ele>
        <time>2021-07-01T09:56:42.000Z</time>
      </trkpt>
      <trkpt lat="48.31563" lon="7.40168">
        <ele>550.7</ele>
        <time>2021-07-01T09:56:49.000Z</time>
      </trkpt>
      <trkpt lat="48.31553" lon="7.40168">
        <ele>549.8</ele>
        <time>2021-07-01T09:56:56.000Z</time>
      </trkpt>
      <trkpt lat="48.31558" lon="7.40181">
        <ele>548</ele>
        <time>2021-07-01T09:57:59.000Z</time>
      </trkpt>
      <trkpt lat="48.31549" lon="7.40188">
        <ele>546</ele>
        <time>2021-07-01T09:58:09.000Z</time>
      </trkpt>
      <trkpt lat="48.31539" lon="7.40185">
        <ele>545.7</ele>
        <time>2021-07-01T09:58:19.000Z</time>
      </trkpt>
      <trkpt lat="48.31531" lon="7.40178">
        <ele>546</ele>
        <time>2021-07-01T09:58:27.000Z</time>
      </trkpt>
      <trkpt lat="48.31523" lon="7.40171">
        <ele>546.5</ele>
        <time>2021-07-01T09:58:35.000Z</time>
      </trkpt>
      <trkpt lat="48.31515" lon="7.40161">
        <ele>547.5</ele>
        <time>2021-07-01T09:58:41.000Z</time>
      </trkpt>
      <trkpt lat="48.31506" lon="7.40156">
        <ele>547.4</ele>
        <time>2021-07-01T09:58:47.000Z</time>
      </trkpt>
      <trkpt lat="48.31496" lon="7.4015">
        <ele>546.7</ele>
        <time>2021-07-01T09:58:54.000Z</time>
      </trkpt>
      <trkpt lat="48.31488" lon="7.40144">
        <ele>545.3</ele>
        <time>2021-07-01T09:59:03.000Z</time>
      </trkpt>
      <trkpt lat="48.31479" lon="7.40138">
        <ele>543.7</ele>
        <time>2021-07-01T09:59:12.000Z</time>
      </trkpt>
      <trkpt lat="48.31471" lon="7.40128">
        <ele>543.3</ele>
        <time>2021-07-01T09:59:20.000Z</time>
      </trkpt>
      <trkpt lat="48.31464" lon="7.40118">
        <ele>542.8</ele>
        <time>2021-07-01T09:59:28.000Z</time>
      </trkpt>
      <trkpt lat="48.31455" lon="7.4011">
        <ele>541.7</ele>
        <time>2021-07-01T09:59:35.000Z</time>
      </trkpt>
      <trkpt lat="48.31446" lon="7.40102">
        <ele>540.7</ele>
        <time>2021-07-01T09:59:43.000Z</time>
      </trkpt>
      <trkpt lat="48.31438" lon="7.40093">
        <ele>540.1</ele>
        <time>2021-07-01T09:59:52.000Z</time>
      </trkpt>
      <trkpt lat="48.3143" lon="7.40084">
        <ele>539.5</ele>
        <time>2021-07-01T09:59:59.000Z</time>
      </trkpt>
      <trkpt lat="48.31422" lon="7.40077">
        <ele>538.2</ele>
        <time>2021-07-01T10:00:04.000Z</time>
      </trkpt>
      <trkpt lat="48.31415" lon="7.40068">
        <ele>537.5</ele>
        <time>2021-07-01T10:00:10.000Z</time>
      </trkpt>
      <trkpt lat="48.31408" lon="7.40058">
        <ele>537.3</ele>
        <time>2021-07-01T10:00:17.000Z</time>
      </trkpt>
      <trkpt lat="48.31404" lon="7.40045">
        <ele>537.9</ele>
        <time>2021-07-01T10:00:24.000Z</time>
      </trkpt>
      <trkpt lat="48.31403" lon="7.40029">
        <ele>539.4</ele>
        <time>2021-07-01T10:00:30.000Z</time>
      </trkpt>
      <trkpt lat="48.314" lon="7.40015">
        <ele>540.2</ele>
        <time>2021-07-01T10:00:37.000Z</time>
      </trkpt>
      <trkpt lat="48.31396" lon="7.4">
        <ele>541</ele>
        <time>2021-07-01T10:00:45.000Z</time>
      </trkpt>
      <trkpt lat="48.3139" lon="7.3999">
        <ele>540</ele>
        <time>2021-07-01T10:00:53.000Z</time>
      </trkpt>
      <trkpt lat="48.31382" lon="7.39982">
        <ele>538.6</ele>
        <time>2021-07-01T10:01:03.000Z</time>
      </trkpt>
      <trkpt lat="48.31381" lon="7.39967">
        <ele>539</ele>
        <time>2021-07-01T10:01:19.000Z</time>
      </trkpt>
      <trkpt lat="48.31383" lon="7.39953">
        <ele>540.1</ele>
        <time>2021-07-01T10:01:30.000Z</time>
      </trkpt>
      <trkpt lat="48.31383" lon="7.39939">
        <ele>540.9</ele>
        <time>2021-07-01T10:01:41.000Z</time>
      </trkpt>
      <trkpt lat="48.3138" lon="7.39926">
        <ele>540.5</ele>
        <time>2021-07-01T10:01:48.000Z</time>
      </trkpt>
      <trkpt lat="48.31379" lon="7.39912">
        <ele>540.9</ele>
        <time>2021-07-01T10:01:58.000Z</time>
      </trkpt>
      <trkpt lat="48.31381" lon="7.39897">
        <ele>542.6</ele>
        <time>2021-07-01T10:02:13.000Z</time>
      </trkpt>
      <trkpt lat="48.31383" lon="7.39882">
        <ele>544</ele>
        <time>2021-07-01T10:02:20.000Z</time>
      </trkpt>
      <trkpt lat="48.31385" lon="7.39869">
        <ele>545.3</ele>
        <time>2021-07-01T10:02:28.000Z</time>
      </trkpt>
      <trkpt lat="48.31388" lon="7.39854">
        <ele>547.5</ele>
        <time>2021-07-01T10:02:41.000Z</time>
      </trkpt>
      <trkpt lat="48.31385" lon="7.3984">
        <ele>547.1</ele>
        <time>2021-07-01T10:02:52.000Z</time>
      </trkpt>
      <trkpt lat="48.31383" lon="7.39826">
        <ele>547.3</ele>
        <time>2021-07-01T10:03:04.000Z</time>
      </trkpt>
      <trkpt lat="48.31383" lon="7.39812">
        <ele>548.3</ele>
        <time>2021-07-01T10:03:15.000Z</time>
      </trkpt>
      <trkpt lat="48.31385" lon="7.39798">
        <ele>549.9</ele>
        <time>2021-07-01T10:03:24.000Z</time>
      </trkpt>
      <trkpt lat="48.31385" lon="7.39783">
        <ele>551</ele>
        <time>2021-07-01T10:03:32.000Z</time>
      </trkpt>
      <trkpt lat="48.31387" lon="7.3977">
        <ele>552.4</ele>
        <time>2021-07-01T10:03:39.000Z</time>
      </trkpt>
      <trkpt lat="48.31387" lon="7.39756">
        <ele>553.5</ele>
        <time>2021-07-01T10:03:48.000Z</time>
      </trkpt>
      <trkpt lat="48.31388" lon="7.39742">
        <ele>554.5</ele>
        <time>2021-07-01T10:03:57.000Z</time>
      </trkpt>
      <trkpt lat="48.31387" lon="7.39727">
        <ele>555.2</ele>
        <time>2021-07-01T10:04:03.000Z</time>
      </trkpt>
      <trkpt lat="48.31391" lon="7.39713">
        <ele>557.2</ele>
        <time>2021-07-01T10:04:12.000Z</time>
      </trkpt>
      <trkpt lat="48.31393" lon="7.397">
        <ele>558.7</ele>
        <time>2021-07-01T10:04:21.000Z</time>
      </trkpt>
      <trkpt lat="48.31392" lon="7.39686">
        <ele>559.1</ele>
        <time>2021-07-01T10:04:34.000Z</time>
      </trkpt>
      <trkpt lat="48.31392" lon="7.39672">
        <ele>559.9</ele>
        <time>2021-07-01T10:04:43.000Z</time>
      </trkpt>
      <trkpt lat="48.31393" lon="7.39657">
        <ele>561</ele>
        <time>2021-07-01T10:04:51.000Z</time>
      </trkpt>
      <trkpt lat="48.31396" lon="7.39643">
        <ele>562.5</ele>
        <time>2021-07-01T10:04:59.000Z</time>
      </trkpt>
      <trkpt lat="48.31396" lon="7.39629">
        <ele>563.1</ele>
        <time>2021-07-01T10:05:06.000Z</time>
      </trkpt>
      <trkpt lat="48.31398" lon="7.39614">
        <ele>564.2</ele>
        <time>2021-07-01T10:05:13.000Z</time>
      </trkpt>
      <trkpt lat="48.31401" lon="7.396">
        <ele>565.5</ele>
        <time>2021-07-01T10:05:21.000Z</time>
      </trkpt>
      <trkpt lat="48.31403" lon="7.39585">
        <ele>566.9</ele>
        <time>2021-07-01T10:05:30.000Z</time>
      </trkpt>
      <trkpt lat="48.31405" lon="7.39572">
        <ele>567.1</ele>
        <time>2021-07-01T10:05:37.000Z</time>
      </trkpt>
      <trkpt lat="48.31403" lon="7.39558">
        <ele>566</ele>
        <time>2021-07-01T10:05:43.000Z</time>
      </trkpt>
      <trkpt lat="48.31403" lon="7.39543">
        <ele>565.3</ele>
        <time>2021-07-01T10:05:51.000Z</time>
      </trkpt>
      <trkpt lat="48.31403" lon="7.3953">
        <ele>564.9</ele>
        <time>2021-07-01T10:05:58.000Z</time>
      </trkpt>
      <trkpt lat="48.31403" lon="7.39516">
        <ele>564.2</ele>
        <time>2021-07-01T10:06:04.000Z</time>
      </trkpt>
      <trkpt lat="48.31403" lon="7.39502">
        <ele>563.6</ele>
        <time>2021-07-01T10:06:12.000Z</time>
      </trkpt>
      <trkpt lat="48.31403" lon="7.39487">
        <ele>563</ele>
        <time>2021-07-01T10:06:20.000Z</time>
      </trkpt>
      <trkpt lat="48.31404" lon="7.39473">
        <ele>563.2</ele>
        <time>2021-07-01T10:06:27.000Z</time>
      </trkpt>
      <trkpt lat="48.31406" lon="7.3946">
        <ele>563.7</ele>
        <time>2021-07-01T10:06:34.000Z</time>
      </trkpt>
      <trkpt lat="48.31408" lon="7.39445">
        <ele>563.8</ele>
        <time>2021-07-01T10:06:41.000Z</time>
      </trkpt>
      <trkpt lat="48.31409" lon="7.39431">
        <ele>563.6</ele>
        <time>2021-07-01T10:06:49.000Z</time>
      </trkpt>
      <trkpt lat="48.31411" lon="7.39417">
        <ele>563.9</ele>
        <time>2021-07-01T10:06:56.000Z</time>
      </trkpt>
      <trkpt lat="48.31414" lon="7.39404">
        <ele>565.1</ele>
        <time>2021-07-01T10:07:03.000Z</time>
      </trkpt>
      <trkpt lat="48.31415" lon="7.3939">
        <ele>565.6</ele>
        <time>2021-07-01T10:07:12.000Z</time>
      </trkpt>
      <trkpt lat="48.31414" lon="7.39374">
        <ele>565.7</ele>
        <time>2021-07-01T10:07:20.000Z</time>
      </trkpt>
      <trkpt lat="48.31415" lon="7.39361">
        <ele>566.2</ele>
        <time>2021-07-01T10:07:27.000Z</time>
      </trkpt>
      <trkpt lat="48.31414" lon="7.39347">
        <ele>566</ele>
        <time>2021-07-01T10:07:36.000Z</time>
      </trkpt>
      <trkpt lat="48.31411" lon="7.39333">
        <ele>565</ele>
        <time>2021-07-01T10:07:43.000Z</time>
      </trkpt>
      <trkpt lat="48.31409" lon="7.39318">
        <ele>564.3</ele>
        <time>2021-07-01T10:07:51.000Z</time>
      </trkpt>
      <trkpt lat="48.31404" lon="7.39305">
        <ele>562.9</ele>
        <time>2021-07-01T10:07:58.000Z</time>
      </trkpt>
      <trkpt lat="48.31402" lon="7.39291">
        <ele>562.1</ele>
        <time>2021-07-01T10:08:05.000Z</time>
      </trkpt>
      <trkpt lat="48.31403" lon="7.39277">
        <ele>562.4</ele>
        <time>2021-07-01T10:08:12.000Z</time>
      </trkpt>
      <trkpt lat="48.31402" lon="7.39263">
        <ele>562.1</ele>
        <time>2021-07-01T10:08:19.000Z</time>
      </trkpt>
      <trkpt lat="48.31401" lon="7.39248">
        <ele>561.9</ele>
        <time>2021-07-01T10:08:29.000Z</time>
      </trkpt>
      <trkpt lat="48.314" lon="7.39234">
        <ele>561.3</ele>
        <time>2021-07-01T10:08:35.000Z</time>
      </trkpt>
      <trkpt lat="48.31399" lon="7.39219">
        <ele>560.8</ele>
        <time>2021-07-01T10:08:45.000Z</time>
      </trkpt>
      <trkpt lat="48.31402" lon="7.39206">
        <ele>561.5</ele>
        <time>2021-07-01T10:08:53.000Z</time>
      </trkpt>
      <trkpt lat="48.31407" lon="7.39194">
        <ele>562.8</ele>
        <time>2021-07-01T10:09:01.000Z</time>
      </trkpt>
      <trkpt lat="48.31414" lon="7.39184">
        <ele>564.4</ele>
        <time>2021-07-01T10:09:10.000Z</time>
      </trkpt>
      <trkpt lat="48.31418" lon="7.39171">
        <ele>565.5</ele>
        <time>2021-07-01T10:09:20.000Z</time>
      </trkpt>
      <trkpt lat="48.31424" lon="7.39161">
        <ele>567.4</ele>
        <time>2021-07-01T10:09:29.000Z</time>
      </trkpt>
      <trkpt lat="48.31428" lon="7.39148">
        <ele>568.1</ele>
        <time>2021-07-01T10:09:38.000Z</time>
      </trkpt>
      <trkpt lat="48.31432" lon="7.39135">
        <ele>568.3</ele>
        <time>2021-07-01T10:09:50.000Z</time>
      </trkpt>
      <trkpt lat="48.31434" lon="7.39122">
        <ele>568.1</ele>
        <time>2021-07-01T10:09:57.000Z</time>
      </trkpt>
      <trkpt lat="48.31436" lon="7.39108">
        <ele>567.7</ele>
        <time>2021-07-01T10:10:05.000Z</time>
      </trkpt>
      <trkpt lat="48.31434" lon="7.39095">
        <ele>566.1</ele>
        <time>2021-07-01T10:10:11.000Z</time>
      </trkpt>
      <trkpt lat="48.31438" lon="7.39082">
        <ele>565.9</ele>
        <time>2021-07-01T10:10:19.000Z</time>
      </trkpt>
      <trkpt lat="48.31441" lon="7.39069">
        <ele>564</ele>
        <time>2021-07-01T10:10:28.000Z</time>
      </trkpt>
      <trkpt lat="48.31437" lon="7.39055">
        <ele>560.4</ele>
        <time>2021-07-01T10:10:40.000Z</time>
      </trkpt>
      <trkpt lat="48.31426" lon="7.3905">
        <ele>557</ele>
        <time>2021-07-01T10:11:28.000Z</time>
      </trkpt>
      <trkpt lat="48.31435" lon="7.39057">
        <ele>560.3</ele>
        <time>2021-07-01T10:12:33.000Z</time>
      </trkpt>
      <trkpt lat="48.31435" lon="7.39043">
        <ele>557.4</ele>
        <time>2021-07-01T10:13:25.000Z</time>
      </trkpt>
      <trkpt lat="48.31442" lon="7.39031">
        <ele>556.6</ele>
        <time>2021-07-01T10:13:31.000Z</time>
      </trkpt>
      <trkpt lat="48.31451" lon="7.39024">
        <ele>556.9</ele>
        <time>2021-07-01T10:13:39.000Z</time>
      </trkpt>
      <trkpt lat="48.31458" lon="7.39015">
        <ele>556.2</ele>
        <time>2021-07-01T10:13:48.000Z</time>
      </trkpt>
      <trkpt lat="48.31466" lon="7.39006">
        <ele>555.6</ele>
        <time>2021-07-01T10:13:58.000Z</time>
      </trkpt>
      <trkpt lat="48.31475" lon="7.39007">
        <ele>557.5</ele>
        <time>2021-07-01T10:14:06.000Z</time>
      </trkpt>
      <trkpt lat="48.31485" lon="7.39005">
        <ele>558.6</ele>
        <time>2021-07-01T10:14:13.000Z</time>
      </trkpt>
      <trkpt lat="48.31494" lon="7.39004">
        <ele>560</ele>
        <time>2021-07-01T10:14:18.000Z</time>
      </trkpt>
      <trkpt lat="48.31504" lon="7.39003">
        <ele>560</ele>
        <time>2021-07-01T10:14:24.000Z</time>
      </trkpt>
      <trkpt lat="48.31513" lon="7.39005">
        <ele>558.8</ele>
        <time>2021-07-01T10:14:33.000Z</time>
      </trkpt>
      <trkpt lat="48.31522" lon="7.39009">
        <ele>558.2</ele>
        <time>2021-07-01T10:14:40.000Z</time>
      </trkpt>
      <trkpt lat="48.31532" lon="7.39013">
        <ele>557.9</ele>
        <time>2021-07-01T10:14:47.000Z</time>
      </trkpt>
      <trkpt lat="48.3154" lon="7.3902">
        <ele>558.5</ele>
        <time>2021-07-01T10:14:53.000Z</time>
      </trkpt>
      <trkpt lat="48.31547" lon="7.39028">
        <ele>559.7</ele>
        <time>2021-07-01T10:15:01.000Z</time>
      </trkpt>
      <trkpt lat="48.31555" lon="7.39035">
        <ele>561</ele>
        <time>2021-07-01T10:15:09.000Z</time>
      </trkpt>
      <trkpt lat="48.31563" lon="7.39043">
        <ele>562.4</ele>
        <time>2021-07-01T10:15:17.000Z</time>
      </trkpt>
      <trkpt lat="48.3157" lon="7.39053">
        <ele>564.8</ele>
        <time>2021-07-01T10:15:26.000Z</time>
      </trkpt>
      <trkpt lat="48.31578" lon="7.39062">
        <ele>566.8</ele>
        <time>2021-07-01T10:15:34.000Z</time>
      </trkpt>
      <trkpt lat="48.31586" lon="7.39068">
        <ele>567.8</ele>
        <time>2021-07-01T10:15:43.000Z</time>
      </trkpt>
      <trkpt lat="48.31594" lon="7.39074">
        <ele>568.3</ele>
        <time>2021-07-01T10:15:52.000Z</time>
      </trkpt>
      <trkpt lat="48.31603" lon="7.39078">
        <ele>567.7</ele>
        <time>2021-07-01T10:15:59.000Z</time>
      </trkpt>
      <trkpt lat="48.31612" lon="7.39087">
        <ele>568.5</ele>
        <time>2021-07-01T10:16:07.000Z</time>
      </trkpt>
      <trkpt lat="48.3162" lon="7.39095">
        <ele>568.9</ele>
        <time>2021-07-01T10:16:13.000Z</time>
      </trkpt>
      <trkpt lat="48.31627" lon="7.39103">
        <ele>569.7</ele>
        <time>2021-07-01T10:16:20.000Z</time>
      </trkpt>
      <trkpt lat="48.31635" lon="7.39111">
        <ele>570.3</ele>
        <time>2021-07-01T10:16:27.000Z</time>
      </trkpt>
      <trkpt lat="48.31641" lon="7.39122">
        <ele>571.9</ele>
        <time>2021-07-01T10:16:35.000Z</time>
      </trkpt>
      <trkpt lat="48.31649" lon="7.3913">
        <ele>572.5</ele>
        <time>2021-07-01T10:16:43.000Z</time>
      </trkpt>
      <trkpt lat="48.31657" lon="7.39137">
        <ele>572.5</ele>
        <time>2021-07-01T10:16:49.000Z</time>
      </trkpt>
      <trkpt lat="48.31667" lon="7.39143">
        <ele>572</ele>
        <time>2021-07-01T10:16:59.000Z</time>
      </trkpt>
      <trkpt lat="48.31677" lon="7.39149">
        <ele>572.1</ele>
        <time>2021-07-01T10:17:07.000Z</time>
      </trkpt>
      <trkpt lat="48.31687" lon="7.39151">
        <ele>571.1</ele>
        <time>2021-07-01T10:17:15.000Z</time>
      </trkpt>
      <trkpt lat="48.31697" lon="7.39156">
        <ele>570.9</ele>
        <time>2021-07-01T10:17:23.000Z</time>
      </trkpt>
      <trkpt lat="48.31705" lon="7.39163">
        <ele>571.6</ele>
        <time>2021-07-01T10:17:30.000Z</time>
      </trkpt>
      <trkpt lat="48.31715" lon="7.3917">
        <ele>571.9</ele>
        <time>2021-07-01T10:17:36.000Z</time>
      </trkpt>
      <trkpt lat="48.31724" lon="7.39177">
        <ele>572.4</ele>
        <time>2021-07-01T10:17:41.000Z</time>
      </trkpt>
      <trkpt lat="48.31732" lon="7.39185">
        <ele>573.1</ele>
        <time>2021-07-01T10:17:50.000Z</time>
      </trkpt>
      <trkpt lat="48.31738" lon="7.39195">
        <ele>574.9</ele>
        <time>2021-07-01T10:18:01.000Z</time>
      </trkpt>
      <trkpt lat="48.31744" lon="7.39206">
        <ele>576.7</ele>
        <time>2021-07-01T10:18:12.000Z</time>
      </trkpt>
      <trkpt lat="48.31753" lon="7.39205">
        <ele>575.7</ele>
        <time>2021-07-01T10:18:20.000Z</time>
      </trkpt>
      <trkpt lat="48.31761" lon="7.39197">
        <ele>575.1</ele>
        <time>2021-07-01T10:18:25.000Z</time>
      </trkpt>
      <trkpt lat="48.31768" lon="7.39184">
        <ele>573.4</ele>
        <time>2021-07-01T10:18:32.000Z</time>
      </trkpt>
      <trkpt lat="48.31772" lon="7.3917">
        <ele>570.8</ele>
        <time>2021-07-01T10:18:39.000Z</time>
      </trkpt>
      <trkpt lat="48.31778" lon="7.39159">
        <ele>569.4</ele>
        <time>2021-07-01T10:18:45.000Z</time>
      </trkpt>
      <trkpt lat="48.31785" lon="7.39151">
        <ele>569.1</ele>
        <time>2021-07-01T10:18:51.000Z</time>
      </trkpt>
      <trkpt lat="48.31792" lon="7.39142">
        <ele>568.4</ele>
        <time>2021-07-01T10:18:57.000Z</time>
      </trkpt>
      <trkpt lat="48.31801" lon="7.39135">
        <ele>568.9</ele>
        <time>2021-07-01T10:19:03.000Z</time>
      </trkpt>
      <trkpt lat="48.31809" lon="7.39128">
        <ele>569.1</ele>
        <time>2021-07-01T10:19:13.000Z</time>
      </trkpt>
      <trkpt lat="48.31818" lon="7.39122">
        <ele>569.8</ele>
        <time>2021-07-01T10:19:21.000Z</time>
      </trkpt>
      <trkpt lat="48.31826" lon="7.39115">
        <ele>570.2</ele>
        <time>2021-07-01T10:19:30.000Z</time>
      </trkpt>
      <trkpt lat="48.31832" lon="7.39106">
        <ele>569.9</ele>
        <time>2021-07-01T10:19:37.000Z</time>
      </trkpt>
      <trkpt lat="48.31838" lon="7.39094">
        <ele>568.8</ele>
        <time>2021-07-01T10:19:45.000Z</time>
      </trkpt>
      <trkpt lat="48.31841" lon="7.39081">
        <ele>566.9</ele>
        <time>2021-07-01T10:19:51.000Z</time>
      </trkpt>
      <trkpt lat="48.31847" lon="7.39069">
        <ele>565.6</ele>
        <time>2021-07-01T10:20:00.000Z</time>
      </trkpt>
      <trkpt lat="48.31853" lon="7.39059">
        <ele>564.8</ele>
        <time>2021-07-01T10:20:08.000Z</time>
      </trkpt>
      <trkpt lat="48.31856" lon="7.39046">
        <ele>561.8</ele>
        <time>2021-07-01T10:20:16.000Z</time>
      </trkpt>
      <trkpt lat="48.31864" lon="7.39036">
        <ele>561.3</ele>
        <time>2021-07-01T10:20:24.000Z</time>
      </trkpt>
      <trkpt lat="48.31873" lon="7.39031">
        <ele>562.1</ele>
        <time>2021-07-01T10:20:35.000Z</time>
      </trkpt>
      <trkpt lat="48.31881" lon="7.39026">
        <ele>563.3</ele>
        <time>2021-07-01T10:20:45.000Z</time>
      </trkpt>
      <trkpt lat="48.3189" lon="7.39019">
        <ele>563.3</ele>
        <time>2021-07-01T10:20:53.000Z</time>
      </trkpt>
      <trkpt lat="48.31899" lon="7.39014">
        <ele>563.9</ele>
        <time>2021-07-01T10:21:01.000Z</time>
      </trkpt>
      <trkpt lat="48.31908" lon="7.39009">
        <ele>564.9</ele>
        <time>2021-07-01T10:21:10.000Z</time>
      </trkpt>
      <trkpt lat="48.31917" lon="7.39004">
        <ele>565.7</ele>
        <time>2021-07-01T10:21:17.000Z</time>
      </trkpt>
      <trkpt lat="48.31926" lon="7.38996">
        <ele>564.7</ele>
        <time>2021-07-01T10:21:24.000Z</time>
      </trkpt>
      <trkpt lat="48.31935" lon="7.38991">
        <ele>564.6</ele>
        <time>2021-07-01T10:21:30.000Z</time>
      </trkpt>
      <trkpt lat="48.31943" lon="7.38985">
        <ele>564.3</ele>
        <time>2021-07-01T10:21:37.000Z</time>
      </trkpt>
      <trkpt lat="48.31953" lon="7.3898">
        <ele>564.6</ele>
        <time>2021-07-01T10:21:45.000Z</time>
      </trkpt>
      <trkpt lat="48.31962" lon="7.38976">
        <ele>565.1</ele>
        <time>2021-07-01T10:21:51.000Z</time>
      </trkpt>
      <trkpt lat="48.31971" lon="7.38972">
        <ele>565.8</ele>
        <time>2021-07-01T10:21:58.000Z</time>
      </trkpt>
      <trkpt lat="48.3198" lon="7.38966">
        <ele>565.7</ele>
        <time>2021-07-01T10:22:07.000Z</time>
      </trkpt>
      <trkpt lat="48.31988" lon="7.3896">
        <ele>565.6</ele>
        <time>2021-07-01T10:22:14.000Z</time>
      </trkpt>
      <trkpt lat="48.31997" lon="7.38953">
        <ele>565.1</ele>
        <time>2021-07-01T10:22:21.000Z</time>
      </trkpt>
      <trkpt lat="48.32005" lon="7.38948">
        <ele>565.3</ele>
        <time>2021-07-01T10:22:29.000Z</time>
      </trkpt>
      <trkpt lat="48.32014" lon="7.38943">
        <ele>565.7</ele>
        <time>2021-07-01T10:22:38.000Z</time>
      </trkpt>
      <trkpt lat="48.32024" lon="7.38941">
        <ele>567.4</ele>
        <time>2021-07-01T10:22:46.000Z</time>
      </trkpt>
      <trkpt lat="48.32033" lon="7.38937">
        <ele>568.3</ele>
        <time>2021-07-01T10:22:53.000Z</time>
      </trkpt>
      <trkpt lat="48.32042" lon="7.38931">
        <ele>568.6</ele>
        <time>2021-07-01T10:23:01.000Z</time>
      </trkpt>
      <trkpt lat="48.3205" lon="7.38926">
        <ele>569.2</ele>
        <time>2021-07-01T10:23:09.000Z</time>
      </trkpt>
      <trkpt lat="48.32059" lon="7.3892">
        <ele>569.8</ele>
        <time>2021-07-01T10:23:17.000Z</time>
      </trkpt>
      <trkpt lat="48.32067" lon="7.38913">
        <ele>570.5</ele>
        <time>2021-07-01T10:23:25.000Z</time>
      </trkpt>
      <trkpt lat="48.32074" lon="7.38902">
        <ele>571.6</ele>
        <time>2021-07-01T10:23:33.000Z</time>
      </trkpt>
      <trkpt lat="48.32084" lon="7.38895">
        <ele>573.8</ele>
        <time>2021-07-01T10:23:40.000Z</time>
      </trkpt>
      <trkpt lat="48.32092" lon="7.38889">
        <ele>575.5</ele>
        <time>2021-07-01T10:23:47.000Z</time>
      </trkpt>
      <trkpt lat="48.321" lon="7.38882">
        <ele>577.2</ele>
        <time>2021-07-01T10:23:56.000Z</time>
      </trkpt>
      <trkpt lat="48.32105" lon="7.3887">
        <ele>578</ele>
        <time>2021-07-01T10:24:03.000Z</time>
      </trkpt>
      <trkpt lat="48.32108" lon="7.38857">
        <ele>578.1</ele>
        <time>2021-07-01T10:24:09.000Z</time>
      </trkpt>
      <trkpt lat="48.3211" lon="7.38843">
        <ele>577.8</ele>
        <time>2021-07-01T10:24:17.000Z</time>
      </trkpt>
      <trkpt lat="48.32112" lon="7.38829">
        <ele>578.3</ele>
        <time>2021-07-01T10:24:31.000Z</time>
      </trkpt>
      <trkpt lat="48.3211" lon="7.38815">
        <ele>578.7</ele>
        <time>2021-07-01T10:24:44.000Z</time>
      </trkpt>
      <trkpt lat="48.32106" lon="7.38801">
        <ele>578.9</ele>
        <time>2021-07-01T10:24:53.000Z</time>
      </trkpt>
      <trkpt lat="48.32104" lon="7.38787">
        <ele>579.4</ele>
        <time>2021-07-01T10:25:01.000Z</time>
      </trkpt>
      <trkpt lat="48.32104" lon="7.38772">
        <ele>580.6</ele>
        <time>2021-07-01T10:25:12.000Z</time>
      </trkpt>
      <trkpt lat="48.32097" lon="7.38762">
        <ele>580.2</ele>
        <time>2021-07-01T10:25:20.000Z</time>
      </trkpt>
      <trkpt lat="48.32092" lon="7.38751">
        <ele>580.3</ele>
        <time>2021-07-01T10:25:26.000Z</time>
      </trkpt>
      <trkpt lat="48.32088" lon="7.38738">
        <ele>580.6</ele>
        <time>2021-07-01T10:25:35.000Z</time>
      </trkpt>
      <trkpt lat="48.32084" lon="7.38725">
        <ele>581.2</ele>
        <time>2021-07-01T10:25:45.000Z</time>
      </trkpt>
      <trkpt lat="48.32079" lon="7.38713">
        <ele>580.2</ele>
        <time>2021-07-01T10:25:54.000Z</time>
      </trkpt>
      <trkpt lat="48.32073" lon="7.38702">
        <ele>579.1</ele>
        <time>2021-07-01T10:26:03.000Z</time>
      </trkpt>
      <trkpt lat="48.32068" lon="7.38689">
        <ele>578.3</ele>
        <time>2021-07-01T10:26:10.000Z</time>
      </trkpt>
      <trkpt lat="48.32065" lon="7.38676">
        <ele>578.3</ele>
        <time>2021-07-01T10:26:19.000Z</time>
      </trkpt>
      <trkpt lat="48.32061" lon="7.38663">
        <ele>577.5</ele>
        <time>2021-07-01T10:26:28.000Z</time>
      </trkpt>
      <trkpt lat="48.32058" lon="7.38649">
        <ele>576.3</ele>
        <time>2021-07-01T10:26:35.000Z</time>
      </trkpt>
      <trkpt lat="48.32056" lon="7.38635">
        <ele>575.2</ele>
        <time>2021-07-01T10:26:43.000Z</time>
      </trkpt>
      <trkpt lat="48.32053" lon="7.38621">
        <ele>574.2</ele>
        <time>2021-07-01T10:26:52.000Z</time>
      </trkpt>
      <trkpt lat="48.32053" lon="7.38606">
        <ele>574</ele>
        <time>2021-07-01T10:27:00.000Z</time>
      </trkpt>
      <trkpt lat="48.32054" lon="7.38592">
        <ele>574</ele>
        <time>2021-07-01T10:27:09.000Z</time>
      </trkpt>
      <trkpt lat="48.32056" lon="7.38577">
        <ele>574</ele>
        <time>2021-07-01T10:27:16.000Z</time>
      </trkpt>
      <trkpt lat="48.32059" lon="7.38562">
        <ele>573.5</ele>
        <time>2021-07-01T10:27:24.000Z</time>
      </trkpt>
      <trkpt lat="48.3206" lon="7.38548">
        <ele>572.4</ele>
        <time>2021-07-01T10:27:31.000Z</time>
      </trkpt>
      <trkpt lat="48.32061" lon="7.38533">
        <ele>571.3</ele>
        <time>2021-07-01T10:27:39.000Z</time>
      </trkpt>
      <trkpt lat="48.32063" lon="7.3852">
        <ele>570.6</ele>
        <time>2021-07-01T10:27:46.000Z</time>
      </trkpt>
      <trkpt lat="48.32064" lon="7.38506">
        <ele>569.3</ele>
        <time>2021-07-01T10:27:54.000Z</time>
      </trkpt>
      <trkpt lat="48.32068" lon="7.38493">
        <ele>568.6</ele>
        <time>2021-07-01T10:28:03.000Z</time>
      </trkpt>
      <trkpt lat="48.32068" lon="7.38479">
        <ele>567.3</ele>
        <time>2021-07-01T10:28:17.000Z</time>
      </trkpt>
      <trkpt lat="48.32064" lon="7.38466">
        <ele>565.8</ele>
        <time>2021-07-01T10:28:29.000Z</time>
      </trkpt>
      <trkpt lat="48.32059" lon="7.38455">
        <ele>564.7</ele>
        <time>2021-07-01T10:28:36.000Z</time>
      </trkpt>
      <trkpt lat="48.32053" lon="7.38442">
        <ele>563.9</ele>
        <time>2021-07-01T10:28:42.000Z</time>
      </trkpt>
      <trkpt lat="48.32048" lon="7.3843">
        <ele>563.5</ele>
        <time>2021-07-01T10:28:49.000Z</time>
      </trkpt>
      <trkpt lat="48.32042" lon="7.38417">
        <ele>563.5</ele>
        <time>2021-07-01T10:28:56.000Z</time>
      </trkpt>
      <trkpt lat="48.32036" lon="7.38408">
        <ele>562.9</ele>
        <time>2021-07-01T10:29:03.000Z</time>
      </trkpt>
      <trkpt lat="48.32033" lon="7.38395">
        <ele>562.1</ele>
        <time>2021-07-01T10:29:09.000Z</time>
      </trkpt>
      <trkpt lat="48.32028" lon="7.38383">
        <ele>561.8</ele>
        <time>2021-07-01T10:29:18.000Z</time>
      </trkpt>
      <trkpt lat="48.32021" lon="7.38371">
        <ele>562.1</ele>
        <time>2021-07-01T10:29:25.000Z</time>
      </trkpt>
      <trkpt lat="48.32014" lon="7.38361">
        <ele>562.9</ele>
        <time>2021-07-01T10:29:33.000Z</time>
      </trkpt>
      <trkpt lat="48.32006" lon="7.38355">
        <ele>564.7</ele>
        <time>2021-07-01T10:29:39.000Z</time>
      </trkpt>
      <trkpt lat="48.32001" lon="7.38343">
        <ele>565.8</ele>
        <time>2021-07-01T10:29:50.000Z</time>
      </trkpt>
      <trkpt lat="48.31993" lon="7.38333">
        <ele>565.4</ele>
        <time>2021-07-01T10:29:57.000Z</time>
      </trkpt>
      <trkpt lat="48.31985" lon="7.38326">
        <ele>564.4</ele>
        <time>2021-07-01T10:30:05.000Z</time>
      </trkpt>
      <trkpt lat="48.31977" lon="7.38318">
        <ele>563.7</ele>
        <time>2021-07-01T10:30:14.000Z</time>
      </trkpt>
      <trkpt lat="48.31971" lon="7.38307">
        <ele>563.3</ele>
        <time>2021-07-01T10:30:25.000Z</time>
      </trkpt>
      <trkpt lat="48.31966" lon="7.38296">
        <ele>563.4</ele>
        <time>2021-07-01T10:30:36.000Z</time>
      </trkpt>
      <trkpt lat="48.31959" lon="7.38286">
        <ele>563.9</ele>
        <time>2021-07-01T10:30:44.000Z</time>
      </trkpt>
      <trkpt lat="48.31952" lon="7.38275">
        <ele>564.8</ele>
        <time>2021-07-01T10:30:54.000Z</time>
      </trkpt>
      <trkpt lat="48.31946" lon="7.38263">
        <ele>566.2</ele>
        <time>2021-07-01T10:31:02.000Z</time>
      </trkpt>
      <trkpt lat="48.31941" lon="7.3825">
        <ele>567.9</ele>
        <time>2021-07-01T10:31:10.000Z</time>
      </trkpt>
      <trkpt lat="48.31936" lon="7.38237">
        <ele>568.7</ele>
        <time>2021-07-01T10:31:18.000Z</time>
      </trkpt>
      <trkpt lat="48.31929" lon="7.38228">
        <ele>570.2</ele>
        <time>2021-07-01T10:31:27.000Z</time>
      </trkpt>
      <trkpt lat="48.31922" lon="7.38217">
        <ele>572.1</ele>
        <time>2021-07-01T10:31:37.000Z</time>
      </trkpt>
      <trkpt lat="48.31915" lon="7.38207">
        <ele>574</ele>
        <time>2021-07-01T10:31:46.000Z</time>
      </trkpt>
      <trkpt lat="48.3191" lon="7.38194">
        <ele>574.4</ele>
        <time>2021-07-01T10:31:56.000Z</time>
      </trkpt>
      <trkpt lat="48.31904" lon="7.38182">
        <ele>575.1</ele>
        <time>2021-07-01T10:32:05.000Z</time>
      </trkpt>
      <trkpt lat="48.31896" lon="7.38174">
        <ele>575.8</ele>
        <time>2021-07-01T10:32:16.000Z</time>
      </trkpt>
      <trkpt lat="48.31889" lon="7.38165">
        <ele>576.5</ele>
        <time>2021-07-01T10:32:27.000Z</time>
      </trkpt>
      <trkpt lat="48.31883" lon="7.38154">
        <ele>575.9</ele>
        <time>2021-07-01T10:32:37.000Z</time>
      </trkpt>
      <trkpt lat="48.31875" lon="7.38146">
        <ele>575.8</ele>
        <time>2021-07-01T10:32:47.000Z</time>
      </trkpt>
      <trkpt lat="48.31868" lon="7.38139">
        <ele>576.3</ele>
        <time>2021-07-01T10:32:56.000Z</time>
      </trkpt>
      <trkpt lat="48.31859" lon="7.38131">
        <ele>577</ele>
        <time>2021-07-01T10:33:06.000Z</time>
      </trkpt>
      <trkpt lat="48.31852" lon="7.38122">
        <ele>577.9</ele>
        <time>2021-07-01T10:33:16.000Z</time>
      </trkpt>
      <trkpt lat="48.31848" lon="7.38108">
        <ele>578.8</ele>
        <time>2021-07-01T10:33:25.000Z</time>
      </trkpt>
      <trkpt lat="48.31843" lon="7.38095">
        <ele>580.2</ele>
        <time>2021-07-01T10:33:34.000Z</time>
      </trkpt>
      <trkpt lat="48.31837" lon="7.38084">
        <ele>582</ele>
        <time>2021-07-01T10:33:42.000Z</time>
      </trkpt>
      <trkpt lat="48.3183" lon="7.38074">
        <ele>581.4</ele>
        <time>2021-07-01T10:33:50.000Z</time>
      </trkpt>
      <trkpt lat="48.31822" lon="7.38066">
        <ele>580.2</ele>
        <time>2021-07-01T10:33:57.000Z</time>
      </trkpt>
      <trkpt lat="48.31815" lon="7.38056">
        <ele>578.8</ele>
        <time>2021-07-01T10:34:04.000Z</time>
      </trkpt>
      <trkpt lat="48.31808" lon="7.38048">
        <ele>578.1</ele>
        <time>2021-07-01T10:34:12.000Z</time>
      </trkpt>
      <trkpt lat="48.31801" lon="7.38038">
        <ele>577.4</ele>
        <time>2021-07-01T10:34:21.000Z</time>
      </trkpt>
      <trkpt lat="48.31791" lon="7.38041">
        <ele>578.2</ele>
        <time>2021-07-01T10:34:49.000Z</time>
      </trkpt>
      <trkpt lat="48.31782" lon="7.38039">
        <ele>578.6</ele>
        <time>2021-07-01T10:34:59.000Z</time>
      </trkpt>
      <trkpt lat="48.31775" lon="7.3803">
        <ele>578.6</ele>
        <time>2021-07-01T10:35:09.000Z</time>
      </trkpt>
      <trkpt lat="48.31767" lon="7.38024">
        <ele>579.1</ele>
        <time>2021-07-01T10:35:20.000Z</time>
      </trkpt>
      <trkpt lat="48.31758" lon="7.38023">
        <ele>580</ele>
        <time>2021-07-01T10:35:31.000Z</time>
      </trkpt>
      <trkpt lat="48.31748" lon="7.3802">
        <ele>580.6</ele>
        <time>2021-07-01T10:35:42.000Z</time>
      </trkpt>
      <trkpt lat="48.3174" lon="7.38012">
        <ele>580.3</ele>
        <time>2021-07-01T10:35:52.000Z</time>
      </trkpt>
      <trkpt lat="48.31731" lon="7.3801">
        <ele>580</ele>
        <time>2021-07-01T10:36:03.000Z</time>
      </trkpt>
      <trkpt lat="48.31722" lon="7.38008">
        <ele>579.6</ele>
        <time>2021-07-01T10:36:15.000Z</time>
      </trkpt>
      <trkpt lat="48.31712" lon="7.38006">
        <ele>579.3</ele>
        <time>2021-07-01T10:36:24.000Z</time>
      </trkpt>
      <trkpt lat="48.31703" lon="7.38004">
        <ele>579</ele>
        <time>2021-07-01T10:36:36.000Z</time>
      </trkpt>
      <trkpt lat="48.31694" lon="7.38002">
        <ele>578.8</ele>
        <time>2021-07-01T10:36:45.000Z</time>
      </trkpt>
      <trkpt lat="48.31684" lon="7.38001">
        <ele>578.5</ele>
        <time>2021-07-01T10:36:52.000Z</time>
      </trkpt>
      <trkpt lat="48.31675" lon="7.38002">
        <ele>578.1</ele>
        <time>2021-07-01T10:37:02.000Z</time>
      </trkpt>
      <trkpt lat="48.31665" lon="7.38002">
        <ele>577.1</ele>
        <time>2021-07-01T10:37:10.000Z</time>
      </trkpt>
      <trkpt lat="48.31656" lon="7.38005">
        <ele>573.2</ele>
        <time>2021-07-01T10:37:21.000Z</time>
      </trkpt>
      <trkpt lat="48.31647" lon="7.38003">
        <ele>569.9</ele>
        <time>2021-07-01T10:37:35.000Z</time>
      </trkpt>
      <trkpt lat="48.31647" lon="7.37989">
        <ele>568.4</ele>
        <time>2021-07-01T10:39:27.000Z</time>
      </trkpt>
      <trkpt lat="48.31649" lon="7.37975">
        <ele>566.3</ele>
        <time>2021-07-01T10:39:40.000Z</time>
      </trkpt>
      <trkpt lat="48.31652" lon="7.37962">
        <ele>564.7</ele>
        <time>2021-07-01T10:39:54.000Z</time>
      </trkpt>
      <trkpt lat="48.31655" lon="7.37949">
        <ele>563.1</ele>
        <time>2021-07-01T10:40:06.000Z</time>
      </trkpt>
      <trkpt lat="48.31664" lon="7.37946">
        <ele>565.4</ele>
        <time>2021-07-01T10:40:16.000Z</time>
      </trkpt>
      <trkpt lat="48.31668" lon="7.37933">
        <ele>563.5</ele>
        <time>2021-07-01T10:40:34.000Z</time>
      </trkpt>
      <trkpt lat="48.3166" lon="7.37923">
        <ele>559.3</ele>
        <time>2021-07-01T10:40:44.000Z</time>
      </trkpt>
      <trkpt lat="48.31652" lon="7.37915">
        <ele>555.5</ele>
        <time>2021-07-01T10:40:53.000Z</time>
      </trkpt>
      <trkpt lat="48.31642" lon="7.37914">
        <ele>552.4</ele>
        <time>2021-07-01T10:41:00.000Z</time>
      </trkpt>
      <trkpt lat="48.31646" lon="7.379">
        <ele>550.9</ele>
        <time>2021-07-01T10:41:29.000Z</time>
      </trkpt>
      <trkpt lat="48.31643" lon="7.37886">
        <ele>547.8</ele>
        <time>2021-07-01T10:41:46.000Z</time>
      </trkpt>
      <trkpt lat="48.31635" lon="7.3788">
        <ele>544.8</ele>
        <time>2021-07-01T10:41:56.000Z</time>
      </trkpt>
      <trkpt lat="48.31626" lon="7.37874">
        <ele>541.9</ele>
        <time>2021-07-01T10:42:07.000Z</time>
      </trkpt>
      <trkpt lat="48.31631" lon="7.37862">
        <ele>541.1</ele>
        <time>2021-07-01T10:42:21.000Z</time>
      </trkpt>
      <trkpt lat="48.31622" lon="7.37857">
        <ele>538.5</ele>
        <time>2021-07-01T10:42:33.000Z</time>
      </trkpt>
      <trkpt lat="48.31612" lon="7.37852">
        <ele>535.9</ele>
        <time>2021-07-01T10:42:41.000Z</time>
      </trkpt>
      <trkpt lat="48.31603" lon="7.37851">
        <ele>534</ele>
        <time>2021-07-01T10:42:49.000Z</time>
      </trkpt>
      <trkpt lat="48.31595" lon="7.37843">
        <ele>531.8</ele>
        <time>2021-07-01T10:43:00.000Z</time>
      </trkpt>
      <trkpt lat="48.3159" lon="7.37831">
        <ele>529.7</ele>
        <time>2021-07-01T10:43:11.000Z</time>
      </trkpt>
      <trkpt lat="48.3158" lon="7.37831">
        <ele>527.2</ele>
        <time>2021-07-01T10:43:19.000Z</time>
      </trkpt>
      <trkpt lat="48.31574" lon="7.3782">
        <ele>523.6</ele>
        <time>2021-07-01T10:43:29.000Z</time>
      </trkpt>
      <trkpt lat="48.31565" lon="7.37814">
        <ele>519.9</ele>
        <time>2021-07-01T10:43:38.000Z</time>
      </trkpt>
      <trkpt lat="48.31556" lon="7.37813">
        <ele>516.5</ele>
        <time>2021-07-01T10:43:48.000Z</time>
      </trkpt>
      <trkpt lat="48.31547" lon="7.37818">
        <ele>513.6</ele>
        <time>2021-07-01T10:44:11.000Z</time>
      </trkpt>
      <trkpt lat="48.31539" lon="7.37812">
        <ele>510.6</ele>
        <time>2021-07-01T10:45:10.000Z</time>
      </trkpt>
      <trkpt lat="48.31547" lon="7.3782">
        <ele>513.7</ele>
        <time>2021-07-01T11:19:09.000Z</time>
      </trkpt>
      <trkpt lat="48.31556" lon="7.37815">
        <ele>516.9</ele>
        <time>2021-07-01T11:19:41.000Z</time>
      </trkpt>
      <trkpt lat="48.31566" lon="7.37813">
        <ele>520.2</ele>
        <time>2021-07-01T11:20:01.000Z</time>
      </trkpt>
      <trkpt lat="48.31574" lon="7.3782">
        <ele>523.7</ele>
        <time>2021-07-01T11:20:09.000Z</time>
      </trkpt>
      <trkpt lat="48.31583" lon="7.37824">
        <ele>527.8</ele>
        <time>2021-07-01T11:20:19.000Z</time>
      </trkpt>
      <trkpt lat="48.31591" lon="7.37834">
        <ele>530.2</ele>
        <time>2021-07-01T11:20:29.000Z</time>
      </trkpt>
      <trkpt lat="48.316" lon="7.3784">
        <ele>532.3</ele>
        <time>2021-07-01T11:20:45.000Z</time>
      </trkpt>
      <trkpt lat="48.31609" lon="7.37838">
        <ele>533.6</ele>
        <time>2021-07-01T11:21:18.000Z</time>
      </trkpt>
      <trkpt lat="48.31619" lon="7.37838">
        <ele>535.1</ele>
        <time>2021-07-01T11:21:25.000Z</time>
      </trkpt>
      <trkpt lat="48.31628" lon="7.37832">
        <ele>535.6</ele>
        <time>2021-07-01T11:21:34.000Z</time>
      </trkpt>
      <trkpt lat="48.31637" lon="7.37829">
        <ele>536.4</ele>
        <time>2021-07-01T11:21:42.000Z</time>
      </trkpt>
      <trkpt lat="48.31646" lon="7.37827">
        <ele>537.3</ele>
        <time>2021-07-01T11:21:48.000Z</time>
      </trkpt>
      <trkpt lat="48.31656" lon="7.37825">
        <ele>538.2</ele>
        <time>2021-07-01T11:21:55.000Z</time>
      </trkpt>
      <trkpt lat="48.31666" lon="7.37822">
        <ele>538.8</ele>
        <time>2021-07-01T11:22:02.000Z</time>
      </trkpt>
      <trkpt lat="48.31675" lon="7.37817">
        <ele>536.6</ele>
        <time>2021-07-01T11:22:12.000Z</time>
      </trkpt>
      <trkpt lat="48.31685" lon="7.3782">
        <ele>535.9</ele>
        <time>2021-07-01T11:22:22.000Z</time>
      </trkpt>
      <trkpt lat="48.31694" lon="7.37823">
        <ele>535.6</ele>
        <time>2021-07-01T11:22:34.000Z</time>
      </trkpt>
      <trkpt lat="48.31706" lon="7.37818">
        <ele>532.5</ele>
        <time>2021-07-01T11:22:55.000Z</time>
      </trkpt>
      <trkpt lat="48.31714" lon="7.37822">
        <ele>532.5</ele>
        <time>2021-07-01T11:23:04.000Z</time>
      </trkpt>
      <trkpt lat="48.31723" lon="7.37828">
        <ele>533</ele>
        <time>2021-07-01T11:23:12.000Z</time>
      </trkpt>
      <trkpt lat="48.31732" lon="7.37834">
        <ele>533.5</ele>
        <time>2021-07-01T11:23:20.000Z</time>
      </trkpt>
      <trkpt lat="48.31741" lon="7.3784">
        <ele>534.2</ele>
        <time>2021-07-01T11:23:28.000Z</time>
      </trkpt>
      <trkpt lat="48.3175" lon="7.37847">
        <ele>535.4</ele>
        <time>2021-07-01T11:23:35.000Z</time>
      </trkpt>
      <trkpt lat="48.31759" lon="7.37854">
        <ele>535.4</ele>
        <time>2021-07-01T11:23:43.000Z</time>
      </trkpt>
      <trkpt lat="48.31767" lon="7.37859">
        <ele>535.4</ele>
        <time>2021-07-01T11:23:50.000Z</time>
      </trkpt>
      <trkpt lat="48.31777" lon="7.37863">
        <ele>534.2</ele>
        <time>2021-07-01T11:23:57.000Z</time>
      </trkpt>
      <trkpt lat="48.31785" lon="7.3787">
        <ele>534.7</ele>
        <time>2021-07-01T11:24:06.000Z</time>
      </trkpt>
      <trkpt lat="48.31793" lon="7.37873">
        <ele>534</ele>
        <time>2021-07-01T11:24:13.000Z</time>
      </trkpt>
      <trkpt lat="48.31803" lon="7.37878">
        <ele>533.5</ele>
        <time>2021-07-01T11:24:21.000Z</time>
      </trkpt>
      <trkpt lat="48.31812" lon="7.37883">
        <ele>533.3</ele>
        <time>2021-07-01T11:24:30.000Z</time>
      </trkpt>
      <trkpt lat="48.31821" lon="7.37887">
        <ele>532.5</ele>
        <time>2021-07-01T11:24:38.000Z</time>
      </trkpt>
      <trkpt lat="48.3183" lon="7.37893">
        <ele>532.8</ele>
        <time>2021-07-01T11:24:45.000Z</time>
      </trkpt>
      <trkpt lat="48.31839" lon="7.37898">
        <ele>532.1</ele>
        <time>2021-07-01T11:24:52.000Z</time>
      </trkpt>
      <trkpt lat="48.31849" lon="7.37902">
        <ele>530.4</ele>
        <time>2021-07-01T11:24:57.000Z</time>
      </trkpt>
      <trkpt lat="48.31859" lon="7.37908">
        <ele>529.5</ele>
        <time>2021-07-01T11:25:02.000Z</time>
      </trkpt>
      <trkpt lat="48.31868" lon="7.37912">
        <ele>528.2</ele>
        <time>2021-07-01T11:25:07.000Z</time>
      </trkpt>
      <trkpt lat="48.31876" lon="7.37917">
        <ele>527.3</ele>
        <time>2021-07-01T11:25:14.000Z</time>
      </trkpt>
      <trkpt lat="48.31886" lon="7.37924">
        <ele>526.4</ele>
        <time>2021-07-01T11:25:23.000Z</time>
      </trkpt>
      <trkpt lat="48.31895" lon="7.37927">
        <ele>524.5</ele>
        <time>2021-07-01T11:25:28.000Z</time>
      </trkpt>
      <trkpt lat="48.31904" lon="7.37934">
        <ele>523.7</ele>
        <time>2021-07-01T11:25:34.000Z</time>
      </trkpt>
      <trkpt lat="48.31912" lon="7.37941">
        <ele>522.9</ele>
        <time>2021-07-01T11:25:40.000Z</time>
      </trkpt>
      <trkpt lat="48.31921" lon="7.37946">
        <ele>520.9</ele>
        <time>2021-07-01T11:25:45.000Z</time>
      </trkpt>
      <trkpt lat="48.31929" lon="7.37953">
        <ele>519.5</ele>
        <time>2021-07-01T11:25:51.000Z</time>
      </trkpt>
      <trkpt lat="48.31934" lon="7.37964">
        <ele>520.1</ele>
        <time>2021-07-01T11:25:59.000Z</time>
      </trkpt>
      <trkpt lat="48.31942" lon="7.37973">
        <ele>519.5</ele>
        <time>2021-07-01T11:26:07.000Z</time>
      </trkpt>
      <trkpt lat="48.31949" lon="7.37983">
        <ele>519.1</ele>
        <time>2021-07-01T11:26:16.000Z</time>
      </trkpt>
      <trkpt lat="48.31955" lon="7.37993">
        <ele>519.5</ele>
        <time>2021-07-01T11:26:25.000Z</time>
      </trkpt>
      <trkpt lat="48.31961" lon="7.38004">
        <ele>519.8</ele>
        <time>2021-07-01T11:26:33.000Z</time>
      </trkpt>
      <trkpt lat="48.31965" lon="7.38018">
        <ele>522.2</ele>
        <time>2021-07-01T11:26:39.000Z</time>
      </trkpt>
      <trkpt lat="48.31967" lon="7.38032">
        <ele>524.4</ele>
        <time>2021-07-01T11:26:46.000Z</time>
      </trkpt>
      <trkpt lat="48.31973" lon="7.38044">
        <ele>525.1</ele>
        <time>2021-07-01T11:26:54.000Z</time>
      </trkpt>
      <trkpt lat="48.31978" lon="7.38057">
        <ele>526</ele>
        <time>2021-07-01T11:27:01.000Z</time>
      </trkpt>
      <trkpt lat="48.31985" lon="7.38065">
        <ele>524.8</ele>
        <time>2021-07-01T11:27:09.000Z</time>
      </trkpt>
      <trkpt lat="48.31991" lon="7.38077">
        <ele>524.9</ele>
        <time>2021-07-01T11:27:16.000Z</time>
      </trkpt>
      <trkpt lat="48.31997" lon="7.38088">
        <ele>524.4</ele>
        <time>2021-07-01T11:27:23.000Z</time>
      </trkpt>
      <trkpt lat="48.32002" lon="7.38101">
        <ele>524.7</ele>
        <time>2021-07-01T11:27:32.000Z</time>
      </trkpt>
      <trkpt lat="48.32008" lon="7.38112">
        <ele>524.5</ele>
        <time>2021-07-01T11:27:40.000Z</time>
      </trkpt>
      <trkpt lat="48.32011" lon="7.38127">
        <ele>525.8</ele>
        <time>2021-07-01T11:27:46.000Z</time>
      </trkpt>
      <trkpt lat="48.32009" lon="7.38141">
        <ele>529.9</ele>
        <time>2021-07-01T11:27:51.000Z</time>
      </trkpt>
      <trkpt lat="48.32011" lon="7.38155">
        <ele>532.1</ele>
        <time>2021-07-01T11:27:58.000Z</time>
      </trkpt>
      <trkpt lat="48.32014" lon="7.38169">
        <ele>533.5</ele>
        <time>2021-07-01T11:28:06.000Z</time>
      </trkpt>
      <trkpt lat="48.32021" lon="7.38181">
        <ele>532.9</ele>
        <time>2021-07-01T11:28:14.000Z</time>
      </trkpt>
      <trkpt lat="48.32027" lon="7.38193">
        <ele>532.7</ele>
        <time>2021-07-01T11:28:20.000Z</time>
      </trkpt>
      <trkpt lat="48.32032" lon="7.38206">
        <ele>533.1</ele>
        <time>2021-07-01T11:28:26.000Z</time>
      </trkpt>
      <trkpt lat="48.32037" lon="7.38216">
        <ele>532.7</ele>
        <time>2021-07-01T11:28:33.000Z</time>
      </trkpt>
      <trkpt lat="48.32042" lon="7.38229">
        <ele>533.1</ele>
        <time>2021-07-01T11:28:42.000Z</time>
      </trkpt>
      <trkpt lat="48.32049" lon="7.38239">
        <ele>532.2</ele>
        <time>2021-07-01T11:28:48.000Z</time>
      </trkpt>
      <trkpt lat="48.32057" lon="7.38248">
        <ele>530.3</ele>
        <time>2021-07-01T11:28:59.000Z</time>
      </trkpt>
      <trkpt lat="48.32064" lon="7.38255">
        <ele>528.4</ele>
        <time>2021-07-01T11:29:06.000Z</time>
      </trkpt>
      <trkpt lat="48.32072" lon="7.38264">
        <ele>526.9</ele>
        <time>2021-07-01T11:29:13.000Z</time>
      </trkpt>
      <trkpt lat="48.32078" lon="7.38273">
        <ele>526.3</ele>
        <time>2021-07-01T11:29:21.000Z</time>
      </trkpt>
      <trkpt lat="48.32086" lon="7.38282">
        <ele>525.3</ele>
        <time>2021-07-01T11:29:29.000Z</time>
      </trkpt>
      <trkpt lat="48.32094" lon="7.38288">
        <ele>523.3</ele>
        <time>2021-07-01T11:29:36.000Z</time>
      </trkpt>
      <trkpt lat="48.32101" lon="7.38299">
        <ele>523.5</ele>
        <time>2021-07-01T11:29:44.000Z</time>
      </trkpt>
      <trkpt lat="48.32108" lon="7.3831">
        <ele>523.4</ele>
        <time>2021-07-01T11:29:52.000Z</time>
      </trkpt>
      <trkpt lat="48.32116" lon="7.38319">
        <ele>522.2</ele>
        <time>2021-07-01T11:29:59.000Z</time>
      </trkpt>
      <trkpt lat="48.32123" lon="7.38328">
        <ele>521.4</ele>
        <time>2021-07-01T11:30:07.000Z</time>
      </trkpt>
      <trkpt lat="48.32131" lon="7.38336">
        <ele>520.2</ele>
        <time>2021-07-01T11:30:13.000Z</time>
      </trkpt>
      <trkpt lat="48.32138" lon="7.38346">
        <ele>519.9</ele>
        <time>2021-07-01T11:30:20.000Z</time>
      </trkpt>
      <trkpt lat="48.32146" lon="7.38356">
        <ele>519.1</ele>
        <time>2021-07-01T11:30:27.000Z</time>
      </trkpt>
      <trkpt lat="48.32153" lon="7.38366">
        <ele>518.9</ele>
        <time>2021-07-01T11:30:35.000Z</time>
      </trkpt>
      <trkpt lat="48.3216" lon="7.38378">
        <ele>519</ele>
        <time>2021-07-01T11:30:42.000Z</time>
      </trkpt>
      <trkpt lat="48.32169" lon="7.38384">
        <ele>517.4</ele>
        <time>2021-07-01T11:30:49.000Z</time>
      </trkpt>
      <trkpt lat="48.32175" lon="7.38396">
        <ele>518.2</ele>
        <time>2021-07-01T11:30:58.000Z</time>
      </trkpt>
      <trkpt lat="48.32181" lon="7.38406">
        <ele>518.4</ele>
        <time>2021-07-01T11:31:05.000Z</time>
      </trkpt>
      <trkpt lat="48.32186" lon="7.3842">
        <ele>520.1</ele>
        <time>2021-07-01T11:31:13.000Z</time>
      </trkpt>
      <trkpt lat="48.32193" lon="7.38431">
        <ele>519.4</ele>
        <time>2021-07-01T11:31:21.000Z</time>
      </trkpt>
      <trkpt lat="48.32199" lon="7.38442">
        <ele>519.4</ele>
        <time>2021-07-01T11:31:28.000Z</time>
      </trkpt>
      <trkpt lat="48.32206" lon="7.38451">
        <ele>518.7</ele>
        <time>2021-07-01T11:31:35.000Z</time>
      </trkpt>
      <trkpt lat="48.32214" lon="7.38461">
        <ele>518.1</ele>
        <time>2021-07-01T11:31:43.000Z</time>
      </trkpt>
      <trkpt lat="48.32221" lon="7.38471">
        <ele>517.9</ele>
        <time>2021-07-01T11:31:51.000Z</time>
      </trkpt>
      <trkpt lat="48.32227" lon="7.38482">
        <ele>518.4</ele>
        <time>2021-07-01T11:31:59.000Z</time>
      </trkpt>
      <trkpt lat="48.32233" lon="7.38491">
        <ele>518.3</ele>
        <time>2021-07-01T11:32:07.000Z</time>
      </trkpt>
      <trkpt lat="48.3224" lon="7.38501">
        <ele>518.5</ele>
        <time>2021-07-01T11:32:15.000Z</time>
      </trkpt>
      <trkpt lat="48.32249" lon="7.38508">
        <ele>516.8</ele>
        <time>2021-07-01T11:32:21.000Z</time>
      </trkpt>
      <trkpt lat="48.32256" lon="7.3852">
        <ele>515.8</ele>
        <time>2021-07-01T11:32:28.000Z</time>
      </trkpt>
      <trkpt lat="48.32263" lon="7.3853">
        <ele>514.9</ele>
        <time>2021-07-01T11:32:34.000Z</time>
      </trkpt>
      <trkpt lat="48.32269" lon="7.38541">
        <ele>514.2</ele>
        <time>2021-07-01T11:32:41.000Z</time>
      </trkpt>
      <trkpt lat="48.32275" lon="7.38553">
        <ele>514.3</ele>
        <time>2021-07-01T11:32:48.000Z</time>
      </trkpt>
      <trkpt lat="48.32281" lon="7.38564">
        <ele>514.4</ele>
        <time>2021-07-01T11:32:55.000Z</time>
      </trkpt>
      <trkpt lat="48.32286" lon="7.38577">
        <ele>515.3</ele>
        <time>2021-07-01T11:33:03.000Z</time>
      </trkpt>
      <trkpt lat="48.32291" lon="7.38589">
        <ele>515.9</ele>
        <time>2021-07-01T11:33:12.000Z</time>
      </trkpt>
      <trkpt lat="48.32297" lon="7.38603">
        <ele>516.3</ele>
        <time>2021-07-01T11:33:19.000Z</time>
      </trkpt>
      <trkpt lat="48.32297" lon="7.38617">
        <ele>518.3</ele>
        <time>2021-07-01T11:33:28.000Z</time>
      </trkpt>
      <trkpt lat="48.32306" lon="7.38624">
        <ele>516.8</ele>
        <time>2021-07-01T11:33:34.000Z</time>
      </trkpt>
      <trkpt lat="48.32314" lon="7.38631">
        <ele>515.6</ele>
        <time>2021-07-01T11:33:40.000Z</time>
      </trkpt>
      <trkpt lat="48.32322" lon="7.38639">
        <ele>515</ele>
        <time>2021-07-01T11:33:48.000Z</time>
      </trkpt>
      <trkpt lat="48.3233" lon="7.38645">
        <ele>513.8</ele>
        <time>2021-07-01T11:33:57.000Z</time>
      </trkpt>
      <trkpt lat="48.32338" lon="7.38652">
        <ele>512.4</ele>
        <time>2021-07-01T11:34:04.000Z</time>
      </trkpt>
      <trkpt lat="48.32346" lon="7.38658">
        <ele>511.1</ele>
        <time>2021-07-01T11:34:11.000Z</time>
      </trkpt>
      <trkpt lat="48.32353" lon="7.38669">
        <ele>511</ele>
        <time>2021-07-01T11:34:20.000Z</time>
      </trkpt>
      <trkpt lat="48.32361" lon="7.38675">
        <ele>509.5</ele>
        <time>2021-07-01T11:34:27.000Z</time>
      </trkpt>
      <trkpt lat="48.3237" lon="7.3868">
        <ele>507.5</ele>
        <time>2021-07-01T11:34:35.000Z</time>
      </trkpt>
      <trkpt lat="48.32378" lon="7.38685">
        <ele>505.7</ele>
        <time>2021-07-01T11:34:44.000Z</time>
      </trkpt>
      <trkpt lat="48.32387" lon="7.38692">
        <ele>504.3</ele>
        <time>2021-07-01T11:34:54.000Z</time>
      </trkpt>
      <trkpt lat="48.32396" lon="7.38697">
        <ele>502.5</ele>
        <time>2021-07-01T11:35:02.000Z</time>
      </trkpt>
      <trkpt lat="48.32404" lon="7.38703">
        <ele>500.9</ele>
        <time>2021-07-01T11:35:10.000Z</time>
      </trkpt>
      <trkpt lat="48.32411" lon="7.38711">
        <ele>500.1</ele>
        <time>2021-07-01T11:35:19.000Z</time>
      </trkpt>
      <trkpt lat="48.32419" lon="7.3872">
        <ele>499.7</ele>
        <time>2021-07-01T11:35:27.000Z</time>
      </trkpt>
      <trkpt lat="48.32427" lon="7.38728">
        <ele>499.2</ele>
        <time>2021-07-01T11:35:36.000Z</time>
      </trkpt>
      <trkpt lat="48.32435" lon="7.38735">
        <ele>498.6</ele>
        <time>2021-07-01T11:35:42.000Z</time>
      </trkpt>
      <trkpt lat="48.32443" lon="7.38743">
        <ele>498.1</ele>
        <time>2021-07-01T11:35:51.000Z</time>
      </trkpt>
      <trkpt lat="48.32453" lon="7.38746">
        <ele>496.2</ele>
        <time>2021-07-01T11:35:59.000Z</time>
      </trkpt>
      <trkpt lat="48.32462" lon="7.38748">
        <ele>494</ele>
        <time>2021-07-01T11:36:05.000Z</time>
      </trkpt>
      <trkpt lat="48.32471" lon="7.38753">
        <ele>492.8</ele>
        <time>2021-07-01T11:36:12.000Z</time>
      </trkpt>
      <trkpt lat="48.3248" lon="7.3876">
        <ele>491.7</ele>
        <time>2021-07-01T11:36:20.000Z</time>
      </trkpt>
      <trkpt lat="48.32488" lon="7.38769">
        <ele>491</ele>
        <time>2021-07-01T11:36:26.000Z</time>
      </trkpt>
      <trkpt lat="48.32496" lon="7.38779">
        <ele>490.7</ele>
        <time>2021-07-01T11:36:34.000Z</time>
      </trkpt>
      <trkpt lat="48.32502" lon="7.38789">
        <ele>490.5</ele>
        <time>2021-07-01T11:36:44.000Z</time>
      </trkpt>
      <trkpt lat="48.3251" lon="7.38799">
        <ele>490.4</ele>
        <time>2021-07-01T11:36:51.000Z</time>
      </trkpt>
      <trkpt lat="48.32517" lon="7.38809">
        <ele>490.2</ele>
        <time>2021-07-01T11:36:58.000Z</time>
      </trkpt>
      <trkpt lat="48.32521" lon="7.38822">
        <ele>491.2</ele>
        <time>2021-07-01T11:37:05.000Z</time>
      </trkpt>
      <trkpt lat="48.32526" lon="7.38835">
        <ele>492.1</ele>
        <time>2021-07-01T11:37:13.000Z</time>
      </trkpt>
      <trkpt lat="48.32535" lon="7.38844">
        <ele>491.2</ele>
        <time>2021-07-01T11:37:19.000Z</time>
      </trkpt>
      <trkpt lat="48.32544" lon="7.38849">
        <ele>489.7</ele>
        <time>2021-07-01T11:37:26.000Z</time>
      </trkpt>
      <trkpt lat="48.32553" lon="7.38854">
        <ele>488.4</ele>
        <time>2021-07-01T11:37:33.000Z</time>
      </trkpt>
      <trkpt lat="48.32561" lon="7.38862">
        <ele>487.6</ele>
        <time>2021-07-01T11:37:42.000Z</time>
      </trkpt>
      <trkpt lat="48.32569" lon="7.38869">
        <ele>486.6</ele>
        <time>2021-07-01T11:37:51.000Z</time>
      </trkpt>
      <trkpt lat="48.32579" lon="7.38873">
        <ele>484.9</ele>
        <time>2021-07-01T11:37:59.000Z</time>
      </trkpt>
      <trkpt lat="48.32587" lon="7.3888">
        <ele>484.2</ele>
        <time>2021-07-01T11:38:06.000Z</time>
      </trkpt>
      <trkpt lat="48.32594" lon="7.38889">
        <ele>484.6</ele>
        <time>2021-07-01T11:38:13.000Z</time>
      </trkpt>
      <trkpt lat="48.32601" lon="7.389">
        <ele>484.9</ele>
        <time>2021-07-01T11:38:22.000Z</time>
      </trkpt>
      <trkpt lat="48.3261" lon="7.38907">
        <ele>484.6</ele>
        <time>2021-07-01T11:38:29.000Z</time>
      </trkpt>
      <trkpt lat="48.32618" lon="7.38915">
        <ele>484.4</ele>
        <time>2021-07-01T11:38:36.000Z</time>
      </trkpt>
      <trkpt lat="48.32626" lon="7.38921">
        <ele>484</ele>
        <time>2021-07-01T11:38:43.000Z</time>
      </trkpt>
      <trkpt lat="48.32635" lon="7.38926">
        <ele>483.5</ele>
        <time>2021-07-01T11:38:49.000Z</time>
      </trkpt>
      <trkpt lat="48.32643" lon="7.38931">
        <ele>482.9</ele>
        <time>2021-07-01T11:38:56.000Z</time>
      </trkpt>
      <trkpt lat="48.32653" lon="7.38935">
        <ele>481.9</ele>
        <time>2021-07-01T11:39:05.000Z</time>
      </trkpt>
      <trkpt lat="48.32663" lon="7.38938">
        <ele>480.7</ele>
        <time>2021-07-01T11:39:19.000Z</time>
      </trkpt>
      <trkpt lat="48.32672" lon="7.3894">
        <ele>480.1</ele>
        <time>2021-07-01T11:39:26.000Z</time>
      </trkpt>
      <trkpt lat="48.32682" lon="7.38945">
        <ele>480.5</ele>
        <time>2021-07-01T11:39:35.000Z</time>
      </trkpt>
      <trkpt lat="48.3269" lon="7.3895">
        <ele>480.6</ele>
        <time>2021-07-01T11:39:44.000Z</time>
      </trkpt>
      <trkpt lat="48.32699" lon="7.38958">
        <ele>481</ele>
        <time>2021-07-01T11:39:51.000Z</time>
      </trkpt>
      <trkpt lat="48.32708" lon="7.38963">
        <ele>481</ele>
        <time>2021-07-01T11:39:57.000Z</time>
      </trkpt>
      <trkpt lat="48.32718" lon="7.38964">
        <ele>480.4</ele>
        <time>2021-07-01T11:40:04.000Z</time>
      </trkpt>
      <trkpt lat="48.32727" lon="7.38965">
        <ele>479.9</ele>
        <time>2021-07-01T11:40:13.000Z</time>
      </trkpt>
      <trkpt lat="48.32736" lon="7.38968">
        <ele>479.5</ele>
        <time>2021-07-01T11:40:22.000Z</time>
      </trkpt>
      <trkpt lat="48.32743" lon="7.38977">
        <ele>479.4</ele>
        <time>2021-07-01T11:40:29.000Z</time>
      </trkpt>
      <trkpt lat="48.32751" lon="7.38984">
        <ele>479.1</ele>
        <time>2021-07-01T11:40:36.000Z</time>
      </trkpt>
      <trkpt lat="48.3276" lon="7.38992">
        <ele>478.6</ele>
        <time>2021-07-01T11:40:45.000Z</time>
      </trkpt>
      <trkpt lat="48.32767" lon="7.39003">
        <ele>478.4</ele>
        <time>2021-07-01T11:40:52.000Z</time>
      </trkpt>
      <trkpt lat="48.32775" lon="7.39011">
        <ele>478.1</ele>
        <time>2021-07-01T11:40:59.000Z</time>
      </trkpt>
      <trkpt lat="48.32784" lon="7.39018">
        <ele>477.6</ele>
        <time>2021-07-01T11:41:04.000Z</time>
      </trkpt>
      <trkpt lat="48.32792" lon="7.39023">
        <ele>477.1</ele>
        <time>2021-07-01T11:41:13.000Z</time>
      </trkpt>
      <trkpt lat="48.32798" lon="7.39033">
        <ele>477.2</ele>
        <time>2021-07-01T11:41:20.000Z</time>
      </trkpt>
      <trkpt lat="48.32804" lon="7.39044">
        <ele>477.3</ele>
        <time>2021-07-01T11:41:28.000Z</time>
      </trkpt>
      <trkpt lat="48.32812" lon="7.39054">
        <ele>477.3</ele>
        <time>2021-07-01T11:41:35.000Z</time>
      </trkpt>
      <trkpt lat="48.3282" lon="7.39061">
        <ele>476.9</ele>
        <time>2021-07-01T11:41:43.000Z</time>
      </trkpt>
      <trkpt lat="48.32828" lon="7.39069">
        <ele>476.5</ele>
        <time>2021-07-01T11:41:53.000Z</time>
      </trkpt>
      <trkpt lat="48.32835" lon="7.39081">
        <ele>476.7</ele>
        <time>2021-07-01T11:42:02.000Z</time>
      </trkpt>
      <trkpt lat="48.32836" lon="7.39094">
        <ele>477.5</ele>
        <time>2021-07-01T11:42:11.000Z</time>
      </trkpt>
      <trkpt lat="48.32838" lon="7.39108">
        <ele>478.2</ele>
        <time>2021-07-01T11:58:15.000Z</time>
      </trkpt>
      <trkpt lat="48.32843" lon="7.3912">
        <ele>478.5</ele>
        <time>2021-07-01T11:58:43.000Z</time>
      </trkpt>
      <trkpt lat="48.32849" lon="7.39131">
        <ele>478.8</ele>
        <time>2021-07-01T11:58:56.000Z</time>
      </trkpt>
      <trkpt lat="48.32855" lon="7.39142">
        <ele>479</ele>
        <time>2021-07-01T11:59:05.000Z</time>
      </trkpt>
      <trkpt lat="48.32861" lon="7.39154">
        <ele>479.3</ele>
        <time>2021-07-01T11:59:13.000Z</time>
      </trkpt>
      <trkpt lat="48.32866" lon="7.39166">
        <ele>479.6</ele>
        <time>2021-07-01T11:59:21.000Z</time>
      </trkpt>
      <trkpt lat="48.32871" lon="7.39179">
        <ele>480.2</ele>
        <time>2021-07-01T11:59:31.000Z</time>
      </trkpt>
      <trkpt lat="48.32871" lon="7.39193">
        <ele>481.3</ele>
        <time>2021-07-01T11:59:38.000Z</time>
      </trkpt>
      <trkpt lat="48.32874" lon="7.39208">
        <ele>482.2</ele>
        <time>2021-07-01T11:59:46.000Z</time>
      </trkpt>
      <trkpt lat="48.32878" lon="7.39221">
        <ele>483</ele>
        <time>2021-07-01T11:59:53.000Z</time>
      </trkpt>
      <trkpt lat="48.32883" lon="7.39234">
        <ele>483.6</ele>
        <time>2021-07-01T12:00:01.000Z</time>
      </trkpt>
      <trkpt lat="48.32885" lon="7.39248">
        <ele>484.5</ele>
        <time>2021-07-01T12:00:10.000Z</time>
      </trkpt>
      <trkpt lat="48.32888" lon="7.39261">
        <ele>485.1</ele>
        <time>2021-07-01T12:00:16.000Z</time>
      </trkpt>
      <trkpt lat="48.32891" lon="7.39273">
        <ele>485.6</ele>
        <time>2021-07-01T12:00:21.000Z</time>
      </trkpt>
      <trkpt lat="48.32889" lon="7.39288">
        <ele>486.8</ele>
        <time>2021-07-01T12:00:28.000Z</time>
      </trkpt>
      <trkpt lat="48.32889" lon="7.39302">
        <ele>487.7</ele>
        <time>2021-07-01T12:00:36.000Z</time>
      </trkpt>
      <trkpt lat="48.32889" lon="7.39316">
        <ele>488.6</ele>
        <time>2021-07-01T12:00:43.000Z</time>
      </trkpt>
      <trkpt lat="48.32888" lon="7.3933">
        <ele>489.5</ele>
        <time>2021-07-01T12:00:51.000Z</time>
      </trkpt>
      <trkpt lat="48.32889" lon="7.39344">
        <ele>489.9</ele>
        <time>2021-07-01T12:00:57.000Z</time>
      </trkpt>
      <trkpt lat="48.32892" lon="7.39357">
        <ele>489.9</ele>
        <time>2021-07-01T12:01:04.000Z</time>
      </trkpt>
      <trkpt lat="48.32893" lon="7.39372">
        <ele>490.2</ele>
        <time>2021-07-01T12:01:13.000Z</time>
      </trkpt>
      <trkpt lat="48.32896" lon="7.39385">
        <ele>490.1</ele>
        <time>2021-07-01T12:01:19.000Z</time>
      </trkpt>
      <trkpt lat="48.329" lon="7.39399">
        <ele>490</ele>
        <time>2021-07-01T12:01:27.000Z</time>
      </trkpt>
      <trkpt lat="48.32903" lon="7.39412">
        <ele>489.8</ele>
        <time>2021-07-01T12:01:35.000Z</time>
      </trkpt>
      <trkpt lat="48.32906" lon="7.39425">
        <ele>489.7</ele>
        <time>2021-07-01T12:01:41.000Z</time>
      </trkpt>
      <trkpt lat="48.32908" lon="7.3944">
        <ele>489.8</ele>
        <time>2021-07-01T12:01:48.000Z</time>
      </trkpt>
      <trkpt lat="48.32909" lon="7.39454">
        <ele>489.8</ele>
        <time>2021-07-01T12:01:56.000Z</time>
      </trkpt>
      <trkpt lat="48.32912" lon="7.39467">
        <ele>489.5</ele>
        <time>2021-07-01T12:02:03.000Z</time>
      </trkpt>
      <trkpt lat="48.32916" lon="7.39481">
        <ele>489</ele>
        <time>2021-07-01T12:02:11.000Z</time>
      </trkpt>
      <trkpt lat="48.3292" lon="7.39494">
        <ele>488.5</ele>
        <time>2021-07-01T12:02:18.000Z</time>
      </trkpt>
      <trkpt lat="48.32926" lon="7.39506">
        <ele>488.4</ele>
        <time>2021-07-01T12:02:26.000Z</time>
      </trkpt>
      <trkpt lat="48.3293" lon="7.39519">
        <ele>488.5</ele>
        <time>2021-07-01T12:02:33.000Z</time>
      </trkpt>
      <trkpt lat="48.32934" lon="7.39531">
        <ele>488.7</ele>
        <time>2021-07-01T12:02:39.000Z</time>
      </trkpt>
      <trkpt lat="48.32938" lon="7.39544">
        <ele>488.9</ele>
        <time>2021-07-01T12:02:46.000Z</time>
      </trkpt>
      <trkpt lat="48.32945" lon="7.39556">
        <ele>488.9</ele>
        <time>2021-07-01T12:02:54.000Z</time>
      </trkpt>
      <trkpt lat="48.32951" lon="7.39566">
        <ele>488.7</ele>
        <time>2021-07-01T12:03:01.000Z</time>
      </trkpt>
      <trkpt lat="48.3296" lon="7.39572">
        <ele>488.3</ele>
        <time>2021-07-01T12:03:26.000Z</time>
      </trkpt>
      <trkpt lat="48.32968" lon="7.39568">
        <ele>487.2</ele>
        <time>2021-07-01T12:03:33.000Z</time>
      </trkpt>
      <trkpt lat="48.32977" lon="7.39561">
        <ele>485.9</ele>
        <time>2021-07-01T12:03:42.000Z</time>
      </trkpt>
      <trkpt lat="48.32986" lon="7.39557">
        <ele>484.8</ele>
        <time>2021-07-01T12:03:49.000Z</time>
      </trkpt>
      <trkpt lat="48.32993" lon="7.39549">
        <ele>483.6</ele>
        <time>2021-07-01T12:03:57.000Z</time>
      </trkpt>
      <trkpt lat="48.33001" lon="7.3954">
        <ele>482.3</ele>
        <time>2021-07-01T12:04:05.000Z</time>
      </trkpt>
      <trkpt lat="48.33009" lon="7.39531">
        <ele>480.8</ele>
        <time>2021-07-01T12:04:13.000Z</time>
      </trkpt>
      <trkpt lat="48.33009" lon="7.39516">
        <ele>479.9</ele>
        <time>2021-07-01T12:04:21.000Z</time>
      </trkpt>
      <trkpt lat="48.33011" lon="7.39501">
        <ele>478.8</ele>
        <time>2021-07-01T12:04:28.000Z</time>
      </trkpt>
      <trkpt lat="48.33015" lon="7.39488">
        <ele>478.2</ele>
        <time>2021-07-01T12:04:35.000Z</time>
      </trkpt>
      <trkpt lat="48.33013" lon="7.39474">
        <ele>478.5</ele>
        <time>2021-07-01T12:04:43.000Z</time>
      </trkpt>
      <trkpt lat="48.33015" lon="7.3946">
        <ele>478.2</ele>
        <time>2021-07-01T12:04:50.000Z</time>
      </trkpt>
      <trkpt lat="48.3302" lon="7.39449">
        <ele>477.6</ele>
        <time>2021-07-01T12:04:59.000Z</time>
      </trkpt>
      <trkpt lat="48.33024" lon="7.39435">
        <ele>477.1</ele>
        <time>2021-07-01T12:05:07.000Z</time>
      </trkpt>
      <trkpt lat="48.33028" lon="7.39422">
        <ele>476.7</ele>
        <time>2021-07-01T12:05:18.000Z</time>
      </trkpt>
      <trkpt lat="48.33037" lon="7.39417">
        <ele>475.5</ele>
        <time>2021-07-01T12:05:31.000Z</time>
      </trkpt>
      <trkpt lat="48.33046" lon="7.3941">
        <ele>474.6</ele>
        <time>2021-07-01T12:05:49.000Z</time>
      </trkpt>
      <trkpt lat="48.33053" lon="7.39398">
        <ele>473.9</ele>
        <time>2021-07-01T12:05:56.000Z</time>
      </trkpt>
      <trkpt lat="48.33061" lon="7.39388">
        <ele>473</ele>
        <time>2021-07-01T12:06:03.000Z</time>
      </trkpt>
      <trkpt lat="48.3307" lon="7.39383">
        <ele>472</ele>
        <time>2021-07-01T12:06:09.000Z</time>
      </trkpt>
      <trkpt lat="48.33079" lon="7.3938">
        <ele>471</ele>
        <time>2021-07-01T12:06:16.000Z</time>
      </trkpt>
      <trkpt lat="48.33087" lon="7.39373">
        <ele>470.6</ele>
        <time>2021-07-01T12:06:23.000Z</time>
      </trkpt>
      <trkpt lat="48.33095" lon="7.39365">
        <ele>471.1</ele>
        <time>2021-07-01T12:06:31.000Z</time>
      </trkpt>
      <trkpt lat="48.33104" lon="7.39366">
        <ele>471.5</ele>
        <time>2021-07-01T12:06:41.000Z</time>
      </trkpt>
      <trkpt lat="48.33113" lon="7.3937">
        <ele>471.7</ele>
        <time>2021-07-01T12:06:54.000Z</time>
      </trkpt>
      <trkpt lat="48.33122" lon="7.39368">
        <ele>472.1</ele>
        <time>2021-07-01T12:07:04.000Z</time>
      </trkpt>
      <trkpt lat="48.33132" lon="7.39368">
        <ele>472.5</ele>
        <time>2021-07-01T12:07:16.000Z</time>
      </trkpt>
      <trkpt lat="48.33141" lon="7.3937">
        <ele>472.7</ele>
        <time>2021-07-01T12:07:29.000Z</time>
      </trkpt>
      <trkpt lat="48.3315" lon="7.39369">
        <ele>473.1</ele>
        <time>2021-07-01T12:07:40.000Z</time>
      </trkpt>
      <trkpt lat="48.33159" lon="7.39367">
        <ele>473.7</ele>
        <time>2021-07-01T12:07:50.000Z</time>
      </trkpt>
      <trkpt lat="48.33169" lon="7.39365">
        <ele>474.1</ele>
        <time>2021-07-01T12:07:59.000Z</time>
      </trkpt>
      <trkpt lat="48.33178" lon="7.39365">
        <ele>473.3</ele>
        <time>2021-07-01T12:08:06.000Z</time>
      </trkpt>
      <trkpt lat="48.33188" lon="7.3936">
        <ele>473.1</ele>
        <time>2021-07-01T12:08:14.000Z</time>
      </trkpt>
      <trkpt lat="48.33197" lon="7.39355">
        <ele>473</ele>
        <time>2021-07-01T12:08:24.000Z</time>
      </trkpt>
      <trkpt lat="48.33207" lon="7.39356">
        <ele>472.1</ele>
        <time>2021-07-01T12:08:34.000Z</time>
      </trkpt>
      <trkpt lat="48.33216" lon="7.3935">
        <ele>472</ele>
        <time>2021-07-01T12:08:42.000Z</time>
      </trkpt>
      <trkpt lat="48.33224" lon="7.39346">
        <ele>471.8</ele>
        <time>2021-07-01T12:08:48.000Z</time>
      </trkpt>
      <trkpt lat="48.33233" lon="7.39345">
        <ele>471.2</ele>
        <time>2021-07-01T12:08:56.000Z</time>
      </trkpt>
      <trkpt lat="48.33242" lon="7.39338">
        <ele>471.1</ele>
        <time>2021-07-01T12:09:04.000Z</time>
      </trkpt>
      <trkpt lat="48.33248" lon="7.39329">
        <ele>471.1</ele>
        <time>2021-07-01T12:09:12.000Z</time>
      </trkpt>
      <trkpt lat="48.33256" lon="7.3932">
        <ele>470.5</ele>
        <time>2021-07-01T12:09:21.000Z</time>
      </trkpt>
      <trkpt lat="48.33265" lon="7.39319">
        <ele>469.9</ele>
        <time>2021-07-01T12:09:29.000Z</time>
      </trkpt>
      <trkpt lat="48.33274" lon="7.39312">
        <ele>469.4</ele>
        <time>2021-07-01T12:09:36.000Z</time>
      </trkpt>
      <trkpt lat="48.33282" lon="7.39303">
        <ele>468.8</ele>
        <time>2021-07-01T12:09:42.000Z</time>
      </trkpt>
      <trkpt lat="48.33289" lon="7.39294">
        <ele>468.4</ele>
        <time>2021-07-01T12:09:48.000Z</time>
      </trkpt>
      <trkpt lat="48.33295" lon="7.39282">
        <ele>468</ele>
        <time>2021-07-01T12:09:56.000Z</time>
      </trkpt>
      <trkpt lat="48.33303" lon="7.39275">
        <ele>467.5</ele>
        <time>2021-07-01T12:10:05.000Z</time>
      </trkpt>
      <trkpt lat="48.33309" lon="7.39263">
        <ele>467.2</ele>
        <time>2021-07-01T12:10:16.000Z</time>
      </trkpt>
      <trkpt lat="48.33318" lon="7.39261">
        <ele>466.7</ele>
        <time>2021-07-01T12:10:23.000Z</time>
      </trkpt>
      <trkpt lat="48.33327" lon="7.39261">
        <ele>466.3</ele>
        <time>2021-07-01T12:10:29.000Z</time>
      </trkpt>
      <trkpt lat="48.33336" lon="7.39265">
        <ele>465.8</ele>
        <time>2021-07-01T12:10:37.000Z</time>
      </trkpt>
      <trkpt lat="48.33342" lon="7.39278">
        <ele>465.6</ele>
        <time>2021-07-01T12:10:48.000Z</time>
      </trkpt>
      <trkpt lat="48.33347" lon="7.39291">
        <ele>465.4</ele>
        <time>2021-07-01T12:10:59.000Z</time>
      </trkpt>
      <trkpt lat="48.33351" lon="7.39302">
        <ele>465.2</ele>
        <time>2021-07-01T12:11:07.000Z</time>
      </trkpt>
      <trkpt lat="48.33356" lon="7.39315">
        <ele>465.1</ele>
        <time>2021-07-01T12:11:15.000Z</time>
      </trkpt>
      <trkpt lat="48.33362" lon="7.39325">
        <ele>464.9</ele>
        <time>2021-07-01T12:11:22.000Z</time>
      </trkpt>
      <trkpt lat="48.3337" lon="7.39332">
        <ele>464.7</ele>
        <time>2021-07-01T12:11:29.000Z</time>
      </trkpt>
      <trkpt lat="48.33374" lon="7.39346">
        <ele>464</ele>
        <time>2021-07-01T12:11:35.000Z</time>
      </trkpt>
      <trkpt lat="48.33379" lon="7.39359">
        <ele>463.3</ele>
        <time>2021-07-01T12:11:41.000Z</time>
      </trkpt>
      <trkpt lat="48.33388" lon="7.39363">
        <ele>462.8</ele>
        <time>2021-07-01T12:11:49.000Z</time>
      </trkpt>
      <trkpt lat="48.33398" lon="7.39365">
        <ele>462.4</ele>
        <time>2021-07-01T12:11:56.000Z</time>
      </trkpt>
      <trkpt lat="48.33407" lon="7.39371">
        <ele>461.9</ele>
        <time>2021-07-01T12:12:03.000Z</time>
      </trkpt>
      <trkpt lat="48.33412" lon="7.39383">
        <ele>461.4</ele>
        <time>2021-07-01T12:12:11.000Z</time>
      </trkpt>
      <trkpt lat="48.33412" lon="7.39397">
        <ele>460.8</ele>
        <time>2021-07-01T12:12:19.000Z</time>
      </trkpt>
      <trkpt lat="48.33414" lon="7.39411">
        <ele>460.3</ele>
        <time>2021-07-01T12:12:27.000Z</time>
      </trkpt>
      <trkpt lat="48.33416" lon="7.39425">
        <ele>459</ele>
        <time>2021-07-01T12:12:35.000Z</time>
      </trkpt>
      <trkpt lat="48.33416" lon="7.3944">
        <ele>457.2</ele>
        <time>2021-07-01T12:12:43.000Z</time>
      </trkpt>
      <trkpt lat="48.33418" lon="7.39454">
        <ele>455.5</ele>
        <time>2021-07-01T12:12:51.000Z</time>
      </trkpt>
      <trkpt lat="48.33419" lon="7.39469">
        <ele>453.7</ele>
        <time>2021-07-01T12:12:58.000Z</time>
      </trkpt>
      <trkpt lat="48.33422" lon="7.39482">
        <ele>452</ele>
        <time>2021-07-01T12:13:05.000Z</time>
      </trkpt>
      <trkpt lat="48.3343" lon="7.39492">
        <ele>450.7</ele>
        <time>2021-07-01T12:13:12.000Z</time>
      </trkpt>
      <trkpt lat="48.33438" lon="7.39499">
        <ele>449.9</ele>
        <time>2021-07-01T12:13:24.000Z</time>
      </trkpt>
      <trkpt lat="48.33448" lon="7.39505">
        <ele>448.8</ele>
        <time>2021-07-01T12:13:34.000Z</time>
      </trkpt>
      <trkpt lat="48.33458" lon="7.39514">
        <ele>447.2</ele>
        <time>2021-07-01T12:13:39.000Z</time>
      </trkpt>
      <trkpt lat="48.33467" lon="7.39518">
        <ele>446.6</ele>
        <time>2021-07-01T12:13:44.000Z</time>
      </trkpt>
      <trkpt lat="48.33475" lon="7.39511">
        <ele>447.8</ele>
        <time>2021-07-01T12:13:51.000Z</time>
      </trkpt>
      <trkpt lat="48.33481" lon="7.39498">
        <ele>449.4</ele>
        <time>2021-07-01T12:13:58.000Z</time>
      </trkpt>
      <trkpt lat="48.33481" lon="7.39484">
        <ele>450.4</ele>
        <time>2021-07-01T12:14:09.000Z</time>
      </trkpt>
      <trkpt lat="48.33484" lon="7.39471">
        <ele>451.3</ele>
        <time>2021-07-01T12:14:18.000Z</time>
      </trkpt>
      <trkpt lat="48.33493" lon="7.39467">
        <ele>451.2</ele>
        <time>2021-07-01T12:14:28.000Z</time>
      </trkpt>
      <trkpt lat="48.33503" lon="7.39465">
        <ele>451.1</ele>
        <time>2021-07-01T12:14:42.000Z</time>
      </trkpt>
      <trkpt lat="48.33514" lon="7.39463">
        <ele>450.8</ele>
        <time>2021-07-01T12:14:49.000Z</time>
      </trkpt>
      <trkpt lat="48.33522" lon="7.39455">
        <ele>451</ele>
        <time>2021-07-01T12:14:55.000Z</time>
      </trkpt>
      <trkpt lat="48.33527" lon="7.39444">
        <ele>451.5</ele>
        <time>2021-07-01T12:15:06.000Z</time>
      </trkpt>
      <trkpt lat="48.33537" lon="7.39445">
        <ele>451.1</ele>
        <time>2021-07-01T12:15:21.000Z</time>
      </trkpt>
      <trkpt lat="48.33546" lon="7.39441">
        <ele>451.1</ele>
        <time>2021-07-01T12:15:57.000Z</time>
      </trkpt>
      <trkpt lat="48.33528" lon="7.39444">
        <ele>451.5</ele>
        <time>2021-07-01T12:16:10.000Z</time>
      </trkpt>
      <trkpt lat="48.33515" lon="7.39451">
        <ele>451.5</ele>
        <time>2021-07-01T12:16:15.000Z</time>
      </trkpt>
      <trkpt lat="48.33535" lon="7.39439">
        <ele>451.5</ele>
        <time>2021-07-01T12:16:20.000Z</time>
      </trkpt>
      <trkpt lat="48.33543" lon="7.39433">
        <ele>451.5</ele>
        <time>2021-07-01T12:17:13.000Z</time>
      </trkpt>
      <trkpt lat="48.33547" lon="7.39421">
        <ele>452.1</ele>
        <time>2021-07-01T12:17:20.000Z</time>
      </trkpt>
      <trkpt lat="48.3355" lon="7.39407">
        <ele>452.3</ele>
        <time>2021-07-01T12:17:29.000Z</time>
      </trkpt>
      <trkpt lat="48.33551" lon="7.39391">
        <ele>452.3</ele>
        <time>2021-07-01T12:17:39.000Z</time>
      </trkpt>
      <trkpt lat="48.33556" lon="7.39373">
        <ele>452.2</ele>
        <time>2021-07-01T12:17:50.000Z</time>
      </trkpt>
      <trkpt lat="48.33559" lon="7.39358">
        <ele>452.1</ele>
        <time>2021-07-01T12:17:57.000Z</time>
      </trkpt>
      <trkpt lat="48.33565" lon="7.3934">
        <ele>451.9</ele>
        <time>2021-07-01T12:18:10.000Z</time>
      </trkpt>
      <trkpt lat="48.33573" lon="7.39331">
        <ele>451.3</ele>
        <time>2021-07-01T12:18:18.000Z</time>
      </trkpt>
      <trkpt lat="48.33584" lon="7.39321">
        <ele>450</ele>
        <time>2021-07-01T12:18:31.000Z</time>
      </trkpt>
      <trkpt lat="48.33596" lon="7.39311">
        <ele>449.5</ele>
        <time>2021-07-01T12:18:42.000Z</time>
      </trkpt>
      <trkpt lat="48.33607" lon="7.39297">
        <ele>448.8</ele>
        <time>2021-07-01T12:18:52.000Z</time>
      </trkpt>
      <trkpt lat="48.33614" lon="7.39287">
        <ele>448.5</ele>
        <time>2021-07-01T12:18:57.000Z</time>
      </trkpt>
      <trkpt lat="48.33618" lon="7.39276">
        <ele>448</ele>
        <time>2021-07-01T12:19:04.000Z</time>
      </trkpt>
      <trkpt lat="48.3362" lon="7.39262">
        <ele>447.3</ele>
        <time>2021-07-01T12:19:10.000Z</time>
      </trkpt>
      <trkpt lat="48.33621" lon="7.39247">
        <ele>446.7</ele>
        <time>2021-07-01T12:19:16.000Z</time>
      </trkpt>
      <trkpt lat="48.33626" lon="7.39234">
        <ele>446.7</ele>
        <time>2021-07-01T12:19:23.000Z</time>
      </trkpt>
      <trkpt lat="48.33629" lon="7.39221">
        <ele>446.6</ele>
        <time>2021-07-01T12:19:30.000Z</time>
      </trkpt>
      <trkpt lat="48.33636" lon="7.39212">
        <ele>446.7</ele>
        <time>2021-07-01T12:19:41.000Z</time>
      </trkpt>
      <trkpt lat="48.33646" lon="7.39201">
        <ele>447</ele>
        <time>2021-07-01T12:19:53.000Z</time>
      </trkpt>
      <trkpt lat="48.33655" lon="7.39196">
        <ele>447.4</ele>
        <time>2021-07-01T12:20:01.000Z</time>
      </trkpt>
      <trkpt lat="48.3367" lon="7.39184">
        <ele>447.5</ele>
        <time>2021-07-01T12:20:16.000Z</time>
      </trkpt>
      <trkpt lat="48.33679" lon="7.39177">
        <ele>446.8</ele>
        <time>2021-07-01T12:20:24.000Z</time>
      </trkpt>
      <trkpt lat="48.33688" lon="7.3917">
        <ele>446.1</ele>
        <time>2021-07-01T12:20:32.000Z</time>
      </trkpt>
      <trkpt lat="48.33696" lon="7.3916">
        <ele>445.2</ele>
        <time>2021-07-01T12:20:38.000Z</time>
      </trkpt>
      <trkpt lat="48.33704" lon="7.39153">
        <ele>444.4</ele>
        <time>2021-07-01T12:20:45.000Z</time>
      </trkpt>
      <trkpt lat="48.33713" lon="7.39148">
        <ele>443.7</ele>
        <time>2021-07-01T12:20:52.000Z</time>
      </trkpt>
      <trkpt lat="48.33723" lon="7.39146">
        <ele>443</ele>
        <time>2021-07-01T12:21:00.000Z</time>
      </trkpt>
      <trkpt lat="48.33733" lon="7.39141">
        <ele>442.3</ele>
        <time>2021-07-01T12:21:54.000Z</time>
      </trkpt>
      <trkpt lat="48.33746" lon="7.3914">
        <ele>441.6</ele>
        <time>2021-07-01T12:22:06.000Z</time>
      </trkpt>
      <trkpt lat="48.33759" lon="7.39139">
        <ele>440.7</ele>
        <time>2021-07-01T12:22:17.000Z</time>
      </trkpt>
      <trkpt lat="48.33769" lon="7.3914">
        <ele>440</ele>
        <time>2021-07-01T12:22:22.000Z</time>
      </trkpt>
      <trkpt lat="48.33778" lon="7.39142">
        <ele>439.4</ele>
        <time>2021-07-01T12:22:28.000Z</time>
      </trkpt>
      <trkpt lat="48.33787" lon="7.39144">
        <ele>438.8</ele>
        <time>2021-07-01T12:22:36.000Z</time>
      </trkpt>
      <trkpt lat="48.33806" lon="7.39141">
        <ele>437.3</ele>
        <time>2021-07-01T12:22:53.000Z</time>
      </trkpt>
      <trkpt lat="48.33817" lon="7.39141">
        <ele>436.4</ele>
        <time>2021-07-01T12:22:58.000Z</time>
      </trkpt>
      <trkpt lat="48.33835" lon="7.3914">
        <ele>434.9</ele>
        <time>2021-07-01T12:23:15.000Z</time>
      </trkpt>
      <trkpt lat="48.33844" lon="7.39141">
        <ele>434.3</ele>
        <time>2021-07-01T12:23:21.000Z</time>
      </trkpt>
      <trkpt lat="48.33853" lon="7.39147">
        <ele>434.2</ele>
        <time>2021-07-01T12:23:27.000Z</time>
      </trkpt>
      <trkpt lat="48.33862" lon="7.39152">
        <ele>434</ele>
        <time>2021-07-01T12:23:35.000Z</time>
      </trkpt>
      <trkpt lat="48.33872" lon="7.39155">
        <ele>433.6</ele>
        <time>2021-07-01T12:23:43.000Z</time>
      </trkpt>
      <trkpt lat="48.33884" lon="7.39157">
        <ele>433</ele>
        <time>2021-07-01T12:23:56.000Z</time>
      </trkpt>
      <trkpt lat="48.33893" lon="7.39161">
        <ele>432.8</ele>
        <time>2021-07-01T12:24:03.000Z</time>
      </trkpt>
      <trkpt lat="48.33905" lon="7.39163">
        <ele>432.3</ele>
        <time>2021-07-01T12:24:16.000Z</time>
      </trkpt>
      <trkpt lat="48.33917" lon="7.39157">
        <ele>430.8</ele>
        <time>2021-07-01T12:24:27.000Z</time>
      </trkpt>
      <trkpt lat="48.33928" lon="7.39151">
        <ele>428.6</ele>
        <time>2021-07-01T12:24:38.000Z</time>
      </trkpt>
      <trkpt lat="48.33942" lon="7.39142">
        <ele>425.8</ele>
        <time>2021-07-01T12:24:49.000Z</time>
      </trkpt>
      <trkpt lat="48.33951" lon="7.39138">
        <ele>424.1</ele>
        <time>2021-07-01T12:24:54.000Z</time>
      </trkpt>
      <trkpt lat="48.33965" lon="7.39132">
        <ele>421.8</ele>
        <time>2021-07-01T12:25:07.000Z</time>
      </trkpt>
      <trkpt lat="48.33977" lon="7.39127">
        <ele>419.7</ele>
        <time>2021-07-01T12:25:20.000Z</time>
      </trkpt>
      <trkpt lat="48.33989" lon="7.39126">
        <ele>418</ele>
        <time>2021-07-01T12:25:31.000Z</time>
      </trkpt>
      <trkpt lat="48.34002" lon="7.39123">
        <ele>416.2</ele>
        <time>2021-07-01T12:25:42.000Z</time>
      </trkpt>
      <trkpt lat="48.34011" lon="7.39122">
        <ele>415.7</ele>
        <time>2021-07-01T12:25:47.000Z</time>
      </trkpt>
      <trkpt lat="48.34022" lon="7.3912">
        <ele>415.2</ele>
        <time>2021-07-01T12:25:53.000Z</time>
      </trkpt>
      <trkpt lat="48.34031" lon="7.39121">
        <ele>414.9</ele>
        <time>2021-07-01T12:26:01.000Z</time>
      </trkpt>
      <trkpt lat="48.34042" lon="7.39126">
        <ele>414.8</ele>
        <time>2021-07-01T12:26:13.000Z</time>
      </trkpt>
      <trkpt lat="48.34055" lon="7.39131">
        <ele>414.5</ele>
        <time>2021-07-01T12:26:24.000Z</time>
      </trkpt>
      <trkpt lat="48.34066" lon="7.39127">
        <ele>413.8</ele>
        <time>2021-07-01T12:26:29.000Z</time>
      </trkpt>
      <trkpt lat="48.34074" lon="7.39135">
        <ele>413.7</ele>
        <time>2021-07-01T12:26:39.000Z</time>
      </trkpt>
      <trkpt lat="48.34079" lon="7.39149">
        <ele>413.9</ele>
        <time>2021-07-01T12:26:49.000Z</time>
      </trkpt>
      <trkpt lat="48.34079" lon="7.39153">
        <ele>414</ele>
        <time>2021-07-01T12:26:56.000Z</time>
      </trkpt>
    </trkseg>
  </trk>
</gpx>